Time,TemperatureF,DewpointF,PressureIn,WindDirection,WindDirectionDegrees,WindSpeedMPH,WindSpeedGustMPH,Humidity,HourlyPrecipIn,Conditions,Clouds,dailyrainin,SoftwareType,DateUTC
2013-01-22 00:00:00,13.1,-16.9,29.71,NW,315,7.2,7.2,24,0.00,,,0.00,VWS V13.01,2013-01-22 06:00:00,
2013-01-22 00:01:00,13.1,-16.9,29.71,NW,315,6.7,6.7,24,0.00,,,0.00,VWS V13.01,2013-01-22 06:01:00,
2013-01-22 00:02:00,13.1,-16.9,29.71,NNW,338,6.3,6.7,24,0.00,,,0.00,VWS V13.01,2013-01-22 06:02:00,
2013-01-22 00:03:00,13.1,-16.9,29.71,NW,315,5.8,6.3,24,0.00,,,0.00,VWS V13.01,2013-01-22 06:03:00,
2013-01-22 00:04:00,13.1,-16.9,29.71,NW,315,2.7,6.3,24,0.00,,,0.00,VWS V13.01,2013-01-22 06:04:00,
2013-01-22 00:05:00,13.1,-16.9,29.71,NW,315,3.1,5.4,24,0.00,,,0.00,VWS V13.01,2013-01-22 06:05:00,
2013-01-22 00:06:00,12.9,-17.1,29.71,NW,315,3.6,3.6,24,0.00,,,0.00,VWS V13.01,2013-01-22 06:06:00,
2013-01-22 00:07:00,12.9,-17.1,29.71,NW,315,3.6,3.6,24,0.00,,,0.00,VWS V13.01,2013-01-22 06:07:00,
2013-01-22 00:08:00,12.9,-17.1,29.71,NNW,338,5.4,7.2,24,0.00,,,0.00,VWS V13.01,2013-01-22 06:08:00,
2013-01-22 00:09:00,12.9,-17.1,29.71,NW,315,6.3,7.2,24,0.00,,,0.00,VWS V13.01,2013-01-22 06:09:00,
2013-01-22 00:10:00,12.9,-17.1,29.71,NW,315,2.7,6.3,24,0.00,,,0.00,VWS V13.01,2013-01-22 06:10:00,
2013-01-22 00:11:00,12.9,-17.1,29.71,NW,315,2.7,6.3,24,0.00,,,0.00,VWS V13.01,2013-01-22 06:11:00,
2013-01-22 00:12:00,12.9,-17.1,29.71,NW,315,2.7,6.3,24,0.00,,,0.00,VWS V13.01,2013-01-22 06:12:00,
2013-01-22 00:13:00,12.9,-17.1,29.71,NW,315,3.6,4.9,24,0.00,,,0.00,VWS V13.01,2013-01-22 06:13:00,
2013-01-22 00:14:00,12.9,-17.1,29.71,NW,315,5.8,5.8,24,0.00,,,0.00,VWS V13.01,2013-01-22 06:14:00,
2013-01-22 00:15:00,12.9,-17.1,29.71,NW,315,4.0,8.1,24,0.00,,,0.00,VWS V13.01,2013-01-22 06:15:00,
2013-01-22 00:16:00,12.9,-17.1,29.71,NW,315,3.6,4.9,24,0.00,,,0.00,VWS V13.01,2013-01-22 06:16:00,
2013-01-22 00:17:00,12.9,-17.1,29.71,NW,315,3.1,4.9,24,0.00,,,0.00,VWS V13.01,2013-01-22 06:17:00,
2013-01-22 00:18:00,12.7,-17.2,29.71,NW,315,3.6,4.0,24,0.00,,,0.00,VWS V13.01,2013-01-22 06:18:00,
2013-01-22 00:19:00,12.7,-17.2,29.71,NW,315,3.6,4.0,24,0.00,,,0.00,VWS V13.01,2013-01-22 06:19:00,
2013-01-22 00:20:00,12.7,-17.2,29.71,NW,315,5.8,5.8,24,0.00,,,0.00,VWS V13.01,2013-01-22 06:20:00,
2013-01-22 00:21:00,12.7,-17.2,29.71,NW,315,2.7,4.0,24,0.00,,,0.00,VWS V13.01,2013-01-22 06:21:00,
2013-01-22 00:22:00,12.7,-17.2,29.71,NW,315,2.7,4.0,24,0.00,,,0.00,VWS V13.01,2013-01-22 06:22:00,
2013-01-22 00:23:00,12.7,-17.2,29.71,NW,315,3.6,4.9,24,0.00,,,0.00,VWS V13.01,2013-01-22 06:23:00,
2013-01-22 00:24:00,12.7,-17.2,29.71,NW,315,2.2,4.0,24,0.00,,,0.00,VWS V13.01,2013-01-22 06:24:00,
2013-01-22 00:25:00,12.6,-17.4,29.71,NW,315,5.4,5.4,24,0.00,,,0.00,VWS V13.01,2013-01-22 06:25:00,
2013-01-22 00:26:00,12.6,-17.4,29.71,NW,315,2.7,5.4,24,0.00,,,0.00,VWS V13.01,2013-01-22 06:26:00,
2013-01-22 00:27:00,12.6,-17.4,29.71,NW,315,4.0,6.3,24,0.00,,,0.00,VWS V13.01,2013-01-22 06:27:00,
2013-01-22 00:28:00,12.6,-17.4,29.71,NW,315,3.6,5.8,24,0.00,,,0.00,VWS V13.01,2013-01-22 06:28:00,
2013-01-22 00:29:00,12.6,-17.4,29.71,NW,315,3.6,3.6,24,0.00,,,0.00,VWS V13.01,2013-01-22 06:29:00,
2013-01-22 00:30:00,12.6,-17.4,29.71,NW,315,0.0,3.6,24,0.00,,,0.00,VWS V13.01,2013-01-22 06:30:00,
2013-01-22 00:31:00,12.4,-17.5,29.71,NW,315,3.1,3.1,24,0.00,,,0.00,VWS V13.01,2013-01-22 06:31:00,
2013-01-22 00:32:00,12.4,-17.5,29.71,NW,315,2.2,4.9,24,0.00,,,0.00,VWS V13.01,2013-01-22 06:32:00,
2013-01-22 00:33:00,12.4,-17.5,29.71,NW,315,4.0,5.8,24,0.00,,,0.00,VWS V13.01,2013-01-22 06:33:00,
2013-01-22 00:34:00,12.4,-17.5,29.71,NW,315,2.7,4.0,24,0.00,,,0.00,VWS V13.01,2013-01-22 06:34:00,
2013-01-22 00:35:00,12.4,-17.5,29.71,NW,315,3.6,4.0,24,0.00,,,0.00,VWS V13.01,2013-01-22 06:35:00,
2013-01-22 00:36:00,12.4,-17.5,29.71,NW,315,2.7,4.9,24,0.00,,,0.00,VWS V13.01,2013-01-22 06:36:00,
2013-01-22 00:37:00,12.4,-17.5,29.71,NW,315,3.1,3.6,24,0.00,,,0.00,VWS V13.01,2013-01-22 06:37:00,
2013-01-22 00:38:00,12.4,-17.5,29.71,NW,315,0.0,4.0,24,0.00,,,0.00,VWS V13.01,2013-01-22 06:38:00,
2013-01-22 00:39:00,12.4,-17.5,29.71,NW,315,3.1,4.0,24,0.00,,,0.00,VWS V13.01,2013-01-22 06:39:00,
2013-01-22 00:40:00,12.4,-17.5,29.71,NW,315,2.2,3.1,24,0.00,,,0.00,VWS V13.01,2013-01-22 06:40:00,
2013-01-22 00:41:00,12.4,-17.5,29.71,NW,315,4.0,4.0,24,0.00,,,0.00,VWS V13.01,2013-01-22 06:41:00,
2013-01-22 00:42:00,12.4,-17.5,29.71,NW,315,2.7,4.5,24,0.00,,,0.00,VWS V13.01,2013-01-22 06:42:00,
2013-01-22 00:43:00,12.4,-17.5,29.71,NNW,338,4.0,4.9,24,0.00,,,0.00,VWS V13.01,2013-01-22 06:43:00,
2013-01-22 00:44:00,12.4,-17.5,29.71,NNW,338,4.0,5.4,24,0.00,,,0.00,VWS V13.01,2013-01-22 06:44:00,
2013-01-22 00:45:00,12.4,-17.5,29.71,NW,315,3.1,6.3,24,0.00,,,0.00,VWS V13.01,2013-01-22 06:45:00,
2013-01-22 00:46:00,12.4,-17.5,29.71,NW,315,3.1,4.0,24,0.00,,,0.00,VWS V13.01,2013-01-22 06:46:00,
2013-01-22 00:47:00,12.4,-17.5,29.71,NW,315,2.7,3.1,24,0.00,,,0.00,VWS V13.01,2013-01-22 06:47:00,
2013-01-22 00:48:00,12.4,-17.5,29.71,NW,315,2.7,4.0,24,0.00,,,0.00,VWS V13.01,2013-01-22 06:48:00,
2013-01-22 00:49:00,12.4,-17.5,29.71,NW,315,4.0,4.0,24,0.00,,,0.00,VWS V13.01,2013-01-22 06:49:00,
2013-01-22 00:50:00,12.0,-17.8,29.71,NW,315,2.7,4.0,24,0.00,,,0.00,VWS V13.01,2013-01-22 06:50:00,
2013-01-22 00:51:00,12.0,-17.8,29.71,NW,315,3.6,3.6,24,0.00,,,0.00,VWS V13.01,2013-01-22 06:51:00,
2013-01-22 00:52:00,12.0,-17.8,29.71,NW,315,2.7,2.7,24,0.00,,,0.00,VWS V13.01,2013-01-22 06:52:00,
2013-01-22 00:53:00,12.0,-17.8,29.71,NW,315,2.7,2.7,24,0.00,,,0.00,VWS V13.01,2013-01-22 06:53:00,
2013-01-22 00:54:00,12.0,-17.8,29.71,NW,315,4.0,4.0,24,0.00,,,0.00,VWS V13.01,2013-01-22 06:54:00,
2013-01-22 00:55:00,12.0,-17.8,29.71,NW,315,4.0,5.4,24,0.00,,,0.00,VWS V13.01,2013-01-22 06:55:00,
2013-01-22 00:56:00,12.0,-17.8,29.71,NW,315,5.8,5.8,24,0.00,,,0.00,VWS V13.01,2013-01-22 06:56:00,
2013-01-22 00:57:00,12.0,-17.8,29.71,NW,315,2.2,3.6,24,0.00,,,0.00,VWS V13.01,2013-01-22 06:57:00,
2013-01-22 00:58:00,12.0,-17.8,29.71,NW,315,4.9,4.9,24,0.00,,,0.00,VWS V13.01,2013-01-22 06:58:00,
2013-01-22 00:59:00,12.0,-17.8,29.71,NW,315,5.4,5.4,24,0.00,,,0.00,VWS V13.01,2013-01-22 06:59:00,
2013-01-22 01:00:00,12.0,-17.8,29.71,NW,315,4.9,5.4,24,0.00,,,0.00,VWS V13.01,2013-01-22 07:00:00,
2013-01-22 01:01:00,12.0,-17.8,29.71,NW,315,4.0,5.8,24,0.00,,,0.00,VWS V13.01,2013-01-22 07:01:00,
2013-01-22 01:02:00,12.0,-17.8,29.71,NW,315,6.3,6.3,24,0.00,,,0.00,VWS V13.01,2013-01-22 07:02:00,
2013-01-22 01:03:00,12.2,-17.7,29.71,NNW,338,4.0,6.3,24,0.00,,,0.00,VWS V13.01,2013-01-22 07:03:00,
2013-01-22 01:04:00,12.2,-17.7,29.71,NW,315,6.3,6.3,24,0.00,,,0.00,VWS V13.01,2013-01-22 07:04:00,
2013-01-22 01:05:00,12.2,-17.7,29.71,NW,315,2.7,6.3,24,0.00,,,0.00,VWS V13.01,2013-01-22 07:05:00,
2013-01-22 01:06:00,12.2,-17.7,29.71,NW,315,5.8,5.8,24,0.00,,,0.00,VWS V13.01,2013-01-22 07:06:00,
2013-01-22 01:07:00,12.2,-17.7,29.71,NNW,338,4.0,4.0,24,0.00,,,0.00,VWS V13.01,2013-01-22 07:07:00,
2013-01-22 01:08:00,12.2,-17.7,29.71,NW,315,3.6,4.0,24,0.00,,,0.00,VWS V13.01,2013-01-22 07:08:00,
2013-01-22 01:09:00,12.2,-17.7,29.71,NW,315,4.0,4.0,24,0.00,,,0.00,VWS V13.01,2013-01-22 07:09:00,
2013-01-22 01:10:00,12.2,-17.7,29.71,NW,315,3.1,4.0,24,0.00,,,0.00,VWS V13.01,2013-01-22 07:10:00,
2013-01-22 01:11:00,12.0,-17.8,29.71,NW,315,2.7,3.1,24,0.00,,,0.00,VWS V13.01,2013-01-22 07:11:00,
2013-01-22 01:12:00,12.0,-17.8,29.71,NW,315,2.7,4.0,24,0.00,,,0.00,VWS V13.01,2013-01-22 07:12:00,
2013-01-22 01:13:00,12.0,-17.8,29.71,NW,315,4.0,4.5,24,0.00,,,0.00,VWS V13.01,2013-01-22 07:13:00,
2013-01-22 01:14:00,12.0,-17.8,29.71,NW,315,4.0,4.0,24,0.00,,,0.00,VWS V13.01,2013-01-22 07:14:00,
2013-01-22 01:15:00,12.0,-17.8,29.71,NW,315,5.4,5.4,24,0.00,,,0.00,VWS V13.01,2013-01-22 07:15:00,
2013-01-22 01:16:00,12.0,-17.8,29.71,NW,315,4.5,5.4,24,0.00,,,0.00,VWS V13.01,2013-01-22 07:16:00,
2013-01-22 01:17:00,12.0,-17.8,29.71,NW,315,2.7,2.7,24,0.00,,,0.00,VWS V13.01,2013-01-22 07:17:00,
2013-01-22 01:18:00,12.0,-17.8,29.71,NW,315,3.6,3.6,24,0.00,,,0.00,VWS V13.01,2013-01-22 07:18:00,
2013-01-22 01:19:00,12.0,-17.8,29.71,NW,315,4.9,4.9,24,0.00,,,0.00,VWS V13.01,2013-01-22 07:19:00,
2013-01-22 01:20:00,12.0,-17.8,29.71,NW,315,2.7,4.9,24,0.00,,,0.00,VWS V13.01,2013-01-22 07:20:00,
2013-01-22 01:21:00,12.0,-17.8,29.71,NW,315,4.0,5.8,24,0.00,,,0.00,VWS V13.01,2013-01-22 07:21:00,
2013-01-22 01:22:00,12.0,-17.8,29.71,NW,315,3.1,5.4,24,0.00,,,0.00,VWS V13.01,2013-01-22 07:22:00,
2013-01-22 01:23:00,12.0,-17.8,29.71,NW,315,2.7,5.4,24,0.00,,,0.00,VWS V13.01,2013-01-22 07:23:00,
2013-01-22 01:24:00,12.0,-17.8,29.71,NW,315,3.1,5.8,24,0.00,,,0.00,VWS V13.01,2013-01-22 07:24:00,
2013-01-22 01:25:00,12.0,-17.8,29.71,NW,315,4.5,4.5,24,0.00,,,0.00,VWS V13.01,2013-01-22 07:25:00,
2013-01-22 01:26:00,11.8,-18.0,29.71,NW,315,3.1,4.5,24,0.00,,,0.00,VWS V13.01,2013-01-22 07:26:00,
2013-01-22 01:27:00,11.8,-18.0,29.71,NW,315,3.6,4.9,24,0.00,,,0.00,VWS V13.01,2013-01-22 07:27:00,
2013-01-22 01:28:00,11.8,-18.0,29.71,NW,315,3.1,4.9,24,0.00,,,0.00,VWS V13.01,2013-01-22 07:28:00,
2013-01-22 01:29:00,11.8,-18.0,29.71,NW,315,4.9,4.9,24,0.00,,,0.00,VWS V13.01,2013-01-22 07:29:00,
2013-01-22 01:30:00,11.8,-18.0,29.71,NW,315,3.1,4.9,24,0.00,,,0.00,VWS V13.01,2013-01-22 07:30:00,
2013-01-22 01:31:00,11.8,-18.0,29.71,NW,315,4.0,4.0,24,0.00,,,0.00,VWS V13.01,2013-01-22 07:31:00,
2013-01-22 01:32:00,11.8,-18.0,29.71,NW,315,3.6,4.9,24,0.00,,,0.00,VWS V13.01,2013-01-22 07:32:00,
2013-01-22 01:33:00,11.8,-18.0,29.71,NW,315,4.0,4.9,24,0.00,,,0.00,VWS V13.01,2013-01-22 07:33:00,
2013-01-22 01:34:00,12.0,-17.8,29.71,NW,315,2.7,4.0,24,0.00,,,0.00,VWS V13.01,2013-01-22 07:34:00,
2013-01-22 01:35:00,11.8,-18.0,29.71,NW,315,2.7,4.0,24,0.00,,,0.00,VWS V13.01,2013-01-22 07:35:00,
2013-01-22 01:36:00,12.0,-17.8,29.71,NW,315,3.6,4.0,24,0.00,,,0.00,VWS V13.01,2013-01-22 07:36:00,
2013-01-22 01:37:00,12.0,-17.8,29.71,NNW,338,3.6,5.4,24,0.00,,,0.00,VWS V13.01,2013-01-22 07:37:00,
2013-01-22 01:38:00,12.0,-17.8,29.71,NW,315,3.6,5.4,24,0.00,,,0.00,VWS V13.01,2013-01-22 07:38:00,
2013-01-22 01:39:00,12.0,-17.8,29.71,NW,315,4.9,4.9,24,0.00,,,0.00,VWS V13.01,2013-01-22 07:39:00,
2013-01-22 01:40:00,12.0,-17.8,29.71,NW,315,2.2,4.9,24,0.00,,,0.00,VWS V13.01,2013-01-22 07:40:00,
2013-01-22 01:41:00,12.0,-17.8,29.71,NW,315,2.7,4.0,24,0.00,,,0.00,VWS V13.01,2013-01-22 07:41:00,
2013-01-22 01:42:00,12.0,-17.8,29.71,NNW,338,3.6,3.6,24,0.00,,,0.00,VWS V13.01,2013-01-22 07:42:00,
2013-01-22 01:43:00,12.0,-17.8,29.71,NW,315,3.1,3.6,24,0.00,,,0.00,VWS V13.01,2013-01-22 07:43:00,
2013-01-22 01:44:00,12.0,-17.8,29.71,NW,315,0.0,3.1,24,0.00,,,0.00,VWS V13.01,2013-01-22 07:44:00,
2013-01-22 01:45:00,12.0,-17.8,29.71,NW,315,4.0,4.0,24,0.00,,,0.00,VWS V13.01,2013-01-22 07:45:00,
2013-01-22 01:46:00,12.0,-17.8,29.71,NNW,338,2.2,4.0,24,0.00,,,0.00,VWS V13.01,2013-01-22 07:46:00,
2013-01-22 01:47:00,12.0,-17.8,29.71,NNW,338,2.7,3.1,24,0.00,,,0.00,VWS V13.01,2013-01-22 07:47:00,
2013-01-22 01:48:00,12.0,-17.8,29.71,NW,315,3.1,3.1,24,0.00,,,0.00,VWS V13.01,2013-01-22 07:48:00,
2013-01-22 01:49:00,12.0,-17.8,29.71,NW,315,4.5,4.5,24,0.00,,,0.00,VWS V13.01,2013-01-22 07:49:00,
2013-01-22 01:50:00,12.0,-17.8,29.71,NW,315,2.7,4.5,24,0.00,,,0.00,VWS V13.01,2013-01-22 07:50:00,
2013-01-22 01:51:00,12.0,-17.8,29.71,NW,315,3.6,4.9,24,0.00,,,0.00,VWS V13.01,2013-01-22 07:51:00,
2013-01-22 01:52:00,12.0,-17.8,29.71,NW,315,3.6,3.6,24,0.00,,,0.00,VWS V13.01,2013-01-22 07:52:00,
2013-01-22 01:53:00,12.0,-17.8,29.71,NW,315,2.7,4.0,24,0.00,,,0.00,VWS V13.01,2013-01-22 07:53:00,
2013-01-22 01:54:00,12.0,-17.8,29.71,NW,315,0.0,2.7,24,0.00,,,0.00,VWS V13.01,2013-01-22 07:54:00,
2013-01-22 01:55:00,12.0,-17.8,29.71,NW,315,3.1,4.5,24,0.00,,,0.00,VWS V13.01,2013-01-22 07:55:00,
2013-01-22 01:56:00,12.0,-17.8,29.71,NW,315,5.4,5.4,24,0.00,,,0.00,VWS V13.01,2013-01-22 07:56:00,
2013-01-22 01:57:00,12.0,-17.8,29.71,NW,315,4.9,4.9,24,0.00,,,0.00,VWS V13.01,2013-01-22 07:57:00,
2013-01-22 01:58:00,12.0,-17.8,29.71,NW,315,3.1,4.9,24,0.00,,,0.00,VWS V13.01,2013-01-22 07:58:00,
2013-01-22 01:59:00,12.0,-17.8,29.71,North,0,3.6,4.5,24,0.00,,,0.00,VWS V13.01,2013-01-22 07:59:00,
2013-01-22 02:00:00,12.0,-17.8,29.71,NW,315,5.8,5.8,24,0.00,,,0.00,VWS V13.01,2013-01-22 08:00:00,
2013-01-22 02:01:00,12.0,-17.8,29.71,NW,315,3.1,7.6,24,0.00,,,0.00,VWS V13.01,2013-01-22 08:01:00,
2013-01-22 02:02:00,12.0,-17.8,29.71,NW,315,3.1,4.5,24,0.00,,,0.00,VWS V13.01,2013-01-22 08:02:00,
2013-01-22 02:03:00,12.0,-17.8,29.71,NW,315,4.9,4.9,24,0.00,,,0.00,VWS V13.01,2013-01-22 08:03:00,
2013-01-22 02:04:00,12.0,-17.8,29.71,NW,315,3.1,4.9,24,0.00,,,0.00,VWS V13.01,2013-01-22 08:04:00,
2013-01-22 02:05:00,12.0,-17.8,29.71,NW,315,3.1,4.0,24,0.00,,,0.00,VWS V13.01,2013-01-22 08:05:00,
2013-01-22 02:06:00,11.8,-18.0,29.71,NW,315,3.1,4.0,24,0.00,,,0.00,VWS V13.01,2013-01-22 08:06:00,
2013-01-22 02:07:00,11.8,-18.0,29.71,NW,315,2.7,4.9,24,0.00,,,0.00,VWS V13.01,2013-01-22 08:07:00,
2013-01-22 02:08:00,11.8,-18.0,29.71,NW,315,4.0,4.9,24,0.00,,,0.00,VWS V13.01,2013-01-22 08:08:00,
2013-01-22 02:09:00,11.8,-18.0,29.71,NW,315,3.1,4.0,24,0.00,,,0.00,VWS V13.01,2013-01-22 08:09:00,
2013-01-22 02:10:00,11.8,-18.0,29.71,NW,315,4.5,4.5,24,0.00,,,0.00,VWS V13.01,2013-01-22 08:10:00,
2013-01-22 02:11:00,11.8,-18.0,29.71,NNW,338,2.2,5.8,24,0.00,,,0.00,VWS V13.01,2013-01-22 08:11:00,
2013-01-22 02:12:00,11.8,-18.0,29.71,NW,315,3.1,4.9,24,0.00,,,0.00,VWS V13.01,2013-01-22 08:12:00,
2013-01-22 02:13:00,11.8,-18.0,29.71,NW,315,2.7,4.9,24,0.00,,,0.00,VWS V13.01,2013-01-22 08:13:00,
2013-01-22 02:14:00,11.8,-18.0,29.71,NW,315,4.0,4.9,24,0.00,,,0.00,VWS V13.01,2013-01-22 08:14:00,
2013-01-22 02:15:00,11.8,-18.0,29.71,NW,315,3.6,4.0,24,0.00,,,0.00,VWS V13.01,2013-01-22 08:15:00,
2013-01-22 02:16:00,11.8,-18.0,29.71,NW,315,4.9,4.9,24,0.00,,,0.00,VWS V13.01,2013-01-22 08:16:00,
2013-01-22 02:17:00,11.8,-18.0,29.71,NNW,338,2.2,3.6,24,0.00,,,0.00,VWS V13.01,2013-01-22 08:17:00,
2013-01-22 02:18:00,11.8,-18.0,29.71,NNW,338,2.2,3.6,24,0.00,,,0.00,VWS V13.01,2013-01-22 08:18:00,
2013-01-22 02:19:00,11.8,-18.0,29.71,NNW,338,4.9,5.4,24,0.00,,,0.00,VWS V13.01,2013-01-22 08:19:00,
2013-01-22 02:20:00,11.8,-18.0,29.71,NNW,338,3.1,4.9,24,0.00,,,0.00,VWS V13.01,2013-01-22 08:20:00,
2013-01-22 02:21:00,11.8,-18.0,29.71,NNW,338,3.1,5.4,24,0.00,,,0.00,VWS V13.01,2013-01-22 08:21:00,
2013-01-22 02:22:00,11.8,-18.0,29.71,NW,315,4.9,4.9,24,0.00,,,0.00,VWS V13.01,2013-01-22 08:22:00,
2013-01-22 02:23:00,11.8,-18.0,29.71,NNW,338,4.0,4.9,24,0.00,,,0.00,VWS V13.01,2013-01-22 08:23:00,
2013-01-22 02:24:00,11.8,-18.0,29.71,NW,315,3.1,4.5,24,0.00,,,0.00,VWS V13.01,2013-01-22 08:24:00,
2013-01-22 02:25:00,11.8,-18.0,29.71,NW,315,4.0,4.0,24,0.00,,,0.00,VWS V13.01,2013-01-22 08:25:00,
2013-01-22 02:26:00,11.8,-18.0,29.71,NNW,338,4.9,5.4,24,0.00,,,0.00,VWS V13.01,2013-01-22 08:26:00,
2013-01-22 02:27:00,11.8,-18.0,29.71,NNW,338,3.1,4.0,24,0.00,,,0.00,VWS V13.01,2013-01-22 08:27:00,
2013-01-22 02:28:00,11.8,-18.0,29.71,NNW,338,3.1,4.0,24,0.00,,,0.00,VWS V13.01,2013-01-22 08:28:00,
2013-01-22 02:29:00,11.8,-18.0,29.71,NNW,338,2.7,3.1,24,0.00,,,0.00,VWS V13.01,2013-01-22 08:29:00,
2013-01-22 02:30:00,11.7,-18.1,29.71,NW,315,3.1,4.5,24,0.00,,,0.00,VWS V13.01,2013-01-22 08:30:00,
2013-01-22 02:31:00,11.7,-18.1,29.71,NW,315,3.6,3.6,24,0.00,,,0.00,VWS V13.01,2013-01-22 08:31:00,
2013-01-22 02:32:00,11.7,-18.1,29.71,NNW,338,4.9,5.8,24,0.00,,,0.00,VWS V13.01,2013-01-22 08:32:00,
2013-01-22 02:33:00,11.8,-18.0,29.71,NW,315,2.7,5.8,24,0.00,,,0.00,VWS V13.01,2013-01-22 08:33:00,
2013-01-22 02:34:00,11.8,-18.0,29.71,NNW,338,5.4,5.4,24,0.00,,,0.00,VWS V13.01,2013-01-22 08:34:00,
2013-01-22 02:35:00,11.8,-18.0,29.71,NNW,338,4.0,5.8,24,0.00,,,0.00,VWS V13.01,2013-01-22 08:35:00,
2013-01-22 02:36:00,11.8,-18.0,29.71,NNW,338,5.4,5.4,24,0.00,,,0.00,VWS V13.01,2013-01-22 08:36:00,
2013-01-22 02:37:00,11.8,-18.0,29.71,NW,315,5.8,5.8,24,0.00,,,0.00,VWS V13.01,2013-01-22 08:37:00,
2013-01-22 02:38:00,11.8,-18.0,29.71,NW,315,5.8,7.2,24,0.00,,,0.00,VWS V13.01,2013-01-22 08:38:00,
2013-01-22 02:39:00,11.8,-18.0,29.71,NW,315,3.1,6.3,24,0.00,,,0.00,VWS V13.01,2013-01-22 08:39:00,
2013-01-22 02:40:00,11.8,-18.0,29.71,NW,315,4.5,8.1,24,0.00,,,0.00,VWS V13.01,2013-01-22 08:40:00,
2013-01-22 02:41:00,11.8,-18.0,29.71,NW,315,8.7,8.7,24,0.00,,,0.00,VWS V13.01,2013-01-22 08:41:00,
2013-01-22 02:42:00,11.8,-18.0,29.71,North,0,6.7,6.7,24,0.00,,,0.00,VWS V13.01,2013-01-22 08:42:00,
2013-01-22 02:43:00,11.8,-18.0,29.71,NW,315,5.4,6.7,24,0.00,,,0.00,VWS V13.01,2013-01-22 08:43:00,
2013-01-22 02:44:00,11.8,-18.0,29.71,NNW,338,6.3,6.3,24,0.00,,,0.00,VWS V13.01,2013-01-22 08:44:00,
2013-01-22 02:45:00,11.8,-18.0,29.71,NW,315,4.0,6.7,24,0.00,,,0.00,VWS V13.01,2013-01-22 08:45:00,
2013-01-22 02:46:00,11.8,-18.0,29.71,NNW,338,5.4,5.4,24,0.00,,,0.00,VWS V13.01,2013-01-22 08:46:00,
2013-01-22 02:47:00,11.8,-18.0,29.71,NW,315,4.9,4.9,24,0.00,,,0.00,VWS V13.01,2013-01-22 08:47:00,
2013-01-22 02:48:00,11.8,-18.0,29.71,NW,315,3.6,4.9,24,0.00,,,0.00,VWS V13.01,2013-01-22 08:48:00,
2013-01-22 02:49:00,11.8,-18.0,29.71,NW,315,0.0,4.0,24,0.00,,,0.00,VWS V13.01,2013-01-22 08:49:00,
2013-01-22 02:50:00,11.8,-18.0,29.71,NNW,338,6.3,6.3,24,0.00,,,0.00,VWS V13.01,2013-01-22 08:50:00,
2013-01-22 02:51:00,11.8,-18.0,29.71,NW,315,3.6,7.2,24,0.00,,,0.00,VWS V13.01,2013-01-22 08:51:00,
2013-01-22 02:52:00,11.8,-18.0,29.71,NW,315,4.0,8.7,24,0.00,,,0.00,VWS V13.01,2013-01-22 08:52:00,
2013-01-22 02:53:00,11.8,-18.0,29.71,NW,315,4.9,8.7,24,0.00,,,0.00,VWS V13.01,2013-01-22 08:53:00,
2013-01-22 02:54:00,11.8,-18.0,29.71,NW,315,3.6,4.9,24,0.00,,,0.00,VWS V13.01,2013-01-22 08:54:00,
2013-01-22 02:55:00,11.8,-18.0,29.71,NW,315,4.9,4.9,24,0.00,,,0.00,VWS V13.01,2013-01-22 08:55:00,
2013-01-22 02:56:00,11.8,-18.0,29.71,NW,315,3.1,4.9,24,0.00,,,0.00,VWS V13.01,2013-01-22 08:56:00,
2013-01-22 02:57:00,11.7,-18.1,29.71,NW,315,3.6,4.0,24,0.00,,,0.00,VWS V13.01,2013-01-22 08:57:00,
2013-01-22 02:58:00,11.7,-18.1,29.71,NW,315,3.6,4.0,24,0.00,,,0.00,VWS V13.01,2013-01-22 08:58:00,
2013-01-22 02:59:00,11.7,-18.1,29.71,NW,315,4.0,5.4,24,0.00,,,0.00,VWS V13.01,2013-01-22 08:59:00,
2013-01-22 03:00:00,11.7,-18.1,29.71,NNW,338,4.9,4.9,24,0.00,,,0.00,VWS V13.01,2013-01-22 09:00:00,
2013-01-22 03:01:00,11.7,-18.1,29.71,NNW,338,3.1,4.9,24,0.00,,,0.00,VWS V13.01,2013-01-22 09:01:00,
2013-01-22 03:02:00,11.7,-18.1,29.71,NNW,338,3.6,4.0,24,0.00,,,0.00,VWS V13.01,2013-01-22 09:02:00,
2013-01-22 03:03:00,11.7,-18.1,29.71,NNW,338,4.5,4.9,24,0.00,,,0.00,VWS V13.01,2013-01-22 09:03:00,
2013-01-22 03:04:00,11.7,-18.1,29.71,NW,315,3.1,4.9,24,0.00,,,0.00,VWS V13.01,2013-01-22 09:04:00,
2013-01-22 03:05:00,11.7,-18.1,29.71,NW,315,4.5,4.9,24,0.00,,,0.00,VWS V13.01,2013-01-22 09:05:00,
2013-01-22 03:06:00,11.7,-18.1,29.71,NW,315,3.1,4.5,24,0.00,,,0.00,VWS V13.01,2013-01-22 09:06:00,
2013-01-22 03:07:00,11.7,-18.1,29.71,NW,315,3.1,3.1,24,0.00,,,0.00,VWS V13.01,2013-01-22 09:07:00,
2013-01-22 03:08:00,11.7,-18.1,29.71,NW,315,4.9,4.9,24,0.00,,,0.00,VWS V13.01,2013-01-22 09:08:00,
2013-01-22 03:09:00,11.7,-18.1,29.71,NW,315,5.4,5.4,24,0.00,,,0.00,VWS V13.01,2013-01-22 09:09:00,
2013-01-22 03:10:00,11.7,-18.1,29.71,NW,315,4.0,5.4,24,0.00,,,0.00,VWS V13.01,2013-01-22 09:10:00,
2013-01-22 03:11:00,11.7,-18.1,29.71,NW,315,4.9,4.9,24,0.00,,,0.00,VWS V13.01,2013-01-22 09:11:00,
2013-01-22 03:12:00,11.7,-18.1,29.71,NNW,338,2.7,4.9,24,0.00,,,0.00,VWS V13.01,2013-01-22 09:12:00,
2013-01-22 03:13:00,11.7,-18.1,29.71,NNW,338,4.0,4.9,24,0.00,,,0.00,VWS V13.01,2013-01-22 09:13:00,
2013-01-22 03:14:00,11.7,-18.1,29.71,NW,315,3.1,5.8,24,0.00,,,0.00,VWS V13.01,2013-01-22 09:14:00,
2013-01-22 03:15:00,11.7,-18.1,29.71,NNW,338,2.7,3.6,24,0.00,,,0.00,VWS V13.01,2013-01-22 09:15:00,
2013-01-22 03:16:00,11.7,-18.1,29.71,NNW,338,4.9,5.4,24,0.00,,,0.00,VWS V13.01,2013-01-22 09:16:00,
2013-01-22 03:17:00,11.7,-18.1,29.71,NW,315,4.5,4.5,24,0.00,,,0.00,VWS V13.01,2013-01-22 09:17:00,
2013-01-22 03:18:00,11.7,-18.1,29.71,NW,315,4.0,4.5,24,0.00,,,0.00,VWS V13.01,2013-01-22 09:18:00,
2013-01-22 03:19:00,11.7,-18.1,29.71,NNW,338,4.0,6.3,24,0.00,,,0.00,VWS V13.01,2013-01-22 09:19:00,
2013-01-22 03:20:00,11.7,-18.1,29.71,NW,315,3.1,4.0,24,0.00,,,0.00,VWS V13.01,2013-01-22 09:20:00,
2013-01-22 03:21:00,11.7,-18.1,29.71,NW,315,5.8,5.8,24,0.00,,,0.00,VWS V13.01,2013-01-22 09:21:00,
2013-01-22 03:22:00,11.7,-18.1,29.71,NW,315,5.4,5.4,24,0.00,,,0.00,VWS V13.01,2013-01-22 09:22:00,
2013-01-22 03:23:00,11.7,-18.1,29.71,NW,315,4.9,5.4,24,0.00,,,0.00,VWS V13.01,2013-01-22 09:23:00,
2013-01-22 03:24:00,11.7,-18.1,29.71,NW,315,3.6,4.9,24,0.00,,,0.00,VWS V13.01,2013-01-22 09:24:00,
2013-01-22 03:25:00,11.5,-18.3,29.71,NW,315,4.0,4.0,24,0.00,,,0.00,VWS V13.01,2013-01-22 09:25:00,
2013-01-22 03:26:00,11.5,-18.3,29.71,NW,315,4.9,5.8,24,0.00,,,0.00,VWS V13.01,2013-01-22 09:26:00,
2013-01-22 03:27:00,11.5,-18.3,29.71,NW,315,4.0,5.8,24,0.00,,,0.00,VWS V13.01,2013-01-22 09:27:00,
2013-01-22 03:28:00,11.5,-18.3,29.71,NW,315,4.9,5.8,24,0.00,,,0.00,VWS V13.01,2013-01-22 09:28:00,
2013-01-22 03:29:00,11.5,-18.3,29.71,NNW,338,2.2,4.9,24,0.00,,,0.00,VWS V13.01,2013-01-22 09:29:00,
2013-01-22 03:30:00,11.5,-18.3,29.71,NW,315,3.1,3.1,24,0.00,,,0.00,VWS V13.01,2013-01-22 09:30:00,
2013-01-22 03:31:00,11.5,-18.3,29.71,NW,315,3.1,4.0,24,0.00,,,0.00,VWS V13.01,2013-01-22 09:31:00,
2013-01-22 03:32:00,11.5,-18.3,29.71,NW,315,2.7,3.6,24,0.00,,,0.00,VWS V13.01,2013-01-22 09:32:00,
2013-01-22 03:33:00,11.5,-18.3,29.71,NW,315,3.6,3.6,24,0.00,,,0.00,VWS V13.01,2013-01-22 09:33:00,
2013-01-22 03:34:00,11.5,-18.3,29.71,NW,315,0.0,3.6,24,0.00,,,0.00,VWS V13.01,2013-01-22 09:34:00,
2013-01-22 03:35:00,11.3,-18.5,29.71,NW,315,3.6,3.6,24,0.00,,,0.00,VWS V13.01,2013-01-22 09:35:00,
2013-01-22 03:37:00,11.3,-18.5,29.71,NW,315,2.2,3.6,24,0.00,,,0.00,VWS V13.01,2013-01-22 09:37:00,
2013-01-22 03:38:00,11.3,-18.5,29.71,NW,315,2.2,3.6,24,0.00,,,0.00,VWS V13.01,2013-01-22 09:38:00,
2013-01-22 03:39:00,11.3,-18.5,29.71,NW,315,2.7,3.1,24,0.00,,,0.00,VWS V13.01,2013-01-22 09:39:00,
2013-01-22 03:40:00,11.3,-18.5,29.71,NW,315,3.6,4.0,24,0.00,,,0.00,VWS V13.01,2013-01-22 09:40:00,
2013-01-22 03:41:00,11.3,-18.5,29.71,NW,315,3.6,3.6,24,0.00,,,0.00,VWS V13.01,2013-01-22 09:41:00,
2013-01-22 03:42:00,11.1,-18.6,29.71,NW,315,3.6,4.0,24,0.00,,,0.00,VWS V13.01,2013-01-22 09:42:00,
2013-01-22 03:43:00,11.1,-18.6,29.71,NW,315,3.1,4.0,24,0.00,,,0.00,VWS V13.01,2013-01-22 09:43:00,
2013-01-22 03:44:00,11.1,-18.6,29.71,NW,315,3.1,3.1,24,0.00,,,0.00,VWS V13.01,2013-01-22 09:44:00,
2013-01-22 03:45:00,11.1,-18.6,29.71,NW,315,3.1,3.1,24,0.00,,,0.00,VWS V13.01,2013-01-22 09:45:00,
2013-01-22 03:46:00,11.1,-18.6,29.71,NW,315,3.6,4.5,24,0.00,,,0.00,VWS V13.01,2013-01-22 09:46:00,
2013-01-22 03:47:00,11.1,-18.6,29.71,NW,315,3.1,4.0,24,0.00,,,0.00,VWS V13.01,2013-01-22 09:47:00,
2013-01-22 03:48:00,11.1,-18.6,29.71,NW,315,2.7,4.0,24,0.00,,,0.00,VWS V13.01,2013-01-22 09:48:00,
2013-01-22 03:49:00,11.3,-18.5,29.71,NW,315,3.6,3.6,24,0.00,,,0.00,VWS V13.01,2013-01-22 09:49:00,
2013-01-22 03:50:00,11.1,-18.6,29.71,NW,315,3.1,4.9,24,0.00,,,0.00,VWS V13.01,2013-01-22 09:50:00,
2013-01-22 03:51:00,11.1,-18.6,29.71,NW,315,3.6,4.0,24,0.00,,,0.00,VWS V13.01,2013-01-22 09:51:00,
2013-01-22 03:52:00,11.1,-18.6,29.71,NW,315,3.6,4.0,24,0.00,,,0.00,VWS V13.01,2013-01-22 09:52:00,
2013-01-22 03:53:00,11.1,-18.6,29.71,NW,315,3.6,4.0,24,0.00,,,0.00,VWS V13.01,2013-01-22 09:53:00,
2013-01-22 03:54:00,11.3,-18.5,29.71,NW,315,2.7,3.6,24,0.00,,,0.00,VWS V13.01,2013-01-22 09:54:00,
2013-01-22 03:55:00,11.1,-18.6,29.71,NNW,338,4.0,4.0,24,0.00,,,0.00,VWS V13.01,2013-01-22 09:55:00,
2013-01-22 03:56:00,11.1,-18.6,29.71,NW,315,4.0,4.0,24,0.00,,,0.00,VWS V13.01,2013-01-22 09:56:00,
2013-01-22 03:57:00,11.3,-18.5,29.71,NW,315,2.7,4.0,24,0.00,,,0.00,VWS V13.01,2013-01-22 09:57:00,
2013-01-22 03:58:00,11.3,-18.5,29.71,NW,315,3.1,4.0,24,0.00,,,0.00,VWS V13.01,2013-01-22 09:58:00,
2013-01-22 03:59:00,11.3,-18.5,29.71,NW,315,5.4,5.4,24,0.00,,,0.00,VWS V13.01,2013-01-22 09:59:00,
2013-01-22 04:00:00,11.3,-18.5,29.71,NW,315,3.6,5.4,24,0.00,,,0.00,VWS V13.01,2013-01-22 10:00:00,
2013-01-22 04:01:00,11.3,-18.5,29.71,NW,315,4.0,4.0,24,0.00,,,0.00,VWS V13.01,2013-01-22 10:01:00,
2013-01-22 04:02:00,11.3,-18.5,29.71,NW,315,3.6,4.5,24,0.00,,,0.00,VWS V13.01,2013-01-22 10:02:00,
2013-01-22 04:03:00,11.3,-18.5,29.71,NW,315,3.6,4.5,24,0.00,,,0.00,VWS V13.01,2013-01-22 10:03:00,
2013-01-22 04:04:00,11.3,-18.5,29.71,NW,315,2.7,4.0,24,0.00,,,0.00,VWS V13.01,2013-01-22 10:04:00,
2013-01-22 04:05:00,11.3,-18.5,29.71,NNW,338,5.8,5.8,24,0.00,,,0.00,VWS V13.01,2013-01-22 10:05:00,
2013-01-22 04:06:00,11.3,-18.5,29.71,NW,315,2.7,5.8,24,0.00,,,0.00,VWS V13.01,2013-01-22 10:06:00,
2013-01-22 04:07:00,11.3,-18.5,29.71,NW,315,4.9,4.9,24,0.00,,,0.00,VWS V13.01,2013-01-22 10:07:00,
2013-01-22 04:08:00,11.3,-18.5,29.71,NW,315,4.0,4.9,24,0.00,,,0.00,VWS V13.01,2013-01-22 10:08:00,
2013-01-22 04:09:00,11.3,-18.5,29.71,NW,315,2.2,4.0,24,0.00,,,0.00,VWS V13.01,2013-01-22 10:09:00,
2013-01-22 04:10:00,11.3,-18.5,29.71,NW,315,4.0,4.0,24,0.00,,,0.00,VWS V13.01,2013-01-22 10:10:00,
2013-01-22 04:11:00,11.3,-18.5,29.71,NW,315,6.3,6.3,24,0.00,,,0.00,VWS V13.01,2013-01-22 10:11:00,
2013-01-22 04:12:00,11.3,-18.5,29.71,NW,315,3.6,4.9,24,0.00,,,0.00,VWS V13.01,2013-01-22 10:12:00,
2013-01-22 04:13:00,11.3,-18.5,29.71,NW,315,3.6,4.9,24,0.00,,,0.00,VWS V13.01,2013-01-22 10:13:00,
2013-01-22 04:14:00,11.3,-18.5,29.71,NW,315,4.0,4.0,24,0.00,,,0.00,VWS V13.01,2013-01-22 10:14:00,
2013-01-22 04:15:00,11.3,-18.5,29.71,NW,315,3.1,4.0,24,0.00,,,0.00,VWS V13.01,2013-01-22 10:15:00,
2013-01-22 04:16:00,11.3,-18.5,29.71,NW,315,2.7,3.6,24,0.00,,,0.00,VWS V13.01,2013-01-22 10:16:00,
2013-01-22 04:17:00,11.3,-18.5,29.71,NW,315,3.1,5.4,24,0.00,,,0.00,VWS V13.01,2013-01-22 10:17:00,
2013-01-22 04:18:00,11.3,-18.5,29.71,NW,315,2.7,4.0,24,0.00,,,0.00,VWS V13.01,2013-01-22 10:18:00,
2013-01-22 04:19:00,11.3,-18.5,29.71,NW,315,3.6,3.6,24,0.00,,,0.00,VWS V13.01,2013-01-22 10:19:00,
2013-01-22 04:20:00,11.3,-18.5,29.71,NW,315,4.0,4.9,24,0.00,,,0.00,VWS V13.01,2013-01-22 10:20:00,
2013-01-22 04:21:00,11.3,-18.5,29.71,NW,315,4.0,4.0,24,0.00,,,0.00,VWS V13.01,2013-01-22 10:21:00,
2013-01-22 04:22:00,11.3,-18.5,29.71,NW,315,4.0,4.0,24,0.00,,,0.00,VWS V13.01,2013-01-22 10:22:00,
2013-01-22 04:23:00,11.3,-18.5,29.71,NW,315,4.9,4.9,24,0.00,,,0.00,VWS V13.01,2013-01-22 10:23:00,
2013-01-22 04:24:00,11.1,-18.6,29.71,NW,315,5.4,5.4,24,0.00,,,0.00,VWS V13.01,2013-01-22 10:24:00,
2013-01-22 04:25:00,11.1,-18.6,29.71,NW,315,4.0,5.4,24,0.00,,,0.00,VWS V13.01,2013-01-22 10:25:00,
2013-01-22 04:26:00,11.1,-18.6,29.71,NW,315,3.6,4.0,24,0.00,,,0.00,VWS V13.01,2013-01-22 10:26:00,
2013-01-22 04:27:00,11.1,-18.6,29.71,NW,315,4.0,4.0,24,0.00,,,0.00,VWS V13.01,2013-01-22 10:27:00,
2013-01-22 04:28:00,11.1,-18.6,29.71,NW,315,4.9,4.9,24,0.00,,,0.00,VWS V13.01,2013-01-22 10:28:00,
2013-01-22 04:29:00,11.1,-18.6,29.71,NW,315,5.4,5.8,24,0.00,,,0.00,VWS V13.01,2013-01-22 10:29:00,
2013-01-22 04:30:00,11.1,-18.6,29.71,NW,315,3.1,5.4,24,0.00,,,0.00,VWS V13.01,2013-01-22 10:30:00,
2013-01-22 04:31:00,11.1,-18.6,29.74,NW,315,2.7,3.6,24,0.00,,,0.00,VWS V13.01,2013-01-22 10:31:00,
2013-01-22 04:32:00,11.1,-18.6,29.74,NW,315,3.6,3.6,24,0.00,,,0.00,VWS V13.01,2013-01-22 10:32:00,
2013-01-22 04:33:00,11.1,-18.6,29.74,NW,315,2.7,2.7,24,0.00,,,0.00,VWS V13.01,2013-01-22 10:33:00,
2013-01-22 04:34:00,11.1,-18.6,29.74,NW,315,3.6,6.3,24,0.00,,,0.00,VWS V13.01,2013-01-22 10:34:00,
2013-01-22 04:35:00,11.3,-18.5,29.74,NW,315,4.5,4.9,24,0.00,,,0.00,VWS V13.01,2013-01-22 10:35:00,
2013-01-22 04:36:00,11.3,-18.5,29.74,NW,315,3.1,5.4,24,0.00,,,0.00,VWS V13.01,2013-01-22 10:36:00,
2013-01-22 04:37:00,11.3,-18.5,29.74,NW,315,6.3,6.3,24,0.00,,,0.00,VWS V13.01,2013-01-22 10:37:00,
2013-01-22 04:38:00,11.3,-18.5,29.74,NW,315,5.4,6.3,24,0.00,,,0.00,VWS V13.01,2013-01-22 10:38:00,
2013-01-22 04:39:00,11.3,-18.5,29.74,NW,315,4.0,5.4,24,0.00,,,0.00,VWS V13.01,2013-01-22 10:39:00,
2013-01-22 04:40:00,11.3,-18.5,29.74,NW,315,5.8,5.8,24,0.00,,,0.00,VWS V13.01,2013-01-22 10:40:00,
2013-01-22 04:41:00,11.3,-18.5,29.74,NW,315,4.9,5.8,24,0.00,,,0.00,VWS V13.01,2013-01-22 10:41:00,
2013-01-22 04:42:00,11.3,-18.5,29.74,NW,315,3.1,5.8,24,0.00,,,0.00,VWS V13.01,2013-01-22 10:42:00,
2013-01-22 04:43:00,11.3,-18.5,29.74,NW,315,4.0,4.0,24,0.00,,,0.00,VWS V13.01,2013-01-22 10:43:00,
2013-01-22 04:44:00,11.3,-18.5,29.74,NW,315,3.6,4.5,24,0.00,,,0.00,VWS V13.01,2013-01-22 10:44:00,
2013-01-22 04:45:00,11.3,-18.5,29.74,NW,315,4.0,5.8,24,0.00,,,0.00,VWS V13.01,2013-01-22 10:45:00,
2013-01-22 04:46:00,11.3,-18.5,29.71,NW,315,4.0,5.4,24,0.00,,,0.00,VWS V13.01,2013-01-22 10:46:00,
2013-01-22 04:47:00,11.3,-18.5,29.71,NW,315,3.1,4.0,24,0.00,,,0.00,VWS V13.01,2013-01-22 10:47:00,
2013-01-22 04:48:00,11.3,-18.5,29.71,NW,315,4.5,4.9,24,0.00,,,0.00,VWS V13.01,2013-01-22 10:48:00,
2013-01-22 04:49:00,11.3,-18.5,29.71,NW,315,4.0,4.9,24,0.00,,,0.00,VWS V13.01,2013-01-22 10:49:00,
2013-01-22 04:50:00,11.3,-18.5,29.71,NW,315,5.4,5.8,24,0.00,,,0.00,VWS V13.01,2013-01-22 10:50:00,
2013-01-22 04:51:00,11.3,-18.5,29.71,NW,315,4.0,5.4,24,0.00,,,0.00,VWS V13.01,2013-01-22 10:51:00,
2013-01-22 04:52:00,11.3,-18.5,29.71,NW,315,4.9,4.9,24,0.00,,,0.00,VWS V13.01,2013-01-22 10:52:00,
2013-01-22 04:53:00,11.3,-18.5,29.71,NW,315,3.1,4.9,24,0.00,,,0.00,VWS V13.01,2013-01-22 10:53:00,
2013-01-22 04:54:00,11.3,-18.5,29.71,NW,315,2.7,4.9,24,0.00,,,0.00,VWS V13.01,2013-01-22 10:54:00,
2013-01-22 04:55:00,11.3,-18.5,29.71,NW,315,2.7,3.1,24,0.00,,,0.00,VWS V13.01,2013-01-22 10:55:00,
2013-01-22 04:56:00,11.3,-18.5,29.71,NW,315,4.0,4.9,24,0.00,,,0.00,VWS V13.01,2013-01-22 10:56:00,
2013-01-22 04:57:00,11.3,-18.5,29.71,NW,315,4.0,4.0,24,0.00,,,0.00,VWS V13.01,2013-01-22 10:57:00,
2013-01-22 04:58:00,11.1,-18.6,29.71,NW,315,3.1,4.0,24,0.00,,,0.00,VWS V13.01,2013-01-22 10:58:00,
2013-01-22 04:59:00,11.1,-18.6,29.71,NW,315,3.1,3.1,24,0.00,,,0.00,VWS V13.01,2013-01-22 10:59:00,
2013-01-22 05:00:00,11.1,-18.6,29.71,NW,315,3.1,3.6,24,0.00,,,0.00,VWS V13.01,2013-01-22 11:00:00,
2013-01-22 05:01:00,11.1,-18.6,29.74,NW,315,4.0,4.9,24,0.00,,,0.00,VWS V13.01,2013-01-22 11:01:00,
2013-01-22 05:02:00,11.1,-18.6,29.74,NW,315,3.6,4.5,24,0.00,,,0.00,VWS V13.01,2013-01-22 11:02:00,
2013-01-22 05:03:00,11.1,-18.6,29.74,NW,315,2.2,4.9,24,0.00,,,0.00,VWS V13.01,2013-01-22 11:03:00,
2013-01-22 05:04:00,11.1,-18.6,29.74,NW,315,3.1,4.9,24,0.00,,,0.00,VWS V13.01,2013-01-22 11:04:00,
2013-01-22 05:05:00,11.1,-18.6,29.74,NW,315,4.9,4.9,24,0.00,,,0.00,VWS V13.01,2013-01-22 11:05:00,
2013-01-22 05:06:00,11.1,-18.6,29.74,NW,315,3.6,4.9,24,0.00,,,0.00,VWS V13.01,2013-01-22 11:06:00,
2013-01-22 05:07:00,11.1,-18.6,29.74,NW,315,3.6,4.9,24,0.00,,,0.00,VWS V13.01,2013-01-22 11:07:00,
2013-01-22 05:08:00,11.1,-18.6,29.74,NW,315,3.6,3.6,24,0.00,,,0.00,VWS V13.01,2013-01-22 11:08:00,
2013-01-22 05:09:00,11.1,-18.6,29.74,NW,315,6.3,6.3,24,0.00,,,0.00,VWS V13.01,2013-01-22 11:09:00,
2013-01-22 05:10:00,11.1,-18.6,29.74,NW,315,3.6,6.3,24,0.00,,,0.00,VWS V13.01,2013-01-22 11:10:00,
2013-01-22 05:11:00,11.1,-18.6,29.74,NW,315,3.6,4.9,24,0.00,,,0.00,VWS V13.01,2013-01-22 11:11:00,
2013-01-22 05:12:00,11.1,-18.6,29.74,NW,315,5.8,5.8,24,0.00,,,0.00,VWS V13.01,2013-01-22 11:12:00,
2013-01-22 05:13:00,11.1,-18.6,29.74,NW,315,4.0,4.0,24,0.00,,,0.00,VWS V13.01,2013-01-22 11:13:00,
2013-01-22 05:14:00,11.1,-18.6,29.74,NW,315,2.7,4.0,24,0.00,,,0.00,VWS V13.01,2013-01-22 11:14:00,
2013-01-22 05:15:00,11.1,-18.6,29.74,NW,315,3.6,3.6,24,0.00,,,0.00,VWS V13.01,2013-01-22 11:15:00,
2013-01-22 05:16:00,11.1,-18.6,29.74,NW,315,4.9,4.9,24,0.00,,,0.00,VWS V13.01,2013-01-22 11:16:00,
2013-01-22 05:17:00,11.1,-18.6,29.74,NW,315,4.0,6.3,24,0.00,,,0.00,VWS V13.01,2013-01-22 11:17:00,
2013-01-22 05:18:00,11.1,-18.6,29.74,NW,315,2.7,2.7,24,0.00,,,0.00,VWS V13.01,2013-01-22 11:18:00,
2013-01-22 05:19:00,11.1,-18.6,29.74,NW,315,2.7,3.6,24,0.00,,,0.00,VWS V13.01,2013-01-22 11:19:00,
2013-01-22 05:20:00,11.1,-18.6,29.74,NW,315,2.7,2.7,24,0.00,,,0.00,VWS V13.01,2013-01-22 11:20:00,
2013-01-22 05:21:00,11.1,-18.6,29.74,NW,315,2.7,3.6,24,0.00,,,0.00,VWS V13.01,2013-01-22 11:21:00,
2013-01-22 05:22:00,11.1,-18.6,29.74,NW,315,2.7,2.7,24,0.00,,,0.00,VWS V13.01,2013-01-22 11:22:00,
2013-01-22 05:23:00,11.1,-18.6,29.74,NW,315,5.4,5.4,24,0.00,,,0.00,VWS V13.01,2013-01-22 11:23:00,
2013-01-22 05:24:00,11.1,-18.6,29.74,NW,315,3.6,5.4,24,0.00,,,0.00,VWS V13.01,2013-01-22 11:24:00,
2013-01-22 05:25:00,11.1,-18.6,29.74,NW,315,3.6,3.6,24,0.00,,,0.00,VWS V13.01,2013-01-22 11:25:00,
2013-01-22 05:26:00,11.1,-18.6,29.74,NW,315,3.6,3.6,24,0.00,,,0.00,VWS V13.01,2013-01-22 11:26:00,
2013-01-22 05:27:00,11.1,-18.6,29.74,NW,315,3.6,3.6,24,0.00,,,0.00,VWS V13.01,2013-01-22 11:27:00,
2013-01-22 05:28:00,11.1,-18.6,29.74,NW,315,3.6,3.6,24,0.00,,,0.00,VWS V13.01,2013-01-22 11:28:00,
2013-01-22 05:29:00,11.1,-18.6,29.74,NW,315,3.6,3.6,24,0.00,,,0.00,VWS V13.01,2013-01-22 11:29:00,
2013-01-22 05:30:00,11.1,-18.6,29.74,NW,315,3.6,3.6,24,0.00,,,0.00,VWS V13.01,2013-01-22 11:30:00,
2013-01-22 05:31:00,11.1,-18.6,29.74,NW,315,3.6,3.6,24,0.00,,,0.00,VWS V13.01,2013-01-22 11:31:00,
2013-01-22 05:32:00,10.9,-18.8,29.74,NW,315,3.6,3.6,24,0.00,,,0.00,VWS V13.01,2013-01-22 11:32:00,
2013-01-22 05:33:00,11.1,-18.6,29.74,NW,315,3.1,3.1,24,0.00,,,0.00,VWS V13.01,2013-01-22 11:33:00,
2013-01-22 05:34:00,11.1,-18.6,29.74,NW,315,3.1,3.1,24,0.00,,,0.00,VWS V13.01,2013-01-22 11:34:00,
2013-01-22 05:35:00,11.1,-18.6,29.74,NW,315,3.1,4.0,24,0.00,,,0.00,VWS V13.01,2013-01-22 11:35:00,
2013-01-22 05:36:00,11.1,-18.6,29.74,NW,315,4.0,4.0,24,0.00,,,0.00,VWS V13.01,2013-01-22 11:36:00,
2013-01-22 05:37:00,10.9,-18.8,29.74,NW,315,2.7,4.0,24,0.00,,,0.00,VWS V13.01,2013-01-22 11:37:00,
2013-01-22 05:38:00,11.1,-18.6,29.74,NW,315,3.1,4.0,24,0.00,,,0.00,VWS V13.01,2013-01-22 11:38:00,
2013-01-22 05:39:00,11.1,-18.6,29.74,NW,315,3.6,4.0,24,0.00,,,0.00,VWS V13.01,2013-01-22 11:39:00,
2013-01-22 05:40:00,11.1,-18.6,29.74,NW,315,4.9,4.9,24,0.00,,,0.00,VWS V13.01,2013-01-22 11:40:00,
2013-01-22 05:41:00,11.1,-18.6,29.74,NW,315,4.0,4.9,24,0.00,,,0.00,VWS V13.01,2013-01-22 11:41:00,
2013-01-22 05:42:00,11.1,-18.6,29.74,NW,315,3.1,4.0,24,0.00,,,0.00,VWS V13.01,2013-01-22 11:42:00,
2013-01-22 05:43:00,11.1,-18.6,29.74,NW,315,3.6,3.6,24,0.00,,,0.00,VWS V13.01,2013-01-22 11:43:00,
2013-01-22 05:44:00,11.1,-18.6,29.74,NW,315,0.0,3.6,24,0.00,,,0.00,VWS V13.01,2013-01-22 11:44:00,
2013-01-22 05:45:00,11.1,-18.6,29.74,NW,315,3.6,3.6,24,0.00,,,0.00,VWS V13.01,2013-01-22 11:45:00,
2013-01-22 05:46:00,11.1,-18.6,29.74,NW,315,2.7,4.0,24,0.00,,,0.00,VWS V13.01,2013-01-22 11:46:00,
2013-01-22 05:47:00,11.1,-18.6,29.74,NW,315,3.1,4.0,24,0.00,,,0.00,VWS V13.01,2013-01-22 11:47:00,
2013-01-22 05:48:00,11.1,-18.6,29.74,NW,315,4.0,4.9,24,0.00,,,0.00,VWS V13.01,2013-01-22 11:48:00,
2013-01-22 05:49:00,11.1,-18.6,29.74,NW,315,3.6,5.8,24,0.00,,,0.00,VWS V13.01,2013-01-22 11:49:00,
2013-01-22 05:50:00,11.1,-18.6,29.74,NW,315,4.9,4.9,24,0.00,,,0.00,VWS V13.01,2013-01-22 11:50:00,
2013-01-22 05:51:00,11.1,-18.6,29.74,NW,315,3.1,4.9,24,0.00,,,0.00,VWS V13.01,2013-01-22 11:51:00,
2013-01-22 05:52:00,11.1,-18.6,29.74,NW,315,2.2,3.6,24,0.00,,,0.00,VWS V13.01,2013-01-22 11:52:00,
2013-01-22 05:53:00,11.1,-18.6,29.74,NW,315,4.9,4.9,24,0.00,,,0.00,VWS V13.01,2013-01-22 11:53:00,
2013-01-22 05:54:00,11.1,-18.6,29.74,NW,315,4.0,4.9,24,0.00,,,0.00,VWS V13.01,2013-01-22 11:54:00,
2013-01-22 05:55:00,11.1,-18.6,29.74,NW,315,3.1,4.0,24,0.00,,,0.00,VWS V13.01,2013-01-22 11:55:00,
2013-01-22 05:56:00,11.1,-18.6,29.74,NW,315,0.0,3.6,24,0.00,,,0.00,VWS V13.01,2013-01-22 11:56:00,
2013-01-22 05:57:00,11.1,-18.6,29.74,NW,315,0.0,3.1,24,0.00,,,0.00,VWS V13.01,2013-01-22 11:57:00,
2013-01-22 05:58:00,11.1,-18.6,29.74,NW,315,3.1,3.1,24,0.00,,,0.00,VWS V13.01,2013-01-22 11:58:00,
2013-01-22 05:59:00,10.9,-18.8,29.74,NW,315,4.0,4.0,24,0.00,,,0.00,VWS V13.01,2013-01-22 11:59:00,
2013-01-22 06:00:00,10.9,-18.8,29.74,NNW,338,3.1,4.0,24,0.00,,,0.00,VWS V13.01,2013-01-22 12:00:00,
2013-01-22 06:01:00,11.1,-18.6,29.74,NW,315,0.0,4.0,24,0.00,,,0.00,VWS V13.01,2013-01-22 12:01:00,
2013-01-22 06:02:00,11.1,-18.6,29.74,NW,315,0.0,0.0,24,0.00,,,0.00,VWS V13.01,2013-01-22 12:02:00,
2013-01-22 06:03:00,10.9,-18.8,29.74,NW,315,3.1,3.1,24,0.00,,,0.00,VWS V13.01,2013-01-22 12:03:00,
2013-01-22 06:04:00,10.9,-18.8,29.74,NW,315,0.0,3.1,24,0.00,,,0.00,VWS V13.01,2013-01-22 12:04:00,
2013-01-22 06:05:00,10.9,-18.8,29.74,NW,315,2.2,2.2,24,0.00,,,0.00,VWS V13.01,2013-01-22 12:05:00,
2013-01-22 06:06:00,10.9,-18.8,29.74,NW,315,0.0,3.6,24,0.00,,,0.00,VWS V13.01,2013-01-22 12:06:00,
2013-01-22 06:07:00,10.9,-18.8,29.74,NW,315,0.0,0.0,24,0.00,,,0.00,VWS V13.01,2013-01-22 12:07:00,
2013-01-22 06:08:00,10.9,-18.8,29.74,NW,315,3.1,3.1,24,0.00,,,0.00,VWS V13.01,2013-01-22 12:08:00,
2013-01-22 06:09:00,10.9,-18.8,29.74,NW,315,3.6,3.6,24,0.00,,,0.00,VWS V13.01,2013-01-22 12:09:00,
2013-01-22 06:10:00,10.9,-18.8,29.74,NW,315,2.7,3.6,24,0.00,,,0.00,VWS V13.01,2013-01-22 12:10:00,
2013-01-22 06:11:00,10.9,-18.8,29.74,NW,315,0.0,2.7,24,0.00,,,0.00,VWS V13.01,2013-01-22 12:11:00,
2013-01-22 06:12:00,10.9,-18.8,29.74,NW,315,0.0,2.2,24,0.00,,,0.00,VWS V13.01,2013-01-22 12:12:00,
2013-01-22 06:13:00,10.8,-18.9,29.74,NW,315,0.0,0.0,24,0.00,,,0.00,VWS V13.01,2013-01-22 12:13:00,
2013-01-22 06:14:00,10.8,-18.9,29.74,NW,315,0.0,0.0,24,0.00,,,0.00,VWS V13.01,2013-01-22 12:14:00,
2013-01-22 06:15:00,10.8,-18.9,29.74,NW,315,0.0,0.0,24,0.00,,,0.00,VWS V13.01,2013-01-22 12:15:00,
2013-01-22 06:16:00,10.8,-18.9,29.74,NW,315,0.0,0.0,24,0.00,,,0.00,VWS V13.01,2013-01-22 12:16:00,
2013-01-22 06:17:00,10.8,-18.9,29.74,NW,315,0.0,0.0,24,0.00,,,0.00,VWS V13.01,2013-01-22 12:17:00,
2013-01-22 06:18:00,10.6,-19.1,29.74,NW,315,2.7,2.7,24,0.00,,,0.00,VWS V13.01,2013-01-22 12:18:00,
2013-01-22 06:19:00,10.6,-19.1,29.74,NW,315,2.2,2.7,24,0.00,,,0.00,VWS V13.01,2013-01-22 12:19:00,
2013-01-22 06:20:00,10.6,-19.1,29.74,NW,315,3.1,3.6,24,0.00,,,0.00,VWS V13.01,2013-01-22 12:20:00,
2013-01-22 06:21:00,10.6,-19.1,29.74,NW,315,0.0,3.1,24,0.00,,,0.00,VWS V13.01,2013-01-22 12:21:00,
2013-01-22 06:22:00,10.6,-19.1,29.74,NW,315,0.0,0.0,24,0.00,,,0.00,VWS V13.01,2013-01-22 12:22:00,
2013-01-22 06:23:00,10.4,-19.2,29.74,NW,315,2.7,3.1,24,0.00,,,0.00,VWS V13.01,2013-01-22 12:23:00,
2013-01-22 06:24:00,10.4,-19.2,29.74,NW,315,2.2,3.1,24,0.00,,,0.00,VWS V13.01,2013-01-22 12:24:00,
2013-01-22 06:25:00,10.4,-19.2,29.74,NW,315,4.0,4.0,24,0.00,,,0.00,VWS V13.01,2013-01-22 12:25:00,
2013-01-22 06:26:00,10.4,-19.2,29.74,NW,315,3.1,4.0,24,0.00,,,0.00,VWS V13.01,2013-01-22 12:26:00,
2013-01-22 06:27:00,10.6,-19.1,29.74,NW,315,2.7,3.1,24,0.00,,,0.00,VWS V13.01,2013-01-22 12:27:00,
2013-01-22 06:28:00,10.6,-19.1,29.74,NW,315,3.6,3.6,24,0.00,,,0.00,VWS V13.01,2013-01-22 12:28:00,
2013-01-22 06:29:00,10.6,-19.1,29.74,NW,315,3.6,3.6,24,0.00,,,0.00,VWS V13.01,2013-01-22 12:29:00,
2013-01-22 06:30:00,10.8,-18.9,29.74,NW,315,3.1,4.0,24,0.00,,,0.00,VWS V13.01,2013-01-22 12:30:00,
2013-01-22 06:31:00,10.8,-18.9,29.74,NNW,338,2.7,4.0,24,0.00,,,0.00,VWS V13.01,2013-01-22 12:31:00,
2013-01-22 06:32:00,10.8,-18.9,29.74,North,0,4.0,4.0,24,0.00,,,0.00,VWS V13.01,2013-01-22 12:32:00,
2013-01-22 06:33:00,10.9,-18.8,29.74,NW,315,0.0,3.1,24,0.00,,,0.00,VWS V13.01,2013-01-22 12:33:00,
2013-01-22 06:34:00,10.9,-18.8,29.74,NW,315,2.7,3.1,24,0.00,,,0.00,VWS V13.01,2013-01-22 12:34:00,
2013-01-22 06:35:00,10.9,-18.8,29.74,NW,315,4.9,4.9,24,0.00,,,0.00,VWS V13.01,2013-01-22 12:35:00,
2013-01-22 06:36:00,11.1,-18.6,29.74,NW,315,3.1,4.9,24,0.00,,,0.00,VWS V13.01,2013-01-22 12:36:00,
2013-01-22 06:37:00,11.1,-18.6,29.74,NW,315,2.2,3.1,24,0.00,,,0.00,VWS V13.01,2013-01-22 12:37:00,
2013-01-22 06:38:00,11.1,-18.6,29.74,North,0,2.7,4.0,24,0.00,,,0.00,VWS V13.01,2013-01-22 12:38:00,
2013-01-22 06:39:00,11.1,-18.6,29.74,NW,315,3.1,4.0,24,0.00,,,0.00,VWS V13.01,2013-01-22 12:39:00,
2013-01-22 06:40:00,11.3,-18.5,29.74,NW,315,3.1,5.8,24,0.00,,,0.00,VWS V13.01,2013-01-22 12:40:00,
2013-01-22 06:41:00,11.3,-18.5,29.74,NW,315,5.4,5.8,24,0.00,,,0.00,VWS V13.01,2013-01-22 12:41:00,
2013-01-22 06:42:00,11.3,-18.5,29.74,NW,315,0.0,5.4,24,0.00,,,0.00,VWS V13.01,2013-01-22 12:42:00,
2013-01-22 06:43:00,11.3,-18.5,29.74,NW,315,2.2,5.4,24,0.00,,,0.00,VWS V13.01,2013-01-22 12:43:00,
2013-01-22 06:44:00,11.3,-18.5,29.74,NW,315,3.1,5.4,24,0.00,,,0.00,VWS V13.01,2013-01-22 12:44:00,
2013-01-22 06:45:00,11.5,-18.3,29.74,NNW,338,3.1,5.4,24,0.00,,,0.00,VWS V13.01,2013-01-22 12:45:00,
2013-01-22 06:46:00,11.5,-18.3,29.74,NNW,338,3.1,4.0,24,0.00,,,0.00,VWS V13.01,2013-01-22 12:46:00,
2013-01-22 06:47:00,11.5,-18.3,29.74,NNW,338,4.0,5.8,24,0.00,,,0.00,VWS V13.01,2013-01-22 12:47:00,
2013-01-22 06:48:00,11.7,-18.1,29.74,NW,315,4.0,6.3,24,0.00,,,0.00,VWS V13.01,2013-01-22 12:48:00,
2013-01-22 06:49:00,11.7,-18.1,29.74,NW,315,4.0,6.3,24,0.00,,,0.00,VWS V13.01,2013-01-22 12:49:00,
2013-01-22 06:50:00,11.7,-18.1,29.74,NW,315,4.0,5.8,24,0.00,,,0.00,VWS V13.01,2013-01-22 12:50:00,
2013-01-22 06:51:00,11.7,-18.1,29.74,North,0,3.1,4.0,24,0.00,,,0.00,VWS V13.01,2013-01-22 12:51:00,
2013-01-22 06:52:00,11.7,-18.1,29.74,NNW,338,2.2,5.4,24,0.00,,,0.00,VWS V13.01,2013-01-22 12:52:00,
2013-01-22 06:53:00,11.7,-18.1,29.74,NNW,338,2.2,2.2,24,0.00,,,0.00,VWS V13.01,2013-01-22 12:53:00,
2013-01-22 06:54:00,11.7,-18.1,29.74,NNW,338,3.1,3.1,24,0.00,,,0.00,VWS V13.01,2013-01-22 12:54:00,
2013-01-22 06:55:00,11.7,-18.1,29.74,NW,315,5.4,5.4,24,0.00,,,0.00,VWS V13.01,2013-01-22 12:55:00,
2013-01-22 06:56:00,11.7,-18.1,29.74,North,0,3.6,5.4,24,0.00,,,0.00,VWS V13.01,2013-01-22 12:56:00,
2013-01-22 06:57:00,11.8,-18.0,29.74,North,0,3.6,4.0,24,0.00,,,0.00,VWS V13.01,2013-01-22 12:57:00,
2013-01-22 06:58:00,11.8,-18.0,29.74,NW,315,3.6,5.4,24,0.00,,,0.00,VWS V13.01,2013-01-22 12:58:00,
2013-01-22 06:59:00,11.8,-18.0,29.74,NW,315,2.7,5.4,24,0.00,,,0.00,VWS V13.01,2013-01-22 12:59:00,
2013-01-22 07:00:00,11.8,-18.0,29.74,NW,315,0.0,2.7,24,0.00,,,0.00,VWS V13.01,2013-01-22 13:00:00,
2013-01-22 07:01:00,11.8,-18.0,29.74,NW,315,0.0,2.2,24,0.00,,,0.00,VWS V13.01,2013-01-22 13:01:00,
2013-01-22 07:02:00,11.8,-18.0,29.74,NNW,338,3.6,4.9,24,0.00,,,0.00,VWS V13.01,2013-01-22 13:02:00,
2013-01-22 07:03:00,11.8,-18.0,29.74,NNW,338,3.6,5.4,24,0.00,,,0.00,VWS V13.01,2013-01-22 13:03:00,
2013-01-22 07:04:00,11.8,-18.0,29.74,NNW,338,2.2,3.6,24,0.00,,,0.00,VWS V13.01,2013-01-22 13:04:00,
2013-01-22 07:05:00,11.8,-18.0,29.74,NNW,338,2.7,4.0,24,0.00,,,0.00,VWS V13.01,2013-01-22 13:05:00,
2013-01-22 07:06:00,11.8,-18.0,29.74,North,0,3.6,4.0,24,0.00,,,0.00,VWS V13.01,2013-01-22 13:06:00,
2013-01-22 07:07:00,11.8,-18.0,29.74,North,0,2.7,3.6,24,0.00,,,0.00,VWS V13.01,2013-01-22 13:07:00,
2013-01-22 07:08:00,11.8,-18.0,29.74,North,0,4.0,4.0,24,0.00,,,0.00,VWS V13.01,2013-01-22 13:08:00,
2013-01-22 07:09:00,12.0,-17.8,29.74,North,0,2.7,4.0,24,0.00,,,0.00,VWS V13.01,2013-01-22 13:09:00,
2013-01-22 07:10:00,12.0,-17.8,29.74,North,0,4.0,4.0,24,0.00,,,0.00,VWS V13.01,2013-01-22 13:10:00,
2013-01-22 07:11:00,12.0,-17.8,29.74,NE,45,5.4,5.4,24,0.00,,,0.00,VWS V13.01,2013-01-22 13:11:00,
2013-01-22 07:12:00,11.8,-18.0,29.74,NE,45,3.6,5.4,24,0.00,,,0.00,VWS V13.01,2013-01-22 13:12:00,
2013-01-22 07:13:00,11.8,-18.0,29.74,NE,45,4.9,6.3,24,0.00,,,0.00,VWS V13.01,2013-01-22 13:13:00,
2013-01-22 07:14:00,11.8,-18.0,29.74,North,0,4.0,5.4,24,0.00,,,0.00,VWS V13.01,2013-01-22 13:14:00,
2013-01-22 07:15:00,11.8,-18.0,29.74,NE,45,4.0,4.9,24,0.00,,,0.00,VWS V13.01,2013-01-22 13:15:00,
2013-01-22 07:16:00,11.8,-18.0,29.74,NE,45,4.9,6.7,24,0.00,,,0.00,VWS V13.01,2013-01-22 13:16:00,
2013-01-22 07:17:00,11.8,-18.0,29.74,North,0,5.4,5.4,24,0.00,,,0.00,VWS V13.01,2013-01-22 13:17:00,
2013-01-22 07:18:00,11.8,-18.0,29.74,North,0,4.9,6.7,24,0.00,,,0.00,VWS V13.01,2013-01-22 13:18:00,
2013-01-22 07:19:00,11.8,-18.0,29.74,North,0,4.9,6.3,24,0.00,,,0.00,VWS V13.01,2013-01-22 13:19:00,
2013-01-22 07:20:00,11.8,-18.0,29.74,North,0,6.3,6.3,24,0.00,,,0.00,VWS V13.01,2013-01-22 13:20:00,
2013-01-22 07:21:00,11.8,-18.0,29.74,North,0,3.1,6.3,24,0.00,,,0.00,VWS V13.01,2013-01-22 13:21:00,
2013-01-22 07:22:00,11.8,-18.0,29.74,NE,45,3.1,6.7,24,0.00,,,0.00,VWS V13.01,2013-01-22 13:22:00,
2013-01-22 07:23:00,11.8,-18.0,29.74,North,0,5.8,5.8,24,0.00,,,0.00,VWS V13.01,2013-01-22 13:23:00,
2013-01-22 07:24:00,11.8,-18.0,29.74,North,0,4.0,5.8,24,0.00,,,0.00,VWS V13.01,2013-01-22 13:24:00,
2013-01-22 07:25:00,11.8,-18.0,29.74,North,0,4.0,6.3,24,0.00,,,0.00,VWS V13.01,2013-01-22 13:25:00,
2013-01-22 07:26:00,11.8,-18.0,29.74,North,0,4.9,4.9,24,0.00,,,0.00,VWS V13.01,2013-01-22 13:26:00,
2013-01-22 07:27:00,11.8,-18.0,29.74,NNW,338,3.6,4.9,24,0.00,,,0.00,VWS V13.01,2013-01-22 13:27:00,
2013-01-22 07:28:00,11.8,-18.0,29.74,North,0,2.2,4.0,24,0.00,,,0.00,VWS V13.01,2013-01-22 13:28:00,
2013-01-22 07:29:00,11.8,-18.0,29.74,North,0,0.0,2.7,24,0.00,,,0.00,VWS V13.01,2013-01-22 13:29:00,
2013-01-22 07:30:00,11.8,-18.0,29.74,North,0,0.0,2.7,24,0.00,,,0.00,VWS V13.01,2013-01-22 13:30:00,
2013-01-22 07:31:00,11.8,-18.0,29.74,North,0,2.7,2.7,24,0.00,,,0.00,VWS V13.01,2013-01-22 13:31:00,
2013-01-22 07:32:00,11.8,-18.0,29.76,North,0,4.0,4.0,24,0.00,,,0.00,VWS V13.01,2013-01-22 13:32:00,
2013-01-22 07:33:00,11.8,-18.0,29.76,North,0,3.6,4.0,24,0.00,,,0.00,VWS V13.01,2013-01-22 13:33:00,
2013-01-22 07:34:00,11.8,-18.0,29.76,North,0,3.1,4.9,24,0.00,,,0.00,VWS V13.01,2013-01-22 13:34:00,
2013-01-22 07:35:00,11.8,-18.0,29.76,North,0,3.1,4.0,24,0.00,,,0.00,VWS V13.01,2013-01-22 13:35:00,
2013-01-22 07:36:00,11.8,-18.0,29.76,North,0,3.1,5.8,24,0.00,,,0.00,VWS V13.01,2013-01-22 13:36:00,
2013-01-22 07:37:00,11.8,-18.0,29.76,NE,45,4.9,4.9,24,0.00,,,0.00,VWS V13.01,2013-01-22 13:37:00,
2013-01-22 07:38:00,11.8,-18.0,29.76,NE,45,4.0,6.3,24,0.00,,,0.00,VWS V13.01,2013-01-22 13:38:00,
2013-01-22 07:39:00,11.8,-18.0,29.76,NE,45,3.1,4.5,24,0.00,,,0.00,VWS V13.01,2013-01-22 13:39:00,
2013-01-22 07:40:00,11.8,-18.0,29.76,NE,45,5.4,6.3,24,0.00,,,0.00,VWS V13.01,2013-01-22 13:40:00,
2013-01-22 07:41:00,11.8,-18.0,29.76,NE,45,4.0,5.4,24,0.00,,,0.00,VWS V13.01,2013-01-22 13:41:00,
2013-01-22 07:42:00,11.8,-18.0,29.76,NE,45,2.7,4.0,24,0.00,,,0.00,VWS V13.01,2013-01-22 13:42:00,
2013-01-22 07:43:00,11.8,-18.0,29.76,NE,45,2.7,3.1,24,0.00,,,0.00,VWS V13.01,2013-01-22 13:43:00,
2013-01-22 07:44:00,11.8,-18.0,29.76,NE,45,4.0,5.4,24,0.00,,,0.00,VWS V13.01,2013-01-22 13:44:00,
2013-01-22 07:45:00,11.8,-18.0,29.76,NE,45,4.9,6.3,24,0.00,,,0.00,VWS V13.01,2013-01-22 13:45:00,
2013-01-22 07:46:00,11.8,-18.0,29.76,NE,45,5.4,6.3,24,0.00,,,0.00,VWS V13.01,2013-01-22 13:46:00,
2013-01-22 07:47:00,11.8,-18.0,29.74,NE,45,3.6,5.8,24,0.00,,,0.00,VWS V13.01,2013-01-22 13:47:00,
2013-01-22 07:48:00,11.8,-18.0,29.74,NE,45,4.0,4.0,24,0.00,,,0.00,VWS V13.01,2013-01-22 13:48:00,
2013-01-22 07:49:00,11.8,-18.0,29.74,North,0,4.9,5.8,24,0.00,,,0.00,VWS V13.01,2013-01-22 13:49:00,
2013-01-22 07:50:00,11.8,-18.0,29.74,North,0,4.0,4.9,24,0.00,,,0.00,VWS V13.01,2013-01-22 13:50:00,
2013-01-22 07:51:00,11.8,-18.0,29.74,North,0,4.0,4.0,24,0.00,,,0.00,VWS V13.01,2013-01-22 13:51:00,
2013-01-22 07:52:00,11.8,-18.0,29.74,North,0,4.0,4.0,24,0.00,,,0.00,VWS V13.01,2013-01-22 13:52:00,
2013-01-22 07:53:00,11.8,-18.0,29.74,NE,45,6.3,6.3,24,0.00,,,0.00,VWS V13.01,2013-01-22 13:53:00,
2013-01-22 07:54:00,11.8,-18.0,29.74,NE,45,3.6,6.3,24,0.00,,,0.00,VWS V13.01,2013-01-22 13:54:00,
2013-01-22 07:55:00,11.8,-18.0,29.74,North,0,4.0,4.0,24,0.00,,,0.00,VWS V13.01,2013-01-22 13:55:00,
2013-01-22 07:56:00,11.8,-18.0,29.74,NE,45,3.6,5.4,24,0.00,,,0.00,VWS V13.01,2013-01-22 13:56:00,
2013-01-22 07:57:00,11.8,-18.0,29.74,NE,45,5.4,5.4,24,0.00,,,0.00,VWS V13.01,2013-01-22 13:57:00,
2013-01-22 07:58:00,12.0,-17.8,29.74,North,0,5.8,5.8,24,0.00,,,0.00,VWS V13.01,2013-01-22 13:58:00,
2013-01-22 07:59:00,12.0,-17.8,29.74,NNE,22,3.1,5.8,24,0.00,,,0.00,VWS V13.01,2013-01-22 13:59:00,
2013-01-22 08:00:00,12.0,-17.8,29.74,North,0,4.9,4.9,24,0.00,,,0.00,VWS V13.01,2013-01-22 14:00:00,
2013-01-22 08:01:00,12.0,-17.8,29.74,North,0,4.0,4.9,24,0.00,,,0.00,VWS V13.01,2013-01-22 14:01:00,
2013-01-22 08:02:00,12.0,-17.8,29.74,North,0,2.7,4.0,24,0.00,,,0.00,VWS V13.01,2013-01-22 14:02:00,
2013-01-22 08:03:00,12.0,-17.8,29.74,NE,45,3.6,4.5,24,0.00,,,0.00,VWS V13.01,2013-01-22 14:03:00,
2013-01-22 08:04:00,11.8,-18.0,29.74,NE,45,4.0,4.0,24,0.00,,,0.00,VWS V13.01,2013-01-22 14:04:00,
2013-01-22 08:05:00,12.0,-17.8,29.74,NE,45,0.0,4.0,24,0.00,,,0.00,VWS V13.01,2013-01-22 14:05:00,
2013-01-22 08:06:00,12.0,-17.8,29.74,NE,45,4.0,4.0,24,0.00,,,0.00,VWS V13.01,2013-01-22 14:06:00,
2013-01-22 08:07:00,12.0,-17.8,29.74,NE,45,4.0,4.0,24,0.00,,,0.00,VWS V13.01,2013-01-22 14:07:00,
2013-01-22 08:08:00,12.0,-17.8,29.74,NE,45,5.4,5.8,24,0.00,,,0.00,VWS V13.01,2013-01-22 14:08:00,
2013-01-22 08:09:00,12.0,-17.8,29.74,NE,45,2.2,2.2,24,0.00,,,0.00,VWS V13.01,2013-01-22 14:09:00,
2013-01-22 08:10:00,11.8,-18.0,29.74,NE,45,2.7,3.1,24,0.00,,,0.00,VWS V13.01,2013-01-22 14:10:00,
2013-01-22 08:11:00,12.0,-17.8,29.74,NE,45,2.7,2.7,24,0.00,,,0.00,VWS V13.01,2013-01-22 14:11:00,
2013-01-22 08:12:00,12.0,-17.8,29.74,NE,45,2.7,3.6,24,0.00,,,0.00,VWS V13.01,2013-01-22 14:12:00,
2013-01-22 08:13:00,12.0,-17.8,29.74,NE,45,4.9,5.4,24,0.00,,,0.00,VWS V13.01,2013-01-22 14:13:00,
2013-01-22 08:14:00,12.0,-17.8,29.74,North,0,4.0,4.0,24,0.00,,,0.00,VWS V13.01,2013-01-22 14:14:00,
2013-01-22 08:15:00,11.8,-18.0,29.74,NE,45,4.5,6.3,24,0.00,,,0.00,VWS V13.01,2013-01-22 14:15:00,
2013-01-22 08:16:00,11.8,-18.0,29.74,NNE,22,4.9,5.8,24,0.00,,,0.00,VWS V13.01,2013-01-22 14:16:00,
2013-01-22 08:17:00,11.8,-18.0,29.76,NNE,22,2.7,4.9,24,0.00,,,0.00,VWS V13.01,2013-01-22 14:17:00,
2013-01-22 08:18:00,12.0,-17.8,29.76,NNE,22,2.7,3.1,24,0.00,,,0.00,VWS V13.01,2013-01-22 14:18:00,
2013-01-22 08:19:00,12.0,-17.8,29.76,NE,45,4.0,4.0,24,0.00,,,0.00,VWS V13.01,2013-01-22 14:19:00,
2013-01-22 08:20:00,12.0,-17.8,29.76,NE,45,3.1,4.9,24,0.00,,,0.00,VWS V13.01,2013-01-22 14:20:00,
2013-01-22 08:21:00,12.0,-17.8,29.76,NE,45,0.0,4.9,24,0.00,,,0.00,VWS V13.01,2013-01-22 14:21:00,
2013-01-22 08:22:00,12.0,-17.8,29.76,NE,45,2.2,4.0,24,0.00,,,0.00,VWS V13.01,2013-01-22 14:22:00,
2013-01-22 08:23:00,12.0,-17.8,29.76,NE,45,0.0,2.2,24,0.00,,,0.00,VWS V13.01,2013-01-22 14:23:00,
2013-01-22 08:24:00,12.0,-17.8,29.76,NNE,22,6.3,6.3,24,0.00,,,0.00,VWS V13.01,2013-01-22 14:24:00,
2013-01-22 08:25:00,12.0,-17.8,29.76,NNE,22,5.4,6.3,24,0.00,,,0.00,VWS V13.01,2013-01-22 14:25:00,
2013-01-22 08:26:00,12.0,-17.8,29.76,NNE,22,2.2,5.4,24,0.00,,,0.00,VWS V13.01,2013-01-22 14:26:00,
2013-01-22 08:27:00,12.0,-17.8,29.76,NNE,22,4.9,4.9,24,0.00,,,0.00,VWS V13.01,2013-01-22 14:27:00,
2013-01-22 08:28:00,12.0,-17.8,29.76,NNE,22,4.0,4.9,24,0.00,,,0.00,VWS V13.01,2013-01-22 14:28:00,
2013-01-22 08:29:00,12.0,-17.8,29.76,NNE,22,4.0,4.0,24,0.00,,,0.00,VWS V13.01,2013-01-22 14:29:00,
2013-01-22 08:30:00,11.8,-18.0,29.76,NNE,22,2.7,4.0,24,0.00,,,0.00,VWS V13.01,2013-01-22 14:30:00,
2013-01-22 08:31:00,11.8,-18.0,29.76,NNE,22,3.1,3.1,24,0.00,,,0.00,VWS V13.01,2013-01-22 14:31:00,
2013-01-22 08:32:00,11.8,-18.0,29.76,NNE,22,5.4,5.4,24,0.00,,,0.00,VWS V13.01,2013-01-22 14:32:00,
2013-01-22 08:33:00,11.8,-18.0,29.76,NNE,22,2.2,5.4,24,0.00,,,0.00,VWS V13.01,2013-01-22 14:33:00,
2013-01-22 08:34:00,12.0,-17.8,29.76,NNE,22,3.6,3.6,24,0.00,,,0.00,VWS V13.01,2013-01-22 14:34:00,
2013-01-22 08:35:00,12.0,-17.8,29.76,NE,45,3.1,3.6,24,0.00,,,0.00,VWS V13.01,2013-01-22 14:35:00,
2013-01-22 08:36:00,12.0,-17.8,29.76,NE,45,2.7,3.1,24,0.00,,,0.00,VWS V13.01,2013-01-22 14:36:00,
2013-01-22 08:37:00,12.0,-17.8,29.76,NNE,22,3.1,3.1,24,0.00,,,0.00,VWS V13.01,2013-01-22 14:37:00,
2013-01-22 08:38:00,12.0,-17.8,29.76,NE,45,4.0,5.8,24,0.00,,,0.00,VWS V13.01,2013-01-22 14:38:00,
2013-01-22 08:39:00,12.0,-17.8,29.76,NE,45,4.0,4.0,24,0.00,,,0.00,VWS V13.01,2013-01-22 14:39:00,
2013-01-22 08:40:00,12.0,-17.8,29.76,NE,45,4.0,4.0,24,0.00,,,0.00,VWS V13.01,2013-01-22 14:40:00,
2013-01-22 08:41:00,12.0,-17.8,29.76,North,0,3.1,4.9,24,0.00,,,0.00,VWS V13.01,2013-01-22 14:41:00,
2013-01-22 08:42:00,12.0,-17.8,29.76,North,0,3.1,3.6,24,0.00,,,0.00,VWS V13.01,2013-01-22 14:42:00,
2013-01-22 08:43:00,12.0,-17.8,29.76,North,0,3.6,3.6,24,0.00,,,0.00,VWS V13.01,2013-01-22 14:43:00,
2013-01-22 08:44:00,12.0,-17.8,29.76,North,0,4.0,4.0,24,0.00,,,0.00,VWS V13.01,2013-01-22 14:44:00,
2013-01-22 08:45:00,12.0,-17.8,29.76,North,0,3.1,4.9,24,0.00,,,0.00,VWS V13.01,2013-01-22 14:45:00,
2013-01-22 08:46:00,12.0,-17.8,29.76,North,0,2.2,3.1,24,0.00,,,0.00,VWS V13.01,2013-01-22 14:46:00,
2013-01-22 08:47:00,12.2,-17.7,29.76,North,0,4.0,4.0,24,0.00,,,0.00,VWS V13.01,2013-01-22 14:47:00,
2013-01-22 08:48:00,12.2,-17.7,29.76,North,0,4.0,4.0,24,0.00,,,0.00,VWS V13.01,2013-01-22 14:48:00,
2013-01-22 08:49:00,12.2,-17.7,29.76,NE,45,2.7,2.7,24,0.00,,,0.00,VWS V13.01,2013-01-22 14:49:00,
2013-01-22 08:50:00,12.2,-17.7,29.76,NNE,22,2.2,4.0,24,0.00,,,0.00,VWS V13.01,2013-01-22 14:50:00,
2013-01-22 08:51:00,12.0,-17.8,29.76,North,0,2.2,4.0,24,0.00,,,0.00,VWS V13.01,2013-01-22 14:51:00,
2013-01-22 08:52:00,12.0,-17.8,29.76,North,0,0.0,4.0,24,0.00,,,0.00,VWS V13.01,2013-01-22 14:52:00,
2013-01-22 08:53:00,12.0,-17.8,29.76,North,0,2.7,3.1,24,0.00,,,0.00,VWS V13.01,2013-01-22 14:53:00,
2013-01-22 08:54:00,12.2,-17.7,29.76,North,0,0.0,0.0,24,0.00,,,0.00,VWS V13.01,2013-01-22 14:54:00,
2013-01-22 08:55:00,12.2,-17.7,29.76,North,0,0.0,0.0,24,0.00,,,0.00,VWS V13.01,2013-01-22 14:55:00,
2013-01-22 08:56:00,12.2,-17.7,29.76,North,0,0.0,0.0,24,0.00,,,0.00,VWS V13.01,2013-01-22 14:56:00,
2013-01-22 08:57:00,12.2,-17.7,29.76,North,0,2.7,2.7,24,0.00,,,0.00,VWS V13.01,2013-01-22 14:57:00,
2013-01-22 08:58:00,12.2,-17.7,29.76,North,0,0.0,3.1,24,0.00,,,0.00,VWS V13.01,2013-01-22 14:58:00,
2013-01-22 08:59:00,12.2,-17.7,29.76,North,0,0.0,0.0,24,0.00,,,0.00,VWS V13.01,2013-01-22 14:59:00,
2013-01-22 09:00:00,12.4,-17.5,29.76,North,0,2.2,2.2,24,0.00,,,0.00,VWS V13.01,2013-01-22 15:00:00,
2013-01-22 09:01:00,12.2,-17.7,29.76,North,0,2.7,2.7,24,0.00,,,0.00,VWS V13.01,2013-01-22 15:01:00,
2013-01-22 09:02:00,12.4,-17.5,29.76,North,0,0.0,2.7,24,0.00,,,0.00,VWS V13.01,2013-01-22 15:02:00,
2013-01-22 09:03:00,12.4,-17.5,29.76,North,0,0.0,0.0,24,0.00,,,0.00,VWS V13.01,2013-01-22 15:03:00,
2013-01-22 09:04:00,12.4,-17.5,29.76,North,0,0.0,0.0,24,0.00,,,0.00,VWS V13.01,2013-01-22 15:04:00,
2013-01-22 09:05:00,12.4,-17.5,29.76,North,0,0.0,0.0,24,0.00,,,0.00,VWS V13.01,2013-01-22 15:05:00,
2013-01-22 09:06:00,12.4,-17.5,29.76,North,0,0.0,0.0,24,0.00,,,0.00,VWS V13.01,2013-01-22 15:06:00,
2013-01-22 09:07:00,12.4,-17.5,29.76,North,0,0.0,0.0,24,0.00,,,0.00,VWS V13.01,2013-01-22 15:07:00,
2013-01-22 09:08:00,12.4,-17.5,29.76,North,0,0.0,0.0,24,0.00,,,0.00,VWS V13.01,2013-01-22 15:08:00,
2013-01-22 09:09:00,12.4,-17.5,29.76,North,0,0.0,0.0,24,0.00,,,0.00,VWS V13.01,2013-01-22 15:09:00,
2013-01-22 09:10:00,12.4,-17.5,29.76,North,0,0.0,0.0,24,0.00,,,0.00,VWS V13.01,2013-01-22 15:10:00,
2013-01-22 09:11:00,12.4,-17.5,29.76,North,0,0.0,0.0,24,0.00,,,0.00,VWS V13.01,2013-01-22 15:11:00,
2013-01-22 09:12:00,12.6,-17.4,29.76,North,0,0.0,0.0,24,0.00,,,0.00,VWS V13.01,2013-01-22 15:12:00,
2013-01-22 09:13:00,12.6,-17.4,29.76,North,0,0.0,0.0,24,0.00,,,0.00,VWS V13.01,2013-01-22 15:13:00,
2013-01-22 09:14:00,12.6,-17.4,29.76,North,0,0.0,0.0,24,0.00,,,0.00,VWS V13.01,2013-01-22 15:14:00,
2013-01-22 09:15:00,12.6,-17.4,29.76,North,0,0.0,0.0,24,0.00,,,0.00,VWS V13.01,2013-01-22 15:15:00,
2013-01-22 09:16:00,12.6,-17.4,29.76,North,0,0.0,0.0,24,0.00,,,0.00,VWS V13.01,2013-01-22 15:16:00,
2013-01-22 09:17:00,12.6,-17.4,29.76,North,0,0.0,0.0,24,0.00,,,0.00,VWS V13.01,2013-01-22 15:17:00,
2013-01-22 09:18:00,12.6,-17.4,29.76,North,0,0.0,0.0,24,0.00,,,0.00,VWS V13.01,2013-01-22 15:18:00,
2013-01-22 09:19:00,12.6,-17.4,29.76,North,0,0.0,0.0,24,0.00,,,0.00,VWS V13.01,2013-01-22 15:19:00,
2013-01-22 09:20:00,12.6,-17.4,29.76,North,0,2.2,2.2,24,0.00,,,0.00,VWS V13.01,2013-01-22 15:20:00,
2013-01-22 09:21:00,12.6,-17.4,29.76,North,0,3.1,3.1,24,0.00,,,0.00,VWS V13.01,2013-01-22 15:21:00,
2013-01-22 09:22:00,12.7,-17.2,29.76,North,0,0.0,3.1,24,0.00,,,0.00,VWS V13.01,2013-01-22 15:22:00,
2013-01-22 09:23:00,12.7,-17.2,29.76,North,0,0.0,0.0,24,0.00,,,0.00,VWS V13.01,2013-01-22 15:23:00,
2013-01-22 09:24:00,12.7,-17.2,29.76,North,0,0.0,0.0,24,0.00,,,0.00,VWS V13.01,2013-01-22 15:24:00,
2013-01-22 09:25:00,12.7,-17.2,29.76,North,0,0.0,0.0,24,0.00,,,0.00,VWS V13.01,2013-01-22 15:25:00,
2013-01-22 09:26:00,12.7,-17.2,29.76,North,0,0.0,0.0,24,0.00,,,0.00,VWS V13.01,2013-01-22 15:26:00,
2013-01-22 09:27:00,12.7,-17.2,29.76,North,0,0.0,0.0,24,0.00,,,0.00,VWS V13.01,2013-01-22 15:27:00,
2013-01-22 09:28:00,12.7,-17.2,29.76,North,0,0.0,0.0,24,0.00,,,0.00,VWS V13.01,2013-01-22 15:28:00,
2013-01-22 09:29:00,12.7,-17.2,29.76,North,0,0.0,0.0,24,0.00,,,0.00,VWS V13.01,2013-01-22 15:29:00,
2013-01-22 09:30:00,12.7,-17.2,29.76,North,0,0.0,0.0,24,0.00,,,0.00,VWS V13.01,2013-01-22 15:30:00,
2013-01-22 09:31:00,12.9,-17.1,29.76,North,0,0.0,0.0,24,0.00,,,0.00,VWS V13.01,2013-01-22 15:31:00,
2013-01-22 09:32:00,12.9,-17.1,29.76,North,0,0.0,0.0,24,0.00,,,0.00,VWS V13.01,2013-01-22 15:32:00,
2013-01-22 09:33:00,12.9,-17.1,29.76,North,0,3.1,3.1,24,0.00,,,0.00,VWS V13.01,2013-01-22 15:33:00,
2013-01-22 09:34:00,12.9,-17.1,29.76,North,0,2.2,3.1,24,0.00,,,0.00,VWS V13.01,2013-01-22 15:34:00,
2013-01-22 09:35:00,12.9,-17.1,29.76,North,0,2.2,3.1,24,0.00,,,0.00,VWS V13.01,2013-01-22 15:35:00,
2013-01-22 09:36:00,13.1,-16.9,29.76,North,0,0.0,2.2,24,0.00,,,0.00,VWS V13.01,2013-01-22 15:36:00,
2013-01-22 09:37:00,13.1,-16.9,29.76,North,0,0.0,0.0,24,0.00,,,0.00,VWS V13.01,2013-01-22 15:37:00,
2013-01-22 09:38:00,13.1,-16.9,29.76,North,0,4.0,4.0,24,0.00,,,0.00,VWS V13.01,2013-01-22 15:38:00,
2013-01-22 09:39:00,13.3,-16.8,29.76,East,90,5.4,5.4,24,0.00,,,0.00,VWS V13.01,2013-01-22 15:39:00,
2013-01-22 09:40:00,13.3,-16.8,29.76,East,90,2.7,5.4,24,0.00,,,0.00,VWS V13.01,2013-01-22 15:40:00,
2013-01-22 09:41:00,13.3,-16.8,29.76,East,90,2.7,4.0,24,0.00,,,0.00,VWS V13.01,2013-01-22 15:41:00,
2013-01-22 09:42:00,12.9,-17.1,29.76,East,90,3.1,3.1,24,0.00,,,0.00,VWS V13.01,2013-01-22 15:42:00,
2013-01-22 09:43:00,13.1,-16.9,29.76,East,90,2.7,3.1,24,0.00,,,0.00,VWS V13.01,2013-01-22 15:43:00,
2013-01-22 09:44:00,12.9,-17.1,29.76,East,90,2.7,2.7,24,0.00,,,0.00,VWS V13.01,2013-01-22 15:44:00,
2013-01-22 09:45:00,12.9,-17.1,29.76,East,90,2.2,3.1,24,0.00,,,0.00,VWS V13.01,2013-01-22 15:45:00,
2013-01-22 09:46:00,12.9,-17.1,29.76,East,90,2.7,2.7,24,0.00,,,0.00,VWS V13.01,2013-01-22 15:46:00,
2013-01-22 09:47:00,12.9,-17.1,29.76,East,90,0.0,2.7,24,0.00,,,0.00,VWS V13.01,2013-01-22 15:47:00,
2013-01-22 09:48:00,12.9,-17.1,29.76,East,90,0.0,0.0,24,0.00,,,0.00,VWS V13.01,2013-01-22 15:48:00,
2013-01-22 09:49:00,13.3,-16.8,29.76,East,90,0.0,0.0,24,0.00,,,0.00,VWS V13.01,2013-01-22 15:49:00,
2013-01-22 09:50:00,13.3,-16.8,29.76,East,90,3.1,3.1,24,0.00,,,0.00,VWS V13.01,2013-01-22 15:50:00,
2013-01-22 09:51:00,13.5,-16.6,29.76,East,90,0.0,4.0,24,0.00,,,0.00,VWS V13.01,2013-01-22 15:51:00,
2013-01-22 09:52:00,13.5,-16.6,29.76,East,90,0.0,0.0,24,0.00,,,0.00,VWS V13.01,2013-01-22 15:52:00,
2013-01-22 09:53:00,13.5,-16.6,29.76,East,90,2.2,2.2,24,0.00,,,0.00,VWS V13.01,2013-01-22 15:53:00,
2013-01-22 09:54:00,13.6,-16.4,29.76,East,90,2.7,2.7,24,0.00,,,0.00,VWS V13.01,2013-01-22 15:54:00,
2013-01-22 09:55:00,13.6,-16.4,29.76,SE,135,2.2,3.1,24,0.00,,,0.00,VWS V13.01,2013-01-22 15:55:00,
2013-01-22 09:56:00,13.6,-16.4,29.76,SE,135,2.7,4.0,24,0.00,,,0.00,VWS V13.01,2013-01-22 15:56:00,
2013-01-22 09:57:00,13.6,-16.4,29.76,SE,135,2.7,2.7,24,0.00,,,0.00,VWS V13.01,2013-01-22 15:57:00,
2013-01-22 09:58:00,13.6,-16.4,29.76,SE,135,2.2,2.7,24,0.00,,,0.00,VWS V13.01,2013-01-22 15:58:00,
2013-01-22 09:59:00,13.6,-16.4,29.76,SE,135,0.0,2.2,24,0.00,,,0.00,VWS V13.01,2013-01-22 15:59:00,
2013-01-22 10:00:00,13.6,-16.4,29.76,SE,135,0.0,2.2,24,0.00,,,0.00,VWS V13.01,2013-01-22 16:00:00,
2013-01-22 10:01:00,13.8,-16.3,29.80,SE,135,0.0,0.0,24,0.00,,,0.00,VWS V13.01,2013-01-22 16:01:00,
2013-01-22 10:02:00,13.8,-16.3,29.80,SE,135,0.0,0.0,24,0.00,,,0.00,VWS V13.01,2013-01-22 16:02:00,
2013-01-22 10:03:00,13.8,-16.3,29.80,SE,135,3.6,3.6,24,0.00,,,0.00,VWS V13.01,2013-01-22 16:03:00,
2013-01-22 10:04:00,13.8,-16.3,29.79,SW,225,2.7,3.1,24,0.00,,,0.00,VWS V13.01,2013-01-22 16:04:00,
2013-01-22 10:05:00,13.8,-16.3,29.80,SW,225,0.0,3.1,24,0.00,,,0.00,VWS V13.01,2013-01-22 16:05:00,
2013-01-22 10:06:00,13.8,-16.3,29.80,SW,225,0.0,0.0,24,0.00,,,0.00,VWS V13.01,2013-01-22 16:06:00,
2013-01-22 10:07:00,13.8,-16.3,29.80,SW,225,0.0,0.0,24,0.00,,,0.00,VWS V13.01,2013-01-22 16:07:00,
2013-01-22 10:08:00,13.8,-16.3,29.80,SW,225,3.6,4.9,24,0.00,,,0.00,VWS V13.01,2013-01-22 16:08:00,
2013-01-22 10:09:00,13.8,-16.3,29.79,SW,225,4.9,4.9,24,0.00,,,0.00,VWS V13.01,2013-01-22 16:09:00,
2013-01-22 10:10:00,13.8,-16.3,29.80,SW,225,2.7,4.9,24,0.00,,,0.00,VWS V13.01,2013-01-22 16:10:00,
2013-01-22 10:11:00,13.8,-16.3,29.80,SW,225,4.0,4.0,24,0.00,,,0.00,VWS V13.01,2013-01-22 16:11:00,
2013-01-22 10:12:00,13.8,-16.3,29.80,SW,225,3.6,4.0,24,0.00,,,0.00,VWS V13.01,2013-01-22 16:12:00,
2013-01-22 10:13:00,13.8,-16.3,29.80,West,270,5.4,5.4,24,0.00,,,0.00,VWS V13.01,2013-01-22 16:13:00,
2013-01-22 10:14:00,13.6,-16.4,29.79,West,270,5.4,5.4,24,0.00,,,0.00,VWS V13.01,2013-01-22 16:14:00,
2013-01-22 10:15:00,13.6,-16.4,29.80,West,270,4.9,5.4,24,0.00,,,0.00,VWS V13.01,2013-01-22 16:15:00,
2013-01-22 10:16:00,13.6,-16.4,29.80,West,270,3.1,4.9,24,0.00,,,0.00,VWS V13.01,2013-01-22 16:16:00,
2013-01-22 10:17:00,13.6,-16.4,29.80,West,270,4.9,4.9,24,0.00,,,0.00,VWS V13.01,2013-01-22 16:17:00,
2013-01-22 10:18:00,13.6,-16.4,29.80,West,270,3.6,4.9,24,0.00,,,0.00,VWS V13.01,2013-01-22 16:18:00,
2013-01-22 10:19:00,13.6,-16.4,29.79,West,270,0.0,0.0,24,0.00,,,0.00,VWS V13.01,2013-01-22 16:19:00,
2013-01-22 10:20:00,13.6,-16.4,29.80,West,270,0.0,0.0,24,0.00,,,0.00,VWS V13.01,2013-01-22 16:20:00,
2013-01-22 10:21:00,13.6,-16.4,29.80,West,270,0.0,0.0,24,0.00,,,0.00,VWS V13.01,2013-01-22 16:21:00,
2013-01-22 10:22:00,13.6,-16.4,29.80,NW,315,3.6,4.0,24,0.00,,,0.00,VWS V13.01,2013-01-22 16:22:00,
2013-01-22 10:23:00,13.6,-16.4,29.80,NW,315,3.6,4.0,24,0.00,,,0.00,VWS V13.01,2013-01-22 16:23:00,
2013-01-22 10:24:00,13.6,-16.4,29.79,NW,315,3.1,3.1,24,0.00,,,0.00,VWS V13.01,2013-01-22 16:24:00,
2013-01-22 10:25:00,13.6,-16.4,29.80,NW,315,0.0,3.1,24,0.00,,,0.00,VWS V13.01,2013-01-22 16:25:00,
2013-01-22 10:26:00,13.6,-16.4,29.80,NW,315,0.0,0.0,24,0.00,,,0.00,VWS V13.01,2013-01-22 16:26:00,
2013-01-22 10:27:00,13.8,-16.3,29.80,NW,315,3.1,3.6,24,0.00,,,0.00,VWS V13.01,2013-01-22 16:27:00,
2013-01-22 10:28:00,13.8,-16.3,29.80,NW,315,3.1,3.1,24,0.00,,,0.00,VWS V13.01,2013-01-22 16:28:00,
2013-01-22 10:29:00,13.8,-16.3,29.79,West,270,0.0,3.6,24,0.00,,,0.00,VWS V13.01,2013-01-22 16:29:00,
2013-01-22 10:30:00,13.8,-16.3,29.80,West,270,0.0,3.6,24,0.00,,,0.00,VWS V13.01,2013-01-22 16:30:00,
2013-01-22 10:31:00,13.8,-16.3,29.80,West,270,2.2,2.2,24,0.00,,,0.00,VWS V13.01,2013-01-22 16:31:00,
2013-01-22 10:32:00,13.8,-16.3,29.80,West,270,0.0,2.7,24,0.00,,,0.00,VWS V13.01,2013-01-22 16:32:00,
2013-01-22 10:33:00,13.8,-16.3,29.80,West,270,0.0,0.0,24,0.00,,,0.00,VWS V13.01,2013-01-22 16:33:00,
2013-01-22 10:34:00,13.8,-16.3,29.79,West,270,3.1,3.6,24,0.00,,,0.00,VWS V13.01,2013-01-22 16:34:00,
2013-01-22 10:35:00,13.8,-16.3,29.80,NW,315,4.0,4.0,24,0.00,,,0.00,VWS V13.01,2013-01-22 16:35:00,
2013-01-22 10:36:00,13.8,-16.3,29.80,NW,315,2.7,4.0,24,0.00,,,0.00,VWS V13.01,2013-01-22 16:36:00,
2013-01-22 10:37:00,13.8,-16.3,29.80,NW,315,2.7,3.6,24,0.00,,,0.00,VWS V13.01,2013-01-22 16:37:00,
2013-01-22 10:38:00,13.8,-16.3,29.80,NW,315,0.0,3.1,24,0.00,,,0.00,VWS V13.01,2013-01-22 16:38:00,
2013-01-22 10:39:00,14.0,-16.1,29.79,West,270,4.0,5.8,24,0.00,,,0.00,VWS V13.01,2013-01-22 16:39:00,
2013-01-22 10:40:00,14.0,-16.1,29.80,West,270,4.9,5.8,24,0.00,,,0.00,VWS V13.01,2013-01-22 16:40:00,
2013-01-22 10:41:00,14.0,-16.1,29.80,SW,225,4.0,5.4,24,0.00,,,0.00,VWS V13.01,2013-01-22 16:41:00,
2013-01-22 10:42:00,14.0,-16.1,29.80,SW,225,4.0,5.4,24,0.00,,,0.00,VWS V13.01,2013-01-22 16:42:00,
2013-01-22 10:43:00,14.0,-16.1,29.80,SW,225,0.0,4.0,24,0.00,,,0.00,VWS V13.01,2013-01-22 16:43:00,
2013-01-22 10:44:00,14.0,-16.1,29.80,West,270,3.6,4.0,24,0.00,,,0.00,VWS V13.01,2013-01-22 16:44:00,
2013-01-22 10:45:00,14.2,-16.0,29.79,West,270,4.5,4.5,24,0.00,,,0.00,VWS V13.01,2013-01-22 16:45:00,
2013-01-22 10:46:00,14.2,-16.0,29.80,West,270,4.5,4.5,24,0.00,,,0.00,VWS V13.01,2013-01-22 16:46:00,
2013-01-22 10:47:00,14.2,-16.0,29.80,NW,315,2.7,4.9,24,0.00,,,0.00,VWS V13.01,2013-01-22 16:47:00,
2013-01-22 10:48:00,14.0,-16.1,29.80,NW,315,2.2,4.0,24,0.00,,,0.00,VWS V13.01,2013-01-22 16:48:00,
2013-01-22 10:49:00,14.0,-16.1,29.80,NW,315,3.1,3.1,24,0.00,,,0.00,VWS V13.01,2013-01-22 16:49:00,
2013-01-22 10:50:00,14.2,-16.0,29.79,West,270,5.8,5.8,24,0.00,,,0.00,VWS V13.01,2013-01-22 16:50:00,
2013-01-22 10:51:00,14.2,-16.0,29.80,West,270,4.0,5.8,24,0.00,,,0.00,VWS V13.01,2013-01-22 16:51:00,
2013-01-22 10:52:00,14.2,-16.0,29.80,West,270,5.4,5.8,24,0.00,,,0.00,VWS V13.01,2013-01-22 16:52:00,
2013-01-22 10:53:00,14.0,-16.1,29.80,West,270,4.9,5.4,24,0.00,,,0.00,VWS V13.01,2013-01-22 16:53:00,
2013-01-22 10:54:00,14.0,-16.1,29.80,West,270,4.9,4.9,24,0.00,,,0.00,VWS V13.01,2013-01-22 16:54:00,
2013-01-22 10:55:00,14.0,-16.1,29.79,West,270,4.0,6.3,24,0.00,,,0.00,VWS V13.01,2013-01-22 16:55:00,
2013-01-22 10:56:00,13.8,-16.3,29.80,West,270,4.9,5.8,24,0.00,,,0.00,VWS V13.01,2013-01-22 16:56:00,
2013-01-22 10:57:00,13.8,-16.3,29.80,West,270,2.7,4.9,24,0.00,,,0.00,VWS V13.01,2013-01-22 16:57:00,
2013-01-22 10:58:00,13.8,-16.3,29.80,West,270,2.7,3.6,24,0.00,,,0.00,VWS V13.01,2013-01-22 16:58:00,
2013-01-22 10:59:00,13.8,-16.3,29.80,West,270,2.7,4.0,24,0.00,,,0.00,VWS V13.01,2013-01-22 16:59:00,
2013-01-22 11:00:00,13.8,-16.3,29.79,West,270,4.0,4.0,24,0.00,,,0.00,VWS V13.01,2013-01-22 17:00:00,
2013-01-22 11:01:00,13.8,-16.3,29.80,West,270,2.2,4.0,24,0.00,,,0.00,VWS V13.01,2013-01-22 17:01:00,
2013-01-22 11:02:00,13.8,-16.3,29.80,West,270,0.0,2.2,24,0.00,,,0.00,VWS V13.01,2013-01-22 17:02:00,
2013-01-22 11:03:00,13.8,-16.3,29.80,West,270,4.9,5.4,24,0.00,,,0.00,VWS V13.01,2013-01-22 17:03:00,
2013-01-22 11:04:00,14.0,-16.1,29.80,West,270,2.7,4.9,24,0.00,,,0.00,VWS V13.01,2013-01-22 17:04:00,
2013-01-22 11:05:00,14.0,-16.1,29.79,West,270,3.1,3.1,24,0.00,,,0.00,VWS V13.01,2013-01-22 17:05:00,
2013-01-22 11:06:00,14.0,-16.1,29.80,West,270,4.9,4.9,24,0.00,,,0.00,VWS V13.01,2013-01-22 17:06:00,
2013-01-22 11:07:00,14.2,-16.0,29.80,West,270,6.3,6.3,24,0.00,,,0.00,VWS V13.01,2013-01-22 17:07:00,
2013-01-22 11:08:00,14.0,-16.1,29.80,West,270,4.0,6.7,24,0.00,,,0.00,VWS V13.01,2013-01-22 17:08:00,
2013-01-22 11:09:00,14.0,-16.1,29.80,West,270,5.4,6.3,24,0.00,,,0.00,VWS V13.01,2013-01-22 17:09:00,
2013-01-22 11:10:00,14.0,-16.1,29.79,West,270,4.9,5.4,24,0.00,,,0.00,VWS V13.01,2013-01-22 17:10:00,
2013-01-22 11:11:00,13.8,-16.3,29.80,West,270,3.6,4.9,24,0.00,,,0.00,VWS V13.01,2013-01-22 17:11:00,
2013-01-22 11:12:00,13.6,-16.4,29.80,West,270,2.7,4.0,24,0.00,,,0.00,VWS V13.01,2013-01-22 17:12:00,
2013-01-22 11:13:00,13.8,-16.3,29.80,West,270,2.7,2.7,24,0.00,,,0.00,VWS V13.01,2013-01-22 17:13:00,
2013-01-22 11:14:00,13.8,-16.3,29.80,West,270,0.0,3.1,24,0.00,,,0.00,VWS V13.01,2013-01-22 17:14:00,
2013-01-22 11:15:00,13.8,-16.3,29.79,West,270,0.0,3.1,24,0.00,,,0.00,VWS V13.01,2013-01-22 17:15:00,
2013-01-22 11:16:00,13.8,-16.3,29.80,West,270,0.0,0.0,24,0.00,,,0.00,VWS V13.01,2013-01-22 17:16:00,
2013-01-22 11:17:00,13.8,-16.3,29.80,West,270,0.0,0.0,24,0.00,,,0.00,VWS V13.01,2013-01-22 17:17:00,
2013-01-22 11:18:00,14.0,-13.8,29.80,West,270,0.0,3.1,27,0.00,,,0.00,VWS V13.01,2013-01-22 17:18:00,
2013-01-22 11:19:00,14.0,-13.8,29.80,West,270,0.0,2.2,27,0.00,,,0.00,VWS V13.01,2013-01-22 17:19:00,
2013-01-22 11:20:00,14.2,-14.4,29.79,West,270,0.0,0.0,26,0.00,,,0.00,VWS V13.01,2013-01-22 17:20:00,
2013-01-22 11:21:00,14.2,-14.4,29.80,West,270,2.7,2.7,26,0.00,,,0.00,VWS V13.01,2013-01-22 17:21:00,
2013-01-22 11:22:00,14.2,-14.4,29.80,West,270,2.7,4.0,26,0.00,,,0.00,VWS V13.01,2013-01-22 17:22:00,
2013-01-22 11:23:00,14.2,-14.4,29.80,West,270,0.0,3.1,26,0.00,,,0.00,VWS V13.01,2013-01-22 17:23:00,
2013-01-22 11:24:00,14.2,-14.4,29.80,NW,315,5.4,5.4,26,0.00,,,0.00,VWS V13.01,2013-01-22 17:24:00,
2013-01-22 11:25:00,14.4,-14.2,29.79,NW,315,4.0,5.8,26,0.00,,,0.00,VWS V13.01,2013-01-22 17:25:00,
2013-01-22 11:26:00,14.4,-14.2,29.80,NW,315,3.1,4.0,26,0.00,,,0.00,VWS V13.01,2013-01-22 17:26:00,
2013-01-22 11:27:00,14.4,-14.2,29.80,NW,315,3.6,4.9,26,0.00,,,0.00,VWS V13.01,2013-01-22 17:27:00,
2013-01-22 11:28:00,14.4,-14.2,29.80,NW,315,3.6,5.4,26,0.00,,,0.00,VWS V13.01,2013-01-22 17:28:00,
2013-01-22 11:29:00,14.4,-14.2,29.80,West,270,4.0,4.5,26,0.00,,,0.00,VWS V13.01,2013-01-22 17:29:00,
2013-01-22 11:30:00,14.2,-14.4,29.79,WNW,292,4.9,6.3,26,0.00,,,0.00,VWS V13.01,2013-01-22 17:30:00,
2013-01-22 11:31:00,14.2,-14.4,29.80,WNW,292,4.9,5.8,26,0.00,,,0.00,VWS V13.01,2013-01-22 17:31:00,
2013-01-22 11:32:00,14.2,-14.4,29.80,WNW,292,4.0,4.9,26,0.00,,,0.00,VWS V13.01,2013-01-22 17:32:00,
2013-01-22 11:33:00,14.2,-14.4,29.80,WNW,292,2.7,4.0,26,0.00,,,0.00,VWS V13.01,2013-01-22 17:33:00,
2013-01-22 11:34:00,14.2,-14.4,29.80,WNW,292,3.1,4.0,26,0.00,,,0.00,VWS V13.01,2013-01-22 17:34:00,
2013-01-22 11:35:00,14.2,-14.4,29.79,WNW,292,3.6,3.6,26,0.00,,,0.00,VWS V13.01,2013-01-22 17:35:00,
2013-01-22 11:36:00,14.4,-14.2,29.80,West,270,4.9,6.3,26,0.00,,,0.00,VWS V13.01,2013-01-22 17:36:00,
2013-01-22 11:37:00,14.4,-14.2,29.80,West,270,4.9,5.4,26,0.00,,,0.00,VWS V13.01,2013-01-22 17:37:00,
2013-01-22 11:38:00,14.2,-14.4,29.80,West,270,5.8,5.8,26,0.00,,,0.00,VWS V13.01,2013-01-22 17:38:00,
2013-01-22 11:39:00,14.2,-14.4,29.80,West,270,5.8,5.8,26,0.00,,,0.00,VWS V13.01,2013-01-22 17:39:00,
2013-01-22 11:40:00,14.2,-14.4,29.79,West,270,3.1,3.1,26,0.00,,,0.00,VWS V13.01,2013-01-22 17:40:00,
2013-01-22 11:41:00,14.2,-14.4,29.80,WNW,292,2.7,3.1,26,0.00,,,0.00,VWS V13.01,2013-01-22 17:41:00,
2013-01-22 11:42:00,14.2,-14.4,29.80,WNW,292,0.0,3.6,26,0.00,,,0.00,VWS V13.01,2013-01-22 17:42:00,
2013-01-22 11:43:00,14.4,-14.2,29.80,West,270,4.9,7.6,26,0.00,,,0.00,VWS V13.01,2013-01-22 17:43:00,
2013-01-22 11:44:00,14.2,-14.4,29.80,West,270,4.9,5.8,26,0.00,,,0.00,VWS V13.01,2013-01-22 17:44:00,
2013-01-22 11:45:00,14.2,-14.4,29.79,West,270,3.6,3.6,26,0.00,,,0.00,VWS V13.01,2013-01-22 17:45:00,
2013-01-22 11:46:00,14.2,-14.4,29.80,West,270,2.2,4.9,26,0.00,,,0.00,VWS V13.01,2013-01-22 17:46:00,
2013-01-22 11:47:00,14.2,-14.4,29.76,WNW,292,4.9,4.9,26,0.00,,,0.00,VWS V13.01,2013-01-22 17:47:00,
2013-01-22 11:48:00,14.2,-14.4,29.76,West,270,4.0,4.9,26,0.00,,,0.00,VWS V13.01,2013-01-22 17:48:00,
2013-01-22 11:49:00,14.2,-14.4,29.76,West,270,5.8,5.8,26,0.00,,,0.00,VWS V13.01,2013-01-22 17:49:00,
2013-01-22 11:50:00,14.2,-14.4,29.76,West,270,6.3,6.3,26,0.00,,,0.00,VWS V13.01,2013-01-22 17:50:00,
2013-01-22 11:51:00,14.2,-14.4,29.76,West,270,6.3,7.6,26,0.00,,,0.00,VWS V13.01,2013-01-22 17:51:00,
2013-01-22 11:52:00,14.0,-13.8,29.76,West,270,5.4,6.3,27,0.00,,,0.00,VWS V13.01,2013-01-22 17:52:00,
2013-01-22 11:53:00,14.0,-13.8,29.76,West,270,5.4,5.4,27,0.00,,,0.00,VWS V13.01,2013-01-22 17:53:00,
2013-01-22 11:54:00,14.0,-13.8,29.76,WNW,292,5.4,7.2,27,0.00,,,0.00,VWS V13.01,2013-01-22 17:54:00,
2013-01-22 11:55:00,14.0,-13.8,29.76,WNW,292,6.3,6.3,27,0.00,,,0.00,VWS V13.01,2013-01-22 17:55:00,
2013-01-22 11:56:00,14.0,-13.8,29.76,West,270,6.3,6.3,27,0.00,,,0.00,VWS V13.01,2013-01-22 17:56:00,
2013-01-22 11:57:00,13.8,-14.0,29.76,WNW,292,5.8,7.6,27,0.00,,,0.00,VWS V13.01,2013-01-22 17:57:00,
2013-01-22 11:58:00,13.8,-14.0,29.76,West,270,4.9,5.8,27,0.00,,,0.00,VWS V13.01,2013-01-22 17:58:00,
2013-01-22 11:59:00,13.8,-14.0,29.76,West,270,4.9,4.9,27,0.00,,,0.00,VWS V13.01,2013-01-22 17:59:00,
2013-01-22 12:00:00,13.8,-14.0,29.76,WNW,292,6.3,6.3,27,0.00,,,0.00,VWS V13.01,2013-01-22 18:00:00,
2013-01-22 12:01:00,13.8,-14.0,29.76,WNW,292,6.7,6.7,27,0.00,,,0.00,VWS V13.01,2013-01-22 18:01:00,
2013-01-22 12:02:00,13.6,-14.1,29.76,West,270,4.9,6.7,27,0.00,,,0.00,VWS V13.01,2013-01-22 18:02:00,
2013-01-22 12:03:00,13.6,-14.1,29.76,West,270,5.4,5.4,27,0.00,,,0.00,VWS V13.01,2013-01-22 18:03:00,
2013-01-22 12:04:00,13.8,-14.0,29.76,West,270,5.4,5.8,27,0.00,,,0.00,VWS V13.01,2013-01-22 18:04:00,
2013-01-22 12:05:00,13.8,-14.0,29.76,West,270,5.8,6.7,27,0.00,,,0.00,VWS V13.01,2013-01-22 18:05:00,
2013-01-22 12:06:00,13.8,-14.0,29.76,West,270,6.3,6.3,27,0.00,,,0.00,VWS V13.01,2013-01-22 18:06:00,
2013-01-22 12:07:00,13.8,-14.0,29.76,NW,315,5.4,8.3,27,0.00,,,0.00,VWS V13.01,2013-01-22 18:07:00,
2013-01-22 12:08:00,13.8,-14.0,29.76,WNW,292,3.6,5.4,27,0.00,,,0.00,VWS V13.01,2013-01-22 18:08:00,
2013-01-22 12:09:00,14.0,-12.4,29.76,West,270,5.8,6.7,29,0.00,,,0.00,VWS V13.01,2013-01-22 18:09:00,
2013-01-22 12:10:00,13.8,-12.6,29.76,WNW,292,4.9,4.9,29,0.00,,,0.00,VWS V13.01,2013-01-22 18:10:00,
2013-01-22 12:11:00,13.8,-12.6,29.76,West,270,5.4,6.3,29,0.00,,,0.00,VWS V13.01,2013-01-22 18:11:00,
2013-01-22 12:12:00,13.8,-12.6,29.76,West,270,5.4,5.8,29,0.00,,,0.00,VWS V13.01,2013-01-22 18:12:00,
2013-01-22 12:13:00,13.8,-12.6,29.76,West,270,4.9,7.6,29,0.00,,,0.00,VWS V13.01,2013-01-22 18:13:00,
2013-01-22 12:14:00,13.6,-12.7,29.76,West,270,4.0,5.8,29,0.00,,,0.00,VWS V13.01,2013-01-22 18:14:00,
2013-01-22 12:15:00,13.8,-12.6,29.76,West,270,7.6,7.6,29,0.00,,,0.00,VWS V13.01,2013-01-22 18:15:00,
2013-01-22 12:16:00,13.8,-12.6,29.76,West,270,6.3,7.6,29,0.00,,,0.00,VWS V13.01,2013-01-22 18:16:00,
2013-01-22 12:17:00,13.8,-12.6,29.76,West,270,3.6,6.3,29,0.00,,,0.00,VWS V13.01,2013-01-22 18:17:00,
2013-01-22 12:18:00,13.8,-12.6,29.76,West,270,4.9,8.1,29,0.00,,,0.00,VWS V13.01,2013-01-22 18:18:00,
2013-01-22 12:19:00,13.8,-12.6,29.76,West,270,4.9,6.3,29,0.00,,,0.00,VWS V13.01,2013-01-22 18:19:00,
2013-01-22 12:20:00,13.8,-12.6,29.76,West,270,3.1,3.1,29,0.00,,,0.00,VWS V13.01,2013-01-22 18:20:00,
2013-01-22 12:21:00,13.8,-12.6,29.76,West,270,3.6,3.6,29,0.00,,,0.00,VWS V13.01,2013-01-22 18:21:00,
2013-01-22 12:22:00,13.8,-12.6,29.76,West,270,4.9,4.9,29,0.00,,,0.00,VWS V13.01,2013-01-22 18:22:00,
2013-01-22 12:23:00,13.8,-12.6,29.76,West,270,4.5,5.4,29,0.00,,,0.00,VWS V13.01,2013-01-22 18:23:00,
2013-01-22 12:24:00,13.8,-12.6,29.76,West,270,3.1,5.4,29,0.00,,,0.00,VWS V13.01,2013-01-22 18:24:00,
2013-01-22 12:25:00,13.8,-12.6,29.76,West,270,3.1,4.9,29,0.00,,,0.00,VWS V13.01,2013-01-22 18:25:00,
2013-01-22 12:26:00,13.8,-12.6,29.76,West,270,3.1,4.5,29,0.00,,,0.00,VWS V13.01,2013-01-22 18:26:00,
2013-01-22 12:27:00,13.8,-12.6,29.76,West,270,3.1,4.0,29,0.00,,,0.00,VWS V13.01,2013-01-22 18:27:00,
2013-01-22 12:28:00,13.8,-12.6,29.76,West,270,4.9,5.4,29,0.00,,,0.00,VWS V13.01,2013-01-22 18:28:00,
2013-01-22 12:29:00,13.8,-12.6,29.76,West,270,5.8,5.8,29,0.00,,,0.00,VWS V13.01,2013-01-22 18:29:00,
2013-01-22 12:30:00,13.8,-12.6,29.76,West,270,6.3,6.3,29,0.00,,,0.00,VWS V13.01,2013-01-22 18:30:00,
2013-01-22 12:31:00,13.8,-12.6,29.76,West,270,7.2,7.2,29,0.00,,,0.00,VWS V13.01,2013-01-22 18:31:00,
2013-01-22 12:32:00,13.8,-12.6,29.76,WNW,292,6.7,7.2,29,0.00,,,0.00,VWS V13.01,2013-01-22 18:32:00,
2013-01-22 12:33:00,13.8,-12.6,29.76,WNW,292,5.8,6.7,29,0.00,,,0.00,VWS V13.01,2013-01-22 18:33:00,
2013-01-22 12:34:00,13.8,-12.6,29.76,WNW,292,2.7,5.8,29,0.00,,,0.00,VWS V13.01,2013-01-22 18:34:00,
2013-01-22 12:35:00,13.8,-12.6,29.76,WNW,292,5.8,5.8,29,0.00,,,0.00,VWS V13.01,2013-01-22 18:35:00,
2013-01-22 12:36:00,14.2,-12.2,29.76,WNW,292,4.0,5.8,29,0.00,,,0.00,VWS V13.01,2013-01-22 18:36:00,
2013-01-22 12:37:00,14.2,-10.9,29.76,West,270,4.0,4.0,31,0.00,,,0.00,VWS V13.01,2013-01-22 18:37:00,
2013-01-22 12:38:00,14.4,-10.7,29.76,WNW,292,3.6,4.0,31,0.00,,,0.00,VWS V13.01,2013-01-22 18:38:00,
2013-01-22 12:39:00,14.4,-10.7,29.76,WNW,292,2.7,5.8,31,0.00,,,0.00,VWS V13.01,2013-01-22 18:39:00,
2013-01-22 12:40:00,14.4,-10.7,29.76,West,270,3.6,4.0,31,0.00,,,0.00,VWS V13.01,2013-01-22 18:40:00,
2013-01-22 12:41:00,14.4,-10.7,29.76,West,270,2.7,4.0,31,0.00,,,0.00,VWS V13.01,2013-01-22 18:41:00,
2013-01-22 12:42:00,14.5,-10.6,29.76,West,270,5.8,5.8,31,0.00,,,0.00,VWS V13.01,2013-01-22 18:42:00,
2013-01-22 12:43:00,14.5,-10.6,29.76,West,270,6.3,6.7,31,0.00,,,0.00,VWS V13.01,2013-01-22 18:43:00,
2013-01-22 12:44:00,14.4,-10.7,29.76,West,270,4.0,6.3,31,0.00,,,0.00,VWS V13.01,2013-01-22 18:44:00,
2013-01-22 12:45:00,14.4,-10.7,29.76,West,270,5.8,5.8,31,0.00,,,0.00,VWS V13.01,2013-01-22 18:45:00,
2013-01-22 12:46:00,14.4,-10.7,29.74,SW,225,3.1,5.8,31,0.00,,,0.00,VWS V13.01,2013-01-22 18:46:00,
2013-01-22 12:47:00,14.4,-10.7,29.74,SW,225,4.9,4.9,31,0.00,,,0.00,VWS V13.01,2013-01-22 18:47:00,
2013-01-22 12:48:00,14.5,-10.6,29.74,West,270,3.1,4.9,31,0.00,,,0.00,VWS V13.01,2013-01-22 18:48:00,
2013-01-22 12:49:00,14.7,-10.4,29.74,West,270,2.2,3.6,31,0.00,,,0.00,VWS V13.01,2013-01-22 18:49:00,
2013-01-22 12:50:00,14.9,-10.3,29.74,West,270,3.6,3.6,31,0.00,,,0.00,VWS V13.01,2013-01-22 18:50:00,
2013-01-22 12:51:00,14.9,-10.3,29.74,West,270,3.6,3.6,31,0.00,,,0.00,VWS V13.01,2013-01-22 18:51:00,
2013-01-22 12:52:00,14.9,-10.3,29.74,West,270,2.7,3.6,31,0.00,,,0.00,VWS V13.01,2013-01-22 18:52:00,
2013-01-22 12:53:00,15.1,-10.1,29.74,West,270,2.2,3.1,31,0.00,,,0.00,VWS V13.01,2013-01-22 18:53:00,
2013-01-22 12:54:00,15.1,-10.1,29.74,WNW,292,4.9,6.3,31,0.00,,,0.00,VWS V13.01,2013-01-22 18:54:00,
2013-01-22 12:55:00,15.1,-10.1,29.74,WNW,292,4.5,4.5,31,0.00,,,0.00,VWS V13.01,2013-01-22 18:55:00,
2013-01-22 12:56:00,14.9,-10.3,29.74,WNW,292,3.6,4.5,31,0.00,,,0.00,VWS V13.01,2013-01-22 18:56:00,
2013-01-22 12:57:00,14.9,-10.3,29.74,WNW,292,3.1,3.6,31,0.00,,,0.00,VWS V13.01,2013-01-22 18:57:00,
2013-01-22 12:58:00,14.9,-10.3,29.74,WNW,292,4.9,6.3,31,0.00,,,0.00,VWS V13.01,2013-01-22 18:58:00,
2013-01-22 12:59:00,14.9,-10.3,29.74,West,270,6.3,7.2,31,0.00,,,0.00,VWS V13.01,2013-01-22 18:59:00,
2013-01-22 13:00:00,14.4,-12.1,29.74,West,270,4.9,5.8,29,0.00,,,0.00,VWS V13.01,2013-01-22 19:00:00,
2013-01-22 13:01:00,14.4,-12.1,29.74,West,270,4.0,5.8,29,0.00,,,0.00,VWS V13.01,2013-01-22 19:01:00,
2013-01-22 13:02:00,14.4,-12.1,29.74,West,270,3.6,4.9,29,0.00,,,0.00,VWS V13.01,2013-01-22 19:02:00,
2013-01-22 13:03:00,14.4,-12.1,29.74,West,270,3.6,4.0,29,0.00,,,0.00,VWS V13.01,2013-01-22 19:03:00,
2013-01-22 13:04:00,14.4,-12.1,29.74,West,270,3.1,5.8,29,0.00,,,0.00,VWS V13.01,2013-01-22 19:04:00,
2013-01-22 13:05:00,14.4,-12.1,29.74,West,270,3.6,4.0,29,0.00,,,0.00,VWS V13.01,2013-01-22 19:05:00,
2013-01-22 13:06:00,14.4,-12.1,29.74,West,270,3.6,4.0,29,0.00,,,0.00,VWS V13.01,2013-01-22 19:06:00,
2013-01-22 13:07:00,14.4,-12.1,29.74,WNW,292,4.9,6.3,29,0.00,,,0.00,VWS V13.01,2013-01-22 19:07:00,
2013-01-22 13:08:00,14.4,-12.1,29.74,WNW,292,4.0,4.9,29,0.00,,,0.00,VWS V13.01,2013-01-22 19:08:00,
2013-01-22 13:09:00,14.4,-12.1,29.74,West,270,3.1,4.9,29,0.00,,,0.00,VWS V13.01,2013-01-22 19:09:00,
2013-01-22 13:10:00,14.5,-11.9,29.74,WNW,292,2.2,4.0,29,0.00,,,0.00,VWS V13.01,2013-01-22 19:10:00,
2013-01-22 13:11:00,14.5,-10.6,29.74,WNW,292,2.7,4.0,31,0.00,,,0.00,VWS V13.01,2013-01-22 19:11:00,
2013-01-22 13:12:00,14.7,-10.4,29.74,WNW,292,3.1,3.1,31,0.00,,,0.00,VWS V13.01,2013-01-22 19:12:00,
2013-01-22 13:13:00,14.9,-11.6,29.74,WNW,292,4.0,4.0,29,0.00,,,0.00,VWS V13.01,2013-01-22 19:13:00,
2013-01-22 13:14:00,14.9,-11.6,29.74,NW,315,4.0,4.0,29,0.00,,,0.00,VWS V13.01,2013-01-22 19:14:00,
2013-01-22 13:15:00,14.9,-11.6,29.74,NW,315,3.1,3.6,29,0.00,,,0.00,VWS V13.01,2013-01-22 19:15:00,
2013-01-22 13:16:00,14.9,-11.6,29.74,NW,315,2.7,3.6,29,0.00,,,0.00,VWS V13.01,2013-01-22 19:16:00,
2013-01-22 13:17:00,14.9,-11.6,29.74,West,270,3.6,5.8,29,0.00,,,0.00,VWS V13.01,2013-01-22 19:17:00,
2013-01-22 13:18:00,14.9,-11.6,29.74,West,270,5.8,7.6,29,0.00,,,0.00,VWS V13.01,2013-01-22 19:18:00,
2013-01-22 13:19:00,14.9,-11.6,29.74,WNW,292,5.4,6.7,29,0.00,,,0.00,VWS V13.01,2013-01-22 19:19:00,
2013-01-22 13:20:00,14.5,-11.9,29.74,West,270,6.3,6.3,29,0.00,,,0.00,VWS V13.01,2013-01-22 19:20:00,
2013-01-22 13:21:00,14.5,-11.9,29.74,West,270,6.3,6.3,29,0.00,,,0.00,VWS V13.01,2013-01-22 19:21:00,
2013-01-22 13:22:00,14.5,-11.9,29.74,West,270,5.8,6.3,29,0.00,,,0.00,VWS V13.01,2013-01-22 19:22:00,
2013-01-22 13:23:00,14.7,-11.8,29.74,West,270,2.7,5.8,29,0.00,,,0.00,VWS V13.01,2013-01-22 19:23:00,
2013-01-22 13:24:00,14.9,-11.6,29.74,WNW,292,4.0,4.0,29,0.00,,,0.00,VWS V13.01,2013-01-22 19:24:00,
2013-01-22 13:25:00,15.1,-11.4,29.74,NW,315,4.0,5.4,29,0.00,,,0.00,VWS V13.01,2013-01-22 19:25:00,
2013-01-22 13:26:00,15.1,-11.4,29.74,West,270,4.0,5.4,29,0.00,,,0.00,VWS V13.01,2013-01-22 19:26:00,
2013-01-22 13:27:00,15.1,-11.4,29.74,West,270,3.6,6.3,29,0.00,,,0.00,VWS V13.01,2013-01-22 19:27:00,
2013-01-22 13:28:00,15.3,-11.3,29.74,West,270,3.6,5.8,29,0.00,,,0.00,VWS V13.01,2013-01-22 19:28:00,
2013-01-22 13:29:00,15.1,-11.4,29.74,West,270,3.1,4.9,29,0.00,,,0.00,VWS V13.01,2013-01-22 19:29:00,
2013-01-22 13:30:00,15.1,-11.4,29.74,West,270,4.9,4.9,29,0.00,,,0.00,VWS V13.01,2013-01-22 19:30:00,
2013-01-22 13:31:00,15.1,-11.4,29.74,WNW,292,4.5,4.9,29,0.00,,,0.00,VWS V13.01,2013-01-22 19:31:00,
2013-01-22 13:32:00,15.1,-11.4,29.74,WNW,292,4.5,5.4,29,0.00,,,0.00,VWS V13.01,2013-01-22 19:32:00,
2013-01-22 13:33:00,15.3,-11.3,29.74,NW,315,4.0,4.5,29,0.00,,,0.00,VWS V13.01,2013-01-22 19:33:00,
2013-01-22 13:34:00,15.3,-11.3,29.74,NW,315,4.0,4.5,29,0.00,,,0.00,VWS V13.01,2013-01-22 19:34:00,
2013-01-22 13:35:00,15.3,-11.3,29.74,WNW,292,3.6,4.0,29,0.00,,,0.00,VWS V13.01,2013-01-22 19:35:00,
2013-01-22 13:36:00,15.3,-11.3,29.74,WNW,292,0.0,4.0,29,0.00,,,0.00,VWS V13.01,2013-01-22 19:36:00,
2013-01-22 13:37:00,15.3,-11.3,29.74,WNW,292,5.4,5.4,29,0.00,,,0.00,VWS V13.01,2013-01-22 19:37:00,
2013-01-22 13:38:00,15.4,-11.1,29.74,West,270,3.1,5.4,29,0.00,,,0.00,VWS V13.01,2013-01-22 19:38:00,
2013-01-22 13:39:00,15.4,-11.1,29.74,West,270,5.8,5.8,29,0.00,,,0.00,VWS V13.01,2013-01-22 19:39:00,
2013-01-22 13:40:00,15.3,-11.3,29.74,NW,315,3.6,4.9,29,0.00,,,0.00,VWS V13.01,2013-01-22 19:40:00,
2013-01-22 13:41:00,15.3,-11.3,29.74,NW,315,3.6,4.9,29,0.00,,,0.00,VWS V13.01,2013-01-22 19:41:00,
2013-01-22 13:42:00,15.3,-11.3,29.74,NW,315,0.0,3.6,29,0.00,,,0.00,VWS V13.01,2013-01-22 19:42:00,
2013-01-22 13:43:00,15.3,-11.3,29.74,NW,315,0.0,0.0,29,0.00,,,0.00,VWS V13.01,2013-01-22 19:43:00,
2013-01-22 13:44:00,15.4,-11.1,29.74,NW,315,2.7,2.7,29,0.00,,,0.00,VWS V13.01,2013-01-22 19:44:00,
2013-01-22 13:45:00,15.6,-11.0,29.74,WNW,292,2.7,3.1,29,0.00,,,0.00,VWS V13.01,2013-01-22 19:45:00,
2013-01-22 13:46:00,15.8,-10.8,29.74,WNW,292,2.2,3.1,29,0.00,,,0.00,VWS V13.01,2013-01-22 19:46:00,
2013-01-22 13:47:00,15.6,-11.0,29.74,NW,315,4.5,5.4,29,0.00,,,0.00,VWS V13.01,2013-01-22 19:47:00,
2013-01-22 13:48:00,15.6,-11.0,29.74,West,270,4.9,4.9,29,0.00,,,0.00,VWS V13.01,2013-01-22 19:48:00,
2013-01-22 13:49:00,15.6,-11.0,29.74,WNW,292,0.0,4.9,29,0.00,,,0.00,VWS V13.01,2013-01-22 19:49:00,
2013-01-22 13:50:00,15.6,-11.0,29.74,WNW,292,3.1,3.1,29,0.00,,,0.00,VWS V13.01,2013-01-22 19:50:00,
2013-01-22 13:51:00,15.6,-11.0,29.74,WNW,292,0.0,3.1,29,0.00,,,0.00,VWS V13.01,2013-01-22 19:51:00,
2013-01-22 13:52:00,15.6,-11.0,29.74,West,270,4.0,4.0,29,0.00,,,0.00,VWS V13.01,2013-01-22 19:52:00,
2013-01-22 13:53:00,15.4,-11.1,29.74,West,270,3.6,4.0,29,0.00,,,0.00,VWS V13.01,2013-01-22 19:53:00,
2013-01-22 13:54:00,15.4,-11.1,29.74,West,270,2.7,3.6,29,0.00,,,0.00,VWS V13.01,2013-01-22 19:54:00,
2013-01-22 13:55:00,15.4,-11.1,29.74,NW,315,0.0,2.7,29,0.00,,,0.00,VWS V13.01,2013-01-22 19:55:00,
2013-01-22 13:56:00,15.4,-11.1,29.74,NW,315,2.7,2.7,29,0.00,,,0.00,VWS V13.01,2013-01-22 19:56:00,
2013-01-22 13:57:00,15.4,-11.1,29.74,NW,315,0.0,2.7,29,0.00,,,0.00,VWS V13.01,2013-01-22 19:57:00,
2013-01-22 13:58:00,15.8,-10.8,29.74,NW,315,3.1,3.6,29,0.00,,,0.00,VWS V13.01,2013-01-22 19:58:00,
2013-01-22 13:59:00,15.8,-10.8,29.74,WNW,292,4.0,5.8,29,0.00,,,0.00,VWS V13.01,2013-01-22 19:59:00,
2013-01-22 14:00:00,15.6,-11.0,29.74,NW,315,2.7,3.6,29,0.00,,,0.00,VWS V13.01,2013-01-22 20:00:00,
2013-01-22 14:01:00,15.4,-11.1,29.74,NW,315,3.6,3.6,29,0.00,,,0.00,VWS V13.01,2013-01-22 20:01:00,
2013-01-22 14:02:00,15.4,-11.1,29.71,NW,315,3.6,3.6,29,0.00,,,0.00,VWS V13.01,2013-01-22 20:02:00,
2013-01-22 14:03:00,15.6,-11.0,29.71,NW,315,4.9,4.9,29,0.00,,,0.00,VWS V13.01,2013-01-22 20:03:00,
2013-01-22 14:04:00,15.4,-11.1,29.71,NW,315,5.4,5.4,29,0.00,,,0.00,VWS V13.01,2013-01-22 20:04:00,
2013-01-22 14:05:00,15.3,-11.3,29.71,NW,315,3.6,4.9,29,0.00,,,0.00,VWS V13.01,2013-01-22 20:05:00,
2013-01-22 14:06:00,15.3,-11.3,29.71,NW,315,4.0,4.9,29,0.00,,,0.00,VWS V13.01,2013-01-22 20:06:00,
2013-01-22 14:07:00,15.3,-11.3,29.71,NW,315,4.0,5.4,29,0.00,,,0.00,VWS V13.01,2013-01-22 20:07:00,
2013-01-22 14:08:00,15.3,-11.3,29.71,NW,315,2.7,4.0,29,0.00,,,0.00,VWS V13.01,2013-01-22 20:08:00,
2013-01-22 14:09:00,15.1,-11.4,29.71,NW,315,4.9,4.9,29,0.00,,,0.00,VWS V13.01,2013-01-22 20:09:00,
2013-01-22 14:10:00,15.3,-11.3,29.71,NW,315,3.6,3.6,29,0.00,,,0.00,VWS V13.01,2013-01-22 20:10:00,
2013-01-22 14:11:00,15.3,-11.3,29.71,NW,315,5.8,5.8,29,0.00,,,0.00,VWS V13.01,2013-01-22 20:11:00,
2013-01-22 14:12:00,15.1,-11.4,29.71,NW,315,4.9,5.8,29,0.00,,,0.00,VWS V13.01,2013-01-22 20:12:00,
2013-01-22 14:13:00,15.1,-11.4,29.71,NW,315,3.1,4.9,29,0.00,,,0.00,VWS V13.01,2013-01-22 20:13:00,
2013-01-22 14:14:00,15.1,-11.4,29.71,WNW,292,4.9,4.9,29,0.00,,,0.00,VWS V13.01,2013-01-22 20:14:00,
2013-01-22 14:15:00,15.3,-11.3,29.71,WNW,292,2.2,2.7,29,0.00,,,0.00,VWS V13.01,2013-01-22 20:15:00,
2013-01-22 14:16:00,15.3,-11.3,29.71,WNW,292,2.2,2.7,29,0.00,,,0.00,VWS V13.01,2013-01-22 20:16:00,
2013-01-22 14:17:00,15.3,-11.3,29.71,WNW,292,2.7,3.6,29,0.00,,,0.00,VWS V13.01,2013-01-22 20:17:00,
2013-01-22 14:18:00,15.3,-11.3,29.71,NW,315,2.7,4.5,29,0.00,,,0.00,VWS V13.01,2013-01-22 20:18:00,
2013-01-22 14:19:00,15.3,-11.3,29.71,NW,315,4.0,4.0,29,0.00,,,0.00,VWS V13.01,2013-01-22 20:19:00,
2013-01-22 14:20:00,15.1,-11.4,29.71,NW,315,3.1,3.6,29,0.00,,,0.00,VWS V13.01,2013-01-22 20:20:00,
2013-01-22 14:21:00,15.1,-11.4,29.71,NW,315,6.3,6.3,29,0.00,,,0.00,VWS V13.01,2013-01-22 20:21:00,
2013-01-22 14:22:00,15.1,-11.4,29.71,NW,315,4.5,6.3,29,0.00,,,0.00,VWS V13.01,2013-01-22 20:22:00,
2013-01-22 14:23:00,15.1,-11.4,29.71,NW,315,3.6,4.5,29,0.00,,,0.00,VWS V13.01,2013-01-22 20:23:00,
2013-01-22 14:24:00,15.1,-11.4,29.71,NW,315,3.6,4.0,29,0.00,,,0.00,VWS V13.01,2013-01-22 20:24:00,
2013-01-22 14:25:00,15.3,-11.3,29.71,NW,315,2.7,3.1,29,0.00,,,0.00,VWS V13.01,2013-01-22 20:25:00,
2013-01-22 14:26:00,15.3,-11.3,29.71,NW,315,0.0,3.1,29,0.00,,,0.00,VWS V13.01,2013-01-22 20:26:00,
2013-01-22 14:27:00,15.3,-11.3,29.71,NW,315,0.0,2.2,29,0.00,,,0.00,VWS V13.01,2013-01-22 20:27:00,
2013-01-22 14:28:00,15.3,-11.3,29.71,NW,315,0.0,0.0,29,0.00,,,0.00,VWS V13.01,2013-01-22 20:28:00,
2013-01-22 14:29:00,15.3,-11.3,29.71,NW,315,2.2,2.2,29,0.00,,,0.00,VWS V13.01,2013-01-22 20:29:00,
2013-01-22 14:30:00,15.4,-11.1,29.71,NW,315,4.0,4.0,29,0.00,,,0.00,VWS V13.01,2013-01-22 20:30:00,
2013-01-22 14:31:00,15.4,-11.1,29.71,NW,315,2.7,4.0,29,0.00,,,0.00,VWS V13.01,2013-01-22 20:31:00,
2013-01-22 14:32:00,15.3,-11.3,29.74,NW,315,0.0,2.7,29,0.00,,,0.00,VWS V13.01,2013-01-22 20:32:00,
2013-01-22 14:33:00,15.4,-11.1,29.74,NW,315,0.0,0.0,29,0.00,,,0.00,VWS V13.01,2013-01-22 20:33:00,
2013-01-22 14:34:00,15.4,-11.1,29.74,NW,315,0.0,0.0,29,0.00,,,0.00,VWS V13.01,2013-01-22 20:34:00,
2013-01-22 14:35:00,15.8,-10.8,29.74,NW,315,0.0,0.0,29,0.00,,,0.00,VWS V13.01,2013-01-22 20:35:00,
2013-01-22 14:36:00,15.8,-10.8,29.74,NW,315,0.0,0.0,29,0.00,,,0.00,VWS V13.01,2013-01-22 20:36:00,
2013-01-22 14:37:00,15.8,-10.8,29.74,NW,315,0.0,0.0,29,0.00,,,0.00,VWS V13.01,2013-01-22 20:37:00,
2013-01-22 14:38:00,15.8,-10.8,29.74,NW,315,3.6,3.6,29,0.00,,,0.00,VWS V13.01,2013-01-22 20:38:00,
2013-01-22 14:39:00,15.8,-10.8,29.74,NW,315,3.1,3.6,29,0.00,,,0.00,VWS V13.01,2013-01-22 20:39:00,
2013-01-22 14:40:00,15.8,-10.8,29.74,NW,315,0.0,0.0,29,0.00,,,0.00,VWS V13.01,2013-01-22 20:40:00,
2013-01-22 14:41:00,15.8,-10.8,29.74,NW,315,0.0,0.0,29,0.00,,,0.00,VWS V13.01,2013-01-22 20:41:00,
2013-01-22 14:42:00,16.0,-11.4,29.74,NW,315,0.0,0.0,28,0.00,,,0.00,VWS V13.01,2013-01-22 20:42:00,
2013-01-22 14:43:00,16.0,-11.4,29.74,NW,315,2.7,2.7,28,0.00,,,0.00,VWS V13.01,2013-01-22 20:43:00,
2013-01-22 14:44:00,16.0,-11.4,29.74,NW,315,4.0,4.0,28,0.00,,,0.00,VWS V13.01,2013-01-22 20:44:00,
2013-01-22 14:45:00,16.2,-11.2,29.74,NW,315,3.6,4.9,28,0.00,,,0.00,VWS V13.01,2013-01-22 20:45:00,
2013-01-22 14:46:00,16.2,-11.2,29.74,NW,315,3.6,4.9,28,0.00,,,0.00,VWS V13.01,2013-01-22 20:46:00,
2013-01-22 14:47:00,16.0,-11.4,29.74,NW,315,4.9,5.4,28,0.00,,,0.00,VWS V13.01,2013-01-22 20:47:00,
2013-01-22 14:48:00,15.8,-10.8,29.74,NW,315,3.1,4.9,29,0.00,,,0.00,VWS V13.01,2013-01-22 20:48:00,
2013-01-22 14:49:00,15.6,-11.0,29.74,NW,315,2.7,3.6,29,0.00,,,0.00,VWS V13.01,2013-01-22 20:49:00,
2013-01-22 14:50:00,15.8,-10.8,29.74,NW,315,0.0,0.0,29,0.00,,,0.00,VWS V13.01,2013-01-22 20:50:00,
2013-01-22 14:51:00,15.8,-10.8,29.74,NW,315,0.0,0.0,29,0.00,,,0.00,VWS V13.01,2013-01-22 20:51:00,
2013-01-22 14:52:00,15.8,-10.8,29.74,NW,315,0.0,0.0,29,0.00,,,0.00,VWS V13.01,2013-01-22 20:52:00,
2013-01-22 14:53:00,15.8,-10.8,29.74,NW,315,0.0,0.0,29,0.00,,,0.00,VWS V13.01,2013-01-22 20:53:00,
2013-01-22 14:54:00,15.8,-10.8,29.74,NW,315,3.1,3.6,29,0.00,,,0.00,VWS V13.01,2013-01-22 20:54:00,
2013-01-22 14:55:00,16.0,-11.4,29.74,NW,315,3.1,5.8,28,0.00,,,0.00,VWS V13.01,2013-01-22 20:55:00,
2013-01-22 14:56:00,16.0,-11.4,29.74,NW,315,2.2,5.8,28,0.00,,,0.00,VWS V13.01,2013-01-22 20:56:00,
2013-01-22 14:57:00,15.8,-10.8,29.74,NW,315,0.0,2.7,29,0.00,,,0.00,VWS V13.01,2013-01-22 20:57:00,
2013-01-22 14:58:00,15.8,-10.8,29.74,NW,315,0.0,0.0,29,0.00,,,0.00,VWS V13.01,2013-01-22 20:58:00,
2013-01-22 14:59:00,16.0,-11.4,29.74,NW,315,0.0,0.0,28,0.00,,,0.00,VWS V13.01,2013-01-22 20:59:00,
2013-01-22 15:00:00,16.2,-11.2,29.74,West,270,2.2,5.4,28,0.00,,,0.00,VWS V13.01,2013-01-22 21:00:00,
2013-01-22 15:01:00,16.2,-11.2,29.74,West,270,0.0,5.4,28,0.00,,,0.00,VWS V13.01,2013-01-22 21:01:00,
2013-01-22 15:02:00,16.0,-11.4,29.74,West,270,0.0,0.0,28,0.00,,,0.00,VWS V13.01,2013-01-22 21:02:00,
2013-01-22 15:03:00,16.2,-11.2,29.74,West,270,0.0,0.0,28,0.00,,,0.00,VWS V13.01,2013-01-22 21:03:00,
2013-01-22 15:04:00,16.2,-11.2,29.74,West,270,0.0,0.0,28,0.00,,,0.00,VWS V13.01,2013-01-22 21:04:00,
2013-01-22 15:05:00,16.3,-11.1,29.74,NW,315,2.7,3.6,28,0.00,,,0.00,VWS V13.01,2013-01-22 21:05:00,
2013-01-22 15:06:00,16.3,-11.1,29.74,NW,315,4.0,4.0,28,0.00,,,0.00,VWS V13.01,2013-01-22 21:06:00,
2013-01-22 15:07:00,16.2,-11.2,29.74,NW,315,3.1,4.0,28,0.00,,,0.00,VWS V13.01,2013-01-22 21:07:00,
2013-01-22 15:08:00,16.0,-11.4,29.74,NW,315,3.1,3.1,28,0.00,,,0.00,VWS V13.01,2013-01-22 21:08:00,
2013-01-22 15:09:00,16.0,-11.4,29.74,NW,315,2.7,3.1,28,0.00,,,0.00,VWS V13.01,2013-01-22 21:09:00,
2013-01-22 15:10:00,16.0,-11.4,29.74,NW,315,0.0,3.6,28,0.00,,,0.00,VWS V13.01,2013-01-22 21:10:00,
2013-01-22 15:11:00,16.0,-11.4,29.74,NW,315,2.7,2.7,28,0.00,,,0.00,VWS V13.01,2013-01-22 21:11:00,
2013-01-22 15:12:00,16.0,-11.4,29.74,NW,315,2.2,2.7,28,0.00,,,0.00,VWS V13.01,2013-01-22 21:12:00,
2013-01-22 15:13:00,16.0,-11.4,29.74,NW,315,2.2,2.7,28,0.00,,,0.00,VWS V13.01,2013-01-22 21:13:00,
2013-01-22 15:14:00,15.8,-10.8,29.74,NW,315,0.0,2.2,29,0.00,,,0.00,VWS V13.01,2013-01-22 21:14:00,
2013-01-22 15:15:00,15.8,-10.8,29.74,NW,315,0.0,0.0,29,0.00,,,0.00,VWS V13.01,2013-01-22 21:15:00,
2013-01-22 15:16:00,16.0,-11.4,29.71,NW,315,0.0,0.0,28,0.00,,,0.00,VWS V13.01,2013-01-22 21:16:00,
2013-01-22 15:17:00,16.0,-11.4,29.71,NW,315,0.0,0.0,28,0.00,,,0.00,VWS V13.01,2013-01-22 21:17:00,
2013-01-22 15:18:00,16.0,-11.4,29.71,NW,315,3.1,3.1,28,0.00,,,0.00,VWS V13.01,2013-01-22 21:18:00,
2013-01-22 15:19:00,16.0,-11.4,29.71,NW,315,2.2,3.1,28,0.00,,,0.00,VWS V13.01,2013-01-22 21:19:00,
2013-01-22 15:20:00,16.0,-11.4,29.71,NW,315,0.0,2.2,28,0.00,,,0.00,VWS V13.01,2013-01-22 21:20:00,
2013-01-22 15:21:00,16.0,-11.4,29.71,NW,315,0.0,0.0,28,0.00,,,0.00,VWS V13.01,2013-01-22 21:21:00,
2013-01-22 15:22:00,16.2,-11.2,29.71,NW,315,0.0,0.0,28,0.00,,,0.00,VWS V13.01,2013-01-22 21:22:00,
2013-01-22 15:23:00,16.2,-11.2,29.71,NW,315,0.0,0.0,28,0.00,,,0.00,VWS V13.01,2013-01-22 21:23:00,
2013-01-22 15:24:00,16.2,-11.2,29.71,NW,315,0.0,0.0,28,0.00,,,0.00,VWS V13.01,2013-01-22 21:24:00,
2013-01-22 15:25:00,16.3,-11.1,29.71,NW,315,0.0,0.0,28,0.00,,,0.00,VWS V13.01,2013-01-22 21:25:00,
2013-01-22 15:26:00,16.5,-10.9,29.71,NW,315,0.0,0.0,28,0.00,,,0.00,VWS V13.01,2013-01-22 21:26:00,
2013-01-22 15:27:00,16.3,-11.1,29.71,NW,315,0.0,0.0,28,0.00,,,0.00,VWS V13.01,2013-01-22 21:27:00,
2013-01-22 15:28:00,16.5,-10.9,29.71,NW,315,0.0,0.0,28,0.00,,,0.00,VWS V13.01,2013-01-22 21:28:00,
2013-01-22 15:29:00,16.7,-10.7,29.71,NW,315,0.0,0.0,28,0.00,,,0.00,VWS V13.01,2013-01-22 21:29:00,
2013-01-22 15:30:00,16.7,-10.7,29.71,NW,315,0.0,0.0,28,0.00,,,0.00,VWS V13.01,2013-01-22 21:30:00,
2013-01-22 15:31:00,16.9,-10.6,29.71,NW,315,0.0,0.0,28,0.00,,,0.00,VWS V13.01,2013-01-22 21:31:00,
2013-01-22 15:32:00,16.9,-10.6,29.71,NW,315,0.0,0.0,28,0.00,,,0.00,VWS V13.01,2013-01-22 21:32:00,
2013-01-22 15:33:00,16.9,-10.6,29.71,NW,315,0.0,0.0,28,0.00,,,0.00,VWS V13.01,2013-01-22 21:33:00,
2013-01-22 15:34:00,17.1,-10.4,29.71,NW,315,0.0,0.0,28,0.00,,,0.00,VWS V13.01,2013-01-22 21:34:00,
2013-01-22 15:35:00,17.1,-10.4,29.71,NW,315,2.7,2.7,28,0.00,,,0.00,VWS V13.01,2013-01-22 21:35:00,
2013-01-22 15:36:00,16.9,-10.6,29.71,NW,315,3.1,3.1,28,0.00,,,0.00,VWS V13.01,2013-01-22 21:36:00,
2013-01-22 15:37:00,16.9,-10.6,29.71,NW,315,3.1,3.1,28,0.00,,,0.00,VWS V13.01,2013-01-22 21:37:00,
2013-01-22 15:38:00,16.9,-10.6,29.71,NW,315,0.0,3.1,28,0.00,,,0.00,VWS V13.01,2013-01-22 21:38:00,
2013-01-22 15:39:00,16.7,-10.7,29.71,NW,315,0.0,0.0,28,0.00,,,0.00,VWS V13.01,2013-01-22 21:39:00,
2013-01-22 15:40:00,16.9,-10.6,29.71,NW,315,0.0,0.0,28,0.00,,,0.00,VWS V13.01,2013-01-22 21:40:00,
2013-01-22 15:41:00,16.7,-10.7,29.71,NW,315,0.0,0.0,28,0.00,,,0.00,VWS V13.01,2013-01-22 21:41:00,
2013-01-22 15:42:00,16.9,-10.6,29.71,NW,315,0.0,0.0,28,0.00,,,0.00,VWS V13.01,2013-01-22 21:42:00,
2013-01-22 15:43:00,16.7,-10.7,29.71,NW,315,0.0,0.0,28,0.00,,,0.00,VWS V13.01,2013-01-22 21:43:00,
2013-01-22 15:44:00,16.7,-10.7,29.71,NW,315,0.0,0.0,28,0.00,,,0.00,VWS V13.01,2013-01-22 21:44:00,
2013-01-22 15:45:00,16.7,-10.7,29.71,NW,315,0.0,0.0,28,0.00,,,0.00,VWS V13.01,2013-01-22 21:45:00,
2013-01-22 15:46:00,16.9,-10.6,29.71,NW,315,2.7,2.7,28,0.00,,,0.00,VWS V13.01,2013-01-22 21:46:00,
2013-01-22 15:47:00,16.7,-10.7,29.71,NW,315,2.7,2.7,28,0.00,,,0.00,VWS V13.01,2013-01-22 21:47:00,
2013-01-22 15:48:00,16.7,-10.7,29.71,NW,315,2.7,2.7,28,0.00,,,0.00,VWS V13.01,2013-01-22 21:48:00,
2013-01-22 15:49:00,16.7,-10.7,29.71,NW,315,2.7,3.6,28,0.00,,,0.00,VWS V13.01,2013-01-22 21:49:00,
2013-01-22 15:50:00,16.5,-10.9,29.71,NW,315,2.2,2.7,28,0.00,,,0.00,VWS V13.01,2013-01-22 21:50:00,
2013-01-22 15:51:00,16.5,-10.9,29.71,NW,315,3.6,3.6,28,0.00,,,0.00,VWS V13.01,2013-01-22 21:51:00,
2013-01-22 15:52:00,16.5,-10.9,29.71,NW,315,3.1,3.6,28,0.00,,,0.00,VWS V13.01,2013-01-22 21:52:00,
2013-01-22 15:53:00,16.2,-11.2,29.71,NW,315,0.0,3.1,28,0.00,,,0.00,VWS V13.01,2013-01-22 21:53:00,
2013-01-22 15:54:00,16.2,-11.2,29.71,NW,315,2.2,2.2,28,0.00,,,0.00,VWS V13.01,2013-01-22 21:54:00,
2013-01-22 15:55:00,16.3,-11.1,29.71,NW,315,0.0,2.2,28,0.00,,,0.00,VWS V13.01,2013-01-22 21:55:00,
2013-01-22 15:56:00,16.3,-11.1,29.71,NW,315,0.0,0.0,28,0.00,,,0.00,VWS V13.01,2013-01-22 21:56:00,
2013-01-22 15:57:00,16.3,-11.1,29.71,NW,315,0.0,0.0,28,0.00,,,0.00,VWS V13.01,2013-01-22 21:57:00,
2013-01-22 15:58:00,16.3,-11.1,29.71,NW,315,0.0,0.0,28,0.00,,,0.00,VWS V13.01,2013-01-22 21:58:00,
2013-01-22 15:59:00,16.3,-11.1,29.71,NW,315,0.0,0.0,28,0.00,,,0.00,VWS V13.01,2013-01-22 21:59:00,
2013-01-22 16:00:00,16.3,-11.1,29.71,NW,315,0.0,0.0,28,0.00,,,0.00,VWS V13.01,2013-01-22 22:00:00,
2013-01-22 16:01:00,16.5,-10.9,29.71,NW,315,0.0,0.0,28,0.00,,,0.00,VWS V13.01,2013-01-22 22:01:00,
2013-01-22 16:02:00,16.5,-10.9,29.71,NW,315,0.0,0.0,28,0.00,,,0.00,VWS V13.01,2013-01-22 22:02:00,
2013-01-22 16:03:00,16.5,-10.9,29.71,NW,315,0.0,0.0,28,0.00,,,0.00,VWS V13.01,2013-01-22 22:03:00,
2013-01-22 16:04:00,16.5,-10.9,29.71,NW,315,0.0,0.0,28,0.00,,,0.00,VWS V13.01,2013-01-22 22:04:00,
2013-01-22 16:05:00,16.5,-10.9,29.71,NW,315,2.7,2.7,28,0.00,,,0.00,VWS V13.01,2013-01-22 22:05:00,
2013-01-22 16:06:00,16.5,-10.9,29.71,NW,315,0.0,0.0,28,0.00,,,0.00,VWS V13.01,2013-01-22 22:06:00,
2013-01-22 16:07:00,16.5,-10.9,29.71,NW,315,0.0,0.0,28,0.00,,,0.00,VWS V13.01,2013-01-22 22:07:00,
2013-01-22 16:08:00,16.5,-10.9,29.71,NW,315,0.0,0.0,28,0.00,,,0.00,VWS V13.01,2013-01-22 22:08:00,
2013-01-22 16:09:00,16.5,-10.9,29.71,NW,315,0.0,0.0,28,0.00,,,0.00,VWS V13.01,2013-01-22 22:09:00,
2013-01-22 16:10:00,16.5,-10.9,29.71,NW,315,0.0,0.0,28,0.00,,,0.00,VWS V13.01,2013-01-22 22:10:00,
2013-01-22 16:11:00,16.5,-10.9,29.71,NW,315,0.0,0.0,28,0.00,,,0.00,VWS V13.01,2013-01-22 22:11:00,
2013-01-22 16:12:00,16.7,-10.7,29.71,NW,315,0.0,0.0,28,0.00,,,0.00,VWS V13.01,2013-01-22 22:12:00,
2013-01-22 16:13:00,16.7,-10.7,29.71,NW,315,0.0,0.0,28,0.00,,,0.00,VWS V13.01,2013-01-22 22:13:00,
2013-01-22 16:14:00,16.5,-10.9,29.71,NW,315,0.0,0.0,28,0.00,,,0.00,VWS V13.01,2013-01-22 22:14:00,
2013-01-22 16:15:00,16.5,-10.9,29.71,NW,315,0.0,0.0,28,0.00,,,0.00,VWS V13.01,2013-01-22 22:15:00,
2013-01-22 16:16:00,16.5,-10.9,29.71,NW,315,0.0,0.0,28,0.00,,,0.00,VWS V13.01,2013-01-22 22:16:00,
2013-01-22 16:17:00,16.7,-10.7,29.71,NW,315,0.0,0.0,28,0.00,,,0.00,VWS V13.01,2013-01-22 22:17:00,
2013-01-22 16:18:00,16.7,-10.7,29.71,NW,315,0.0,0.0,28,0.00,,,0.00,VWS V13.01,2013-01-22 22:18:00,
2013-01-22 16:19:00,16.7,-10.7,29.71,NW,315,0.0,0.0,28,0.00,,,0.00,VWS V13.01,2013-01-22 22:19:00,
2013-01-22 16:20:00,16.7,-10.7,29.71,NW,315,0.0,0.0,28,0.00,,,0.00,VWS V13.01,2013-01-22 22:20:00,
2013-01-22 16:21:00,16.7,-10.7,29.71,NW,315,0.0,0.0,28,0.00,,,0.00,VWS V13.01,2013-01-22 22:21:00,
2013-01-22 16:22:00,16.7,-10.7,29.71,NW,315,0.0,0.0,28,0.00,,,0.00,VWS V13.01,2013-01-22 22:22:00,
2013-01-22 16:23:00,16.7,-10.7,29.71,NW,315,0.0,0.0,28,0.00,,,0.00,VWS V13.01,2013-01-22 22:23:00,
2013-01-22 16:24:00,16.9,-10.6,29.71,NW,315,0.0,0.0,28,0.00,,,0.00,VWS V13.01,2013-01-22 22:24:00,
2013-01-22 16:25:00,16.9,-10.6,29.71,NW,315,0.0,0.0,28,0.00,,,0.00,VWS V13.01,2013-01-22 22:25:00,
2013-01-22 16:26:00,16.9,-10.6,29.71,NW,315,0.0,0.0,28,0.00,,,0.00,VWS V13.01,2013-01-22 22:26:00,
2013-01-22 16:27:00,16.9,-10.6,29.71,NW,315,0.0,0.0,28,0.00,,,0.00,VWS V13.01,2013-01-22 22:27:00,
2013-01-22 16:28:00,16.9,-10.6,29.71,NW,315,0.0,0.0,28,0.00,,,0.00,VWS V13.01,2013-01-22 22:28:00,
2013-01-22 16:29:00,16.9,-10.6,29.71,NW,315,0.0,0.0,28,0.00,,,0.00,VWS V13.01,2013-01-22 22:29:00,
2013-01-22 16:30:00,16.7,-10.7,29.71,NW,315,0.0,0.0,28,0.00,,,0.00,VWS V13.01,2013-01-22 22:30:00,
2013-01-22 16:31:00,16.7,-10.7,29.71,NW,315,0.0,0.0,28,0.00,,,0.00,VWS V13.01,2013-01-22 22:31:00,
2013-01-22 16:32:00,16.7,-10.7,29.71,NW,315,0.0,0.0,28,0.00,,,0.00,VWS V13.01,2013-01-22 22:32:00,
2013-01-22 16:33:00,16.7,-10.7,29.71,NW,315,0.0,0.0,28,0.00,,,0.00,VWS V13.01,2013-01-22 22:33:00,
2013-01-22 16:34:00,16.7,-10.7,29.71,NW,315,0.0,0.0,28,0.00,,,0.00,VWS V13.01,2013-01-22 22:34:00,
2013-01-22 16:35:00,16.7,-10.7,29.71,NW,315,0.0,0.0,28,0.00,,,0.00,VWS V13.01,2013-01-22 22:35:00,
2013-01-22 16:36:00,16.7,-10.7,29.71,NW,315,0.0,0.0,28,0.00,,,0.00,VWS V13.01,2013-01-22 22:36:00,
2013-01-22 16:37:00,16.7,-10.7,29.71,NW,315,0.0,0.0,28,0.00,,,0.00,VWS V13.01,2013-01-22 22:37:00,
2013-01-22 16:38:00,16.7,-10.7,29.71,NW,315,0.0,0.0,28,0.00,,,0.00,VWS V13.01,2013-01-22 22:38:00,
2013-01-22 16:39:00,16.7,-10.7,29.71,NW,315,0.0,0.0,28,0.00,,,0.00,VWS V13.01,2013-01-22 22:39:00,
2013-01-22 16:40:00,16.7,-10.7,29.71,NW,315,0.0,0.0,28,0.00,,,0.00,VWS V13.01,2013-01-22 22:40:00,
2013-01-22 16:41:00,16.7,-10.7,29.71,NW,315,0.0,0.0,28,0.00,,,0.00,VWS V13.01,2013-01-22 22:41:00,
2013-01-22 16:42:00,16.5,-10.9,29.71,NW,315,0.0,0.0,28,0.00,,,0.00,VWS V13.01,2013-01-22 22:42:00,
2013-01-22 16:43:00,16.5,-10.9,29.71,NW,315,0.0,0.0,28,0.00,,,0.00,VWS V13.01,2013-01-22 22:43:00,
2013-01-22 16:44:00,16.5,-10.9,29.71,NW,315,0.0,0.0,28,0.00,,,0.00,VWS V13.01,2013-01-22 22:44:00,
2013-01-22 16:45:00,16.5,-10.9,29.71,NW,315,0.0,0.0,28,0.00,,,0.00,VWS V13.01,2013-01-22 22:45:00,
2013-01-22 16:46:00,16.5,-10.9,29.71,NW,315,0.0,0.0,28,0.00,,,0.00,VWS V13.01,2013-01-22 22:46:00,
2013-01-22 16:47:00,16.5,-10.9,29.71,NW,315,0.0,0.0,28,0.00,,,0.00,VWS V13.01,2013-01-22 22:47:00,
2013-01-22 16:48:00,16.5,-10.9,29.71,NW,315,0.0,0.0,28,0.00,,,0.00,VWS V13.01,2013-01-22 22:48:00,
2013-01-22 16:49:00,16.5,-10.9,29.71,NW,315,0.0,0.0,28,0.00,,,0.00,VWS V13.01,2013-01-22 22:49:00,
2013-01-22 16:50:00,16.5,-10.9,29.71,NW,315,0.0,0.0,28,0.00,,,0.00,VWS V13.01,2013-01-22 22:50:00,
2013-01-22 16:51:00,16.5,-10.9,29.71,NW,315,0.0,0.0,28,0.00,,,0.00,VWS V13.01,2013-01-22 22:51:00,
2013-01-22 16:52:00,16.5,-10.9,29.71,NW,315,0.0,0.0,28,0.00,,,0.00,VWS V13.01,2013-01-22 22:52:00,
2013-01-22 16:53:00,16.5,-10.9,29.71,NW,315,0.0,0.0,28,0.00,,,0.00,VWS V13.01,2013-01-22 22:53:00,
2013-01-22 16:54:00,16.3,-11.1,29.71,NW,315,2.2,2.7,28,0.00,,,0.00,VWS V13.01,2013-01-22 22:54:00,
2013-01-22 16:55:00,16.2,-11.2,29.71,NW,315,0.0,2.2,28,0.00,,,0.00,VWS V13.01,2013-01-22 22:55:00,
2013-01-22 16:56:00,16.2,-11.2,29.71,NW,315,0.0,0.0,28,0.00,,,0.00,VWS V13.01,2013-01-22 22:56:00,
2013-01-22 16:57:00,16.2,-11.2,29.71,NW,315,3.6,3.6,28,0.00,,,0.00,VWS V13.01,2013-01-22 22:57:00,
2013-01-22 16:58:00,16.2,-11.2,29.71,NW,315,2.2,3.6,28,0.00,,,0.00,VWS V13.01,2013-01-22 22:58:00,
2013-01-22 16:59:00,16.2,-11.2,29.71,NW,315,2.2,2.7,28,0.00,,,0.00,VWS V13.01,2013-01-22 22:59:00,
2013-01-22 17:00:00,16.2,-11.2,29.71,NW,315,0.0,2.2,28,0.00,,,0.00,VWS V13.01,2013-01-22 23:00:00,
2013-01-22 17:01:00,16.0,-11.4,29.71,NW,315,0.0,0.0,28,0.00,,,0.00,VWS V13.01,2013-01-22 23:01:00,
2013-01-22 17:02:00,16.0,-11.4,29.71,NW,315,0.0,0.0,28,0.00,,,0.00,VWS V13.01,2013-01-22 23:02:00,
2013-01-22 17:03:00,16.0,-11.4,29.71,NW,315,0.0,0.0,28,0.00,,,0.00,VWS V13.01,2013-01-22 23:03:00,
2013-01-22 17:04:00,16.0,-11.4,29.71,NW,315,0.0,0.0,28,0.00,,,0.00,VWS V13.01,2013-01-22 23:04:00,
2013-01-22 17:05:00,16.2,-11.2,29.71,NW,315,0.0,0.0,28,0.00,,,0.00,VWS V13.01,2013-01-22 23:05:00,
2013-01-22 17:06:00,16.2,-11.2,29.71,NW,315,0.0,0.0,28,0.00,,,0.00,VWS V13.01,2013-01-22 23:06:00,
2013-01-22 17:07:00,16.2,-11.2,29.71,NW,315,0.0,0.0,28,0.00,,,0.00,VWS V13.01,2013-01-22 23:07:00,
2013-01-22 17:08:00,16.2,-11.2,29.71,NW,315,0.0,0.0,28,0.00,,,0.00,VWS V13.01,2013-01-22 23:08:00,
2013-01-22 17:09:00,16.2,-11.2,29.71,NW,315,0.0,0.0,28,0.00,,,0.00,VWS V13.01,2013-01-22 23:09:00,
2013-01-22 17:10:00,16.0,-11.4,29.71,NW,315,0.0,0.0,28,0.00,,,0.00,VWS V13.01,2013-01-22 23:10:00,
2013-01-22 17:11:00,16.0,-11.4,29.71,NW,315,0.0,0.0,28,0.00,,,0.00,VWS V13.01,2013-01-22 23:11:00,
2013-01-22 17:12:00,16.0,-11.4,29.71,NW,315,0.0,0.0,28,0.00,,,0.00,VWS V13.01,2013-01-22 23:12:00,
2013-01-22 17:13:00,16.0,-11.4,29.71,NW,315,0.0,0.0,28,0.00,,,0.00,VWS V13.01,2013-01-22 23:13:00,
2013-01-22 17:14:00,16.0,-11.4,29.71,NW,315,2.2,3.1,28,0.00,,,0.00,VWS V13.01,2013-01-22 23:14:00,
2013-01-22 17:15:00,16.0,-11.4,29.71,NW,315,0.0,2.2,28,0.00,,,0.00,VWS V13.01,2013-01-22 23:15:00,
2013-01-22 17:16:00,16.0,-11.4,29.71,NW,315,2.7,2.7,28,0.00,,,0.00,VWS V13.01,2013-01-22 23:16:00,
2013-01-22 17:17:00,16.0,-11.4,29.71,NW,315,0.0,0.0,28,0.00,,,0.00,VWS V13.01,2013-01-22 23:17:00,
2013-01-22 17:18:00,16.0,-11.4,29.71,NW,315,0.0,0.0,28,0.00,,,0.00,VWS V13.01,2013-01-22 23:18:00,
2013-01-22 17:19:00,16.0,-11.4,29.71,NW,315,0.0,0.0,28,0.00,,,0.00,VWS V13.01,2013-01-22 23:19:00,
2013-01-22 17:20:00,16.0,-11.4,29.71,NW,315,0.0,0.0,28,0.00,,,0.00,VWS V13.01,2013-01-22 23:20:00,
2013-01-22 17:21:00,16.0,-11.4,29.71,NW,315,0.0,0.0,28,0.00,,,0.00,VWS V13.01,2013-01-22 23:21:00,
2013-01-22 17:22:00,16.0,-11.4,29.71,NW,315,0.0,0.0,28,0.00,,,0.00,VWS V13.01,2013-01-22 23:22:00,
2013-01-22 17:23:00,16.0,-11.4,29.71,NW,315,0.0,2.2,28,0.00,,,0.00,VWS V13.01,2013-01-22 23:23:00,
2013-01-22 17:24:00,16.0,-11.4,29.71,NW,315,0.0,2.2,28,0.00,,,0.00,VWS V13.01,2013-01-22 23:24:00,
2013-01-22 17:25:00,16.0,-11.4,29.71,NW,315,0.0,0.0,28,0.00,,,0.00,VWS V13.01,2013-01-22 23:25:00,
2013-01-22 17:26:00,16.0,-11.4,29.71,NW,315,0.0,0.0,28,0.00,,,0.00,VWS V13.01,2013-01-22 23:26:00,
2013-01-22 17:27:00,16.0,-11.4,29.71,NW,315,0.0,0.0,28,0.00,,,0.00,VWS V13.01,2013-01-22 23:27:00,
2013-01-22 17:28:00,16.0,-11.4,29.71,NW,315,0.0,0.0,28,0.00,,,0.00,VWS V13.01,2013-01-22 23:28:00,
2013-01-22 17:29:00,16.0,-11.4,29.71,NW,315,0.0,0.0,28,0.00,,,0.00,VWS V13.01,2013-01-22 23:29:00,
2013-01-22 17:30:00,16.0,-11.4,29.71,NW,315,0.0,0.0,28,0.00,,,0.00,VWS V13.01,2013-01-22 23:30:00,
2013-01-22 17:31:00,16.0,-11.4,29.74,NW,315,0.0,0.0,28,0.00,,,0.00,VWS V13.01,2013-01-22 23:31:00,
2013-01-22 17:32:00,16.0,-11.4,29.74,NW,315,0.0,0.0,28,0.00,,,0.00,VWS V13.01,2013-01-22 23:32:00,
2013-01-22 17:33:00,16.0,-11.4,29.74,NW,315,0.0,0.0,28,0.00,,,0.00,VWS V13.01,2013-01-22 23:33:00,
2013-01-22 17:34:00,16.0,-11.4,29.74,NW,315,0.0,0.0,28,0.00,,,0.00,VWS V13.01,2013-01-22 23:34:00,
2013-01-22 17:35:00,16.0,-11.4,29.74,NW,315,0.0,0.0,28,0.00,,,0.00,VWS V13.01,2013-01-22 23:35:00,
2013-01-22 17:36:00,16.0,-11.4,29.74,NW,315,0.0,0.0,28,0.00,,,0.00,VWS V13.01,2013-01-22 23:36:00,
2013-01-22 17:37:00,16.0,-11.4,29.74,NW,315,0.0,0.0,28,0.00,,,0.00,VWS V13.01,2013-01-22 23:37:00,
2013-01-22 17:38:00,16.0,-11.4,29.74,NW,315,0.0,0.0,28,0.00,,,0.00,VWS V13.01,2013-01-22 23:38:00,
2013-01-22 17:39:00,16.0,-11.4,29.74,NW,315,0.0,0.0,28,0.00,,,0.00,VWS V13.01,2013-01-22 23:39:00,
2013-01-22 17:40:00,16.0,-11.4,29.74,NW,315,3.1,3.1,28,0.00,,,0.00,VWS V13.01,2013-01-22 23:40:00,
2013-01-22 17:41:00,16.0,-11.4,29.74,NW,315,3.6,3.6,28,0.00,,,0.00,VWS V13.01,2013-01-22 23:41:00,
2013-01-22 17:42:00,16.0,-11.4,29.74,NW,315,0.0,2.2,28,0.00,,,0.00,VWS V13.01,2013-01-22 23:42:00,
2013-01-22 17:43:00,16.0,-11.4,29.74,NW,315,0.0,2.2,28,0.00,,,0.00,VWS V13.01,2013-01-22 23:43:00,
2013-01-22 17:44:00,16.0,-11.4,29.74,NW,315,0.0,0.0,28,0.00,,,0.00,VWS V13.01,2013-01-22 23:44:00,
2013-01-22 17:45:00,16.0,-11.4,29.74,NW,315,2.7,2.7,28,0.00,,,0.00,VWS V13.01,2013-01-22 23:45:00,
2013-01-22 17:46:00,16.0,-11.4,29.71,NW,315,2.7,2.7,28,0.00,,,0.00,VWS V13.01,2013-01-22 23:46:00,
2013-01-22 17:47:00,16.0,-11.4,29.71,NW,315,2.2,2.2,28,0.00,,,0.00,VWS V13.01,2013-01-22 23:47:00,
2013-01-22 17:48:00,16.0,-11.4,29.71,NW,315,0.0,2.2,28,0.00,,,0.00,VWS V13.01,2013-01-22 23:48:00,
2013-01-22 17:49:00,16.0,-11.4,29.71,NW,315,0.0,2.7,28,0.00,,,0.00,VWS V13.01,2013-01-22 23:49:00,
2013-01-22 17:50:00,16.0,-11.4,29.71,NW,315,2.7,2.7,28,0.00,,,0.00,VWS V13.01,2013-01-22 23:50:00,
2013-01-22 17:51:00,16.0,-11.4,29.71,NW,315,3.6,4.0,28,0.00,,,0.00,VWS V13.01,2013-01-22 23:51:00,
2013-01-22 17:52:00,16.0,-11.4,29.71,NW,315,0.0,2.7,28,0.00,,,0.00,VWS V13.01,2013-01-22 23:52:00,
2013-01-22 17:53:00,16.0,-11.4,29.71,NW,315,0.0,2.7,28,0.00,,,0.00,VWS V13.01,2013-01-22 23:53:00,
2013-01-22 17:54:00,16.0,-11.4,29.71,NW,315,0.0,3.1,28,0.00,,,0.00,VWS V13.01,2013-01-22 23:54:00,
2013-01-22 17:55:00,16.0,-9.3,29.71,NW,315,0.0,0.0,31,0.00,,,0.00,VWS V13.01,2013-01-22 23:55:00,
2013-01-22 17:56:00,16.0,-9.3,29.71,NW,315,0.0,0.0,31,0.00,,,0.00,VWS V13.01,2013-01-22 23:56:00,
2013-01-22 17:57:00,16.0,-9.3,29.71,NW,315,0.0,0.0,31,0.00,,,0.00,VWS V13.01,2013-01-22 23:57:00,
2013-01-22 17:58:00,15.8,-9.5,29.71,NW,315,0.0,0.0,31,0.00,,,0.00,VWS V13.01,2013-01-22 23:58:00,
2013-01-22 17:59:00,16.0,-9.3,29.71,NW,315,0.0,0.0,31,0.00,,,0.00,VWS V13.01,2013-01-22 23:59:00,
2013-01-22 18:00:00,16.0,-9.3,29.71,NW,315,0.0,0.0,31,0.00,,,0.00,VWS V13.01,2013-01-23 00:00:00,
2013-01-22 18:01:00,16.0,-9.3,29.71,NW,315,0.0,0.0,31,0.00,,,0.00,VWS V13.01,2013-01-23 00:01:00,
2013-01-22 18:02:00,15.8,-9.5,29.71,NW,315,0.0,0.0,31,0.00,,,0.00,VWS V13.01,2013-01-23 00:02:00,
2013-01-22 18:03:00,16.0,-9.3,29.71,NW,315,0.0,0.0,31,0.00,,,0.00,VWS V13.01,2013-01-23 00:03:00,
2013-01-22 18:04:00,16.0,-9.3,29.71,NW,315,0.0,0.0,31,0.00,,,0.00,VWS V13.01,2013-01-23 00:04:00,
2013-01-22 18:05:00,16.0,-9.3,29.71,NW,315,0.0,0.0,31,0.00,,,0.00,VWS V13.01,2013-01-23 00:05:00,
2013-01-22 18:06:00,16.0,-9.3,29.71,NW,315,0.0,0.0,31,0.00,,,0.00,VWS V13.01,2013-01-23 00:06:00,
2013-01-22 18:07:00,16.0,-9.3,29.71,NW,315,0.0,0.0,31,0.00,,,0.00,VWS V13.01,2013-01-23 00:07:00,
2013-01-22 18:08:00,16.0,-9.3,29.71,NW,315,0.0,0.0,31,0.00,,,0.00,VWS V13.01,2013-01-23 00:08:00,
2013-01-22 18:09:00,16.0,-9.3,29.71,NW,315,0.0,0.0,31,0.00,,,0.00,VWS V13.01,2013-01-23 00:09:00,
2013-01-22 18:10:00,16.0,-9.3,29.71,NW,315,0.0,0.0,31,0.00,,,0.00,VWS V13.01,2013-01-23 00:10:00,
2013-01-22 18:11:00,16.0,-9.3,29.71,NW,315,0.0,0.0,31,0.00,,,0.00,VWS V13.01,2013-01-23 00:11:00,
2013-01-22 18:12:00,16.0,-9.3,29.71,NW,315,0.0,0.0,31,0.00,,,0.00,VWS V13.01,2013-01-23 00:12:00,
2013-01-22 18:13:00,16.0,-9.3,29.71,NW,315,0.0,0.0,31,0.00,,,0.00,VWS V13.01,2013-01-23 00:13:00,
2013-01-22 18:14:00,16.0,-9.3,29.71,NW,315,0.0,0.0,31,0.00,,,0.00,VWS V13.01,2013-01-23 00:14:00,
2013-01-22 18:15:00,16.0,-9.3,29.71,NW,315,0.0,0.0,31,0.00,,,0.00,VWS V13.01,2013-01-23 00:15:00,
2013-01-22 18:16:00,16.0,-9.3,29.71,NW,315,0.0,0.0,31,0.00,,,0.00,VWS V13.01,2013-01-23 00:16:00,
2013-01-22 18:17:00,16.0,-9.3,29.71,NW,315,0.0,0.0,31,0.00,,,0.00,VWS V13.01,2013-01-23 00:17:00,
2013-01-22 18:18:00,16.0,-9.3,29.71,NW,315,0.0,0.0,31,0.00,,,0.00,VWS V13.01,2013-01-23 00:18:00,
2013-01-22 18:19:00,16.0,-9.3,29.71,NW,315,0.0,0.0,31,0.00,,,0.00,VWS V13.01,2013-01-23 00:19:00,
2013-01-22 18:20:00,16.0,-9.3,29.71,NW,315,0.0,0.0,31,0.00,,,0.00,VWS V13.01,2013-01-23 00:20:00,
2013-01-22 18:21:00,16.0,-9.3,29.71,NW,315,0.0,0.0,31,0.00,,,0.00,VWS V13.01,2013-01-23 00:21:00,
2013-01-22 18:22:00,16.0,-9.3,29.71,NW,315,0.0,0.0,31,0.00,,,0.00,VWS V13.01,2013-01-23 00:22:00,
2013-01-22 18:23:00,16.0,-9.3,29.71,NW,315,0.0,0.0,31,0.00,,,0.00,VWS V13.01,2013-01-23 00:23:00,
2013-01-22 18:24:00,16.0,-9.3,29.71,NW,315,0.0,0.0,31,0.00,,,0.00,VWS V13.01,2013-01-23 00:24:00,
2013-01-22 18:25:00,16.0,-9.3,29.71,NW,315,0.0,0.0,31,0.00,,,0.00,VWS V13.01,2013-01-23 00:25:00,
2013-01-22 18:26:00,16.0,-9.3,29.71,NW,315,0.0,0.0,31,0.00,,,0.00,VWS V13.01,2013-01-23 00:26:00,
2013-01-22 18:27:00,16.0,-9.3,29.71,NW,315,0.0,0.0,31,0.00,,,0.00,VWS V13.01,2013-01-23 00:27:00,
2013-01-22 18:28:00,16.0,-9.3,29.71,NW,315,0.0,0.0,31,0.00,,,0.00,VWS V13.01,2013-01-23 00:28:00,
2013-01-22 18:29:00,16.0,-9.3,29.71,NW,315,2.7,4.0,31,0.00,,,0.00,VWS V13.01,2013-01-23 00:29:00,
2013-01-22 18:30:00,16.0,-9.3,29.71,NW,315,3.1,3.1,31,0.00,,,0.00,VWS V13.01,2013-01-23 00:30:00,
2013-01-22 18:31:00,16.0,-9.3,29.71,NW,315,3.1,3.1,31,0.00,,,0.00,VWS V13.01,2013-01-23 00:31:00,
2013-01-22 18:32:00,16.0,-9.3,29.71,NW,315,2.2,3.6,31,0.00,,,0.00,VWS V13.01,2013-01-23 00:32:00,
2013-01-22 18:33:00,16.0,-9.3,29.71,NW,315,2.7,2.7,31,0.00,,,0.00,VWS V13.01,2013-01-23 00:33:00,
2013-01-22 18:34:00,16.0,-9.3,29.71,NW,315,3.6,4.0,31,0.00,,,0.00,VWS V13.01,2013-01-23 00:34:00,
2013-01-22 18:35:00,16.0,-9.3,29.71,NW,315,3.1,3.6,31,0.00,,,0.00,VWS V13.01,2013-01-23 00:35:00,
2013-01-22 18:36:00,16.0,-9.3,29.71,NW,315,2.2,3.1,31,0.00,,,0.00,VWS V13.01,2013-01-23 00:36:00,
2013-01-22 18:37:00,16.0,-9.3,29.71,NW,315,2.7,2.7,31,0.00,,,0.00,VWS V13.01,2013-01-23 00:37:00,
2013-01-22 18:38:00,16.0,-9.3,29.71,NW,315,0.0,2.7,31,0.00,,,0.00,VWS V13.01,2013-01-23 00:38:00,
2013-01-22 18:39:00,16.0,-9.3,29.71,NW,315,2.2,3.1,31,0.00,,,0.00,VWS V13.01,2013-01-23 00:39:00,
2013-01-22 18:40:00,16.0,-9.3,29.71,NW,315,2.2,2.2,31,0.00,,,0.00,VWS V13.01,2013-01-23 00:40:00,
2013-01-22 18:41:00,16.0,-9.3,29.71,NW,315,2.7,2.7,31,0.00,,,0.00,VWS V13.01,2013-01-23 00:41:00,
2013-01-22 18:42:00,16.0,-9.3,29.71,NW,315,2.7,4.0,31,0.00,,,0.00,VWS V13.01,2013-01-23 00:42:00,
2013-01-22 18:43:00,16.0,-9.3,29.71,NW,315,2.7,3.1,31,0.00,,,0.00,VWS V13.01,2013-01-23 00:43:00,
2013-01-22 18:44:00,16.0,-9.3,29.71,NW,315,0.0,2.7,31,0.00,,,0.00,VWS V13.01,2013-01-23 00:44:00,
2013-01-22 18:45:00,16.0,-9.3,29.71,NW,315,2.7,2.7,31,0.00,,,0.00,VWS V13.01,2013-01-23 00:45:00,
2013-01-22 18:46:00,16.0,-9.3,29.71,NW,315,2.2,2.7,31,0.00,,,0.00,VWS V13.01,2013-01-23 00:46:00,
2013-01-22 18:47:00,16.0,-9.3,29.71,NW,315,2.7,2.7,31,0.00,,,0.00,VWS V13.01,2013-01-23 00:47:00,
2013-01-22 18:48:00,16.0,-9.3,29.71,NW,315,3.1,4.0,31,0.00,,,0.00,VWS V13.01,2013-01-23 00:48:00,
2013-01-22 18:49:00,16.0,-9.3,29.71,NW,315,2.7,3.1,31,0.00,,,0.00,VWS V13.01,2013-01-23 00:49:00,
2013-01-22 18:50:00,16.0,-9.3,29.71,NW,315,2.2,3.6,31,0.00,,,0.00,VWS V13.01,2013-01-23 00:50:00,
2013-01-22 18:51:00,16.0,-9.3,29.71,NW,315,0.0,2.2,31,0.00,,,0.00,VWS V13.01,2013-01-23 00:51:00,
2013-01-22 18:52:00,16.0,-9.3,29.71,NW,315,3.6,3.6,31,0.00,,,0.00,VWS V13.01,2013-01-23 00:52:00,
2013-01-22 18:53:00,16.0,-9.3,29.71,NW,315,4.0,4.5,31,0.00,,,0.00,VWS V13.01,2013-01-23 00:53:00,
2013-01-22 18:54:00,16.0,-9.3,29.71,NW,315,2.7,4.0,31,0.00,,,0.00,VWS V13.01,2013-01-23 00:54:00,
2013-01-22 18:55:00,16.0,-9.3,29.71,NW,315,3.6,3.6,31,0.00,,,0.00,VWS V13.01,2013-01-23 00:55:00,
2013-01-22 18:56:00,16.0,-9.3,29.71,NW,315,2.2,3.6,31,0.00,,,0.00,VWS V13.01,2013-01-23 00:56:00,
2013-01-22 18:57:00,16.0,-9.3,29.71,NW,315,0.0,2.2,31,0.00,,,0.00,VWS V13.01,2013-01-23 00:57:00,
2013-01-22 18:58:00,16.0,-9.3,29.71,NW,315,2.2,2.7,31,0.00,,,0.00,VWS V13.01,2013-01-23 00:58:00,
2013-01-22 18:59:00,16.0,-9.3,29.71,NW,315,2.2,3.1,31,0.00,,,0.00,VWS V13.01,2013-01-23 00:59:00,
2013-01-22 19:00:00,16.0,-9.3,29.71,NW,315,0.0,2.7,31,0.00,,,0.00,VWS V13.01,2013-01-23 01:00:00,
2013-01-22 19:01:00,16.0,-9.3,29.71,NW,315,2.2,2.7,31,0.00,,,0.00,VWS V13.01,2013-01-23 01:01:00,
2013-01-22 19:02:00,16.0,-9.3,29.71,NW,315,2.2,2.2,31,0.00,,,0.00,VWS V13.01,2013-01-23 01:02:00,
2013-01-22 19:03:00,16.0,-9.3,29.71,NW,315,2.2,2.2,31,0.00,,,0.00,VWS V13.01,2013-01-23 01:03:00,
2013-01-22 19:04:00,16.0,-9.3,29.71,NW,315,2.2,2.7,31,0.00,,,0.00,VWS V13.01,2013-01-23 01:04:00,
2013-01-22 19:05:00,16.0,-9.3,29.71,NW,315,0.0,2.2,31,0.00,,,0.00,VWS V13.01,2013-01-23 01:05:00,
2013-01-22 19:06:00,16.0,-9.3,29.71,NW,315,0.0,0.0,31,0.00,,,0.00,VWS V13.01,2013-01-23 01:06:00,
2013-01-22 19:07:00,16.0,-9.3,29.71,NW,315,0.0,0.0,31,0.00,,,0.00,VWS V13.01,2013-01-23 01:07:00,
2013-01-22 19:08:00,16.0,-8.0,29.71,NW,315,2.7,2.7,33,0.00,,,0.00,VWS V13.01,2013-01-23 01:08:00,
2013-01-22 19:09:00,16.0,-8.0,29.71,NW,315,2.7,2.7,33,0.00,,,0.00,VWS V13.01,2013-01-23 01:09:00,
2013-01-22 19:10:00,16.2,-7.9,29.71,NW,315,2.7,2.7,33,0.00,,,0.00,VWS V13.01,2013-01-23 01:10:00,
2013-01-22 19:11:00,16.0,-8.0,29.71,NW,315,2.7,2.7,33,0.00,,,0.00,VWS V13.01,2013-01-23 01:11:00,
2013-01-22 19:12:00,16.0,-8.0,29.71,NW,315,2.7,2.7,33,0.00,,,0.00,VWS V13.01,2013-01-23 01:12:00,
2013-01-22 19:13:00,16.0,-8.0,29.71,NW,315,3.1,3.1,33,0.00,,,0.00,VWS V13.01,2013-01-23 01:13:00,
2013-01-22 19:14:00,16.0,-8.0,29.71,NW,315,3.1,3.1,33,0.00,,,0.00,VWS V13.01,2013-01-23 01:14:00,
2013-01-22 19:15:00,16.0,-8.0,29.71,NW,315,3.1,3.1,33,0.00,,,0.00,VWS V13.01,2013-01-23 01:15:00,
2013-01-22 19:16:00,16.0,-8.0,29.71,NW,315,3.1,3.1,33,0.00,,,0.00,VWS V13.01,2013-01-23 01:16:00,
2013-01-22 19:17:00,16.0,-8.0,29.71,NW,315,3.1,3.1,33,0.00,,,0.00,VWS V13.01,2013-01-23 01:17:00,
2013-01-22 19:18:00,16.0,-8.0,29.71,NW,315,3.1,3.1,33,0.00,,,0.00,VWS V13.01,2013-01-23 01:18:00,
2013-01-22 19:19:00,16.0,-8.0,29.71,NW,315,3.1,3.6,33,0.00,,,0.00,VWS V13.01,2013-01-23 01:19:00,
2013-01-22 19:20:00,16.0,-8.0,29.71,NW,315,3.1,3.1,33,0.00,,,0.00,VWS V13.01,2013-01-23 01:20:00,
2013-01-22 19:21:00,16.0,-8.0,29.71,NW,315,3.1,3.1,33,0.00,,,0.00,VWS V13.01,2013-01-23 01:21:00,
2013-01-22 19:22:00,16.0,-8.0,29.71,NW,315,3.6,3.6,33,0.00,,,0.00,VWS V13.01,2013-01-23 01:22:00,
2013-01-22 19:23:00,16.0,-8.0,29.71,NW,315,2.2,4.0,33,0.00,,,0.00,VWS V13.01,2013-01-23 01:23:00,
2013-01-22 19:24:00,16.0,-8.0,29.71,NW,315,3.6,3.6,33,0.00,,,0.00,VWS V13.01,2013-01-23 01:24:00,
2013-01-22 19:25:00,15.8,-7.6,29.71,NW,315,3.6,3.6,34,0.00,,,0.00,VWS V13.01,2013-01-23 01:25:00,
2013-01-22 19:26:00,15.8,-7.6,29.71,NW,315,0.0,3.6,34,0.00,,,0.00,VWS V13.01,2013-01-23 01:26:00,
2013-01-22 19:27:00,16.0,-8.0,29.71,NW,315,3.6,3.6,33,0.00,,,0.00,VWS V13.01,2013-01-23 01:27:00,
2013-01-22 19:28:00,16.0,-8.0,29.71,NW,315,0.0,3.6,33,0.00,,,0.00,VWS V13.01,2013-01-23 01:28:00,
2013-01-22 19:29:00,16.0,-8.0,29.71,NW,315,0.0,2.2,33,0.00,,,0.00,VWS V13.01,2013-01-23 01:29:00,
2013-01-22 19:30:00,16.0,-8.0,29.71,NW,315,0.0,0.0,33,0.00,,,0.00,VWS V13.01,2013-01-23 01:30:00,
2013-01-22 19:31:00,16.0,-8.0,29.71,NW,315,0.0,0.0,33,0.00,,,0.00,VWS V13.01,2013-01-23 01:31:00,
2013-01-22 19:32:00,15.8,-7.6,29.71,NW,315,0.0,0.0,34,0.00,,,0.00,VWS V13.01,2013-01-23 01:32:00,
2013-01-22 19:33:00,15.8,-7.6,29.71,NW,315,0.0,0.0,34,0.00,,,0.00,VWS V13.01,2013-01-23 01:33:00,
2013-01-22 19:34:00,15.8,-7.6,29.71,NW,315,0.0,0.0,34,0.00,,,0.00,VWS V13.01,2013-01-23 01:34:00,
2013-01-22 19:35:00,15.8,-7.6,29.71,NW,315,0.0,0.0,34,0.00,,,0.00,VWS V13.01,2013-01-23 01:35:00,
2013-01-22 19:36:00,15.8,-7.6,29.71,NW,315,0.0,0.0,34,0.00,,,0.00,VWS V13.01,2013-01-23 01:36:00,
2013-01-22 19:37:00,15.8,-7.6,29.71,NW,315,0.0,0.0,34,0.00,,,0.00,VWS V13.01,2013-01-23 01:37:00,
2013-01-22 19:38:00,15.8,-7.6,29.71,NW,315,3.1,3.1,34,0.00,,,0.00,VWS V13.01,2013-01-23 01:38:00,
2013-01-22 19:39:00,15.8,-7.6,29.71,NW,315,0.0,3.1,34,0.00,,,0.00,VWS V13.01,2013-01-23 01:39:00,
2013-01-22 19:40:00,15.8,-7.6,29.71,NW,315,0.0,0.0,34,0.00,,,0.00,VWS V13.01,2013-01-23 01:40:00,
2013-01-22 19:41:00,15.8,-7.6,29.71,NW,315,0.0,0.0,34,0.00,,,0.00,VWS V13.01,2013-01-23 01:41:00,
2013-01-22 19:42:00,15.6,-7.7,29.71,NW,315,0.0,0.0,34,0.00,,,0.00,VWS V13.01,2013-01-23 01:42:00,
2013-01-22 19:43:00,15.6,-7.8,29.71,NW,315,0.0,0.0,34,0.00,,,0.00,VWS V13.01,2013-01-23 01:43:00,
2013-01-22 19:44:00,15.4,-7.9,29.71,NW,315,0.0,0.0,34,0.00,,,0.00,VWS V13.01,2013-01-23 01:44:00,
2013-01-22 19:45:00,15.4,-7.9,29.71,NW,315,0.0,0.0,34,0.00,,,0.00,VWS V13.01,2013-01-23 01:45:00,
2013-01-22 19:46:00,15.4,-7.9,29.71,NW,315,0.0,0.0,34,0.00,,,0.00,VWS V13.01,2013-01-23 01:46:00,
2013-01-22 19:47:00,15.4,-7.9,29.71,NW,315,0.0,0.0,34,0.00,,,0.00,VWS V13.01,2013-01-23 01:47:00,
2013-01-22 19:48:00,15.4,-7.9,29.71,NW,315,0.0,0.0,34,0.00,,,0.00,VWS V13.01,2013-01-23 01:48:00,
2013-01-22 19:49:00,15.4,-7.9,29.71,NW,315,0.0,0.0,34,0.00,,,0.00,VWS V13.01,2013-01-23 01:49:00,
2013-01-22 19:50:00,15.3,-8.1,29.71,NW,315,0.0,0.0,34,0.00,,,0.00,VWS V13.01,2013-01-23 01:50:00,
2013-01-22 19:51:00,15.3,-8.1,29.71,NW,315,0.0,0.0,34,0.00,,,0.00,VWS V13.01,2013-01-23 01:51:00,
2013-01-22 19:52:00,15.3,-8.1,29.71,NW,315,0.0,0.0,34,0.00,,,0.00,VWS V13.01,2013-01-23 01:52:00,
2013-01-22 19:53:00,15.3,-8.1,29.71,NW,315,0.0,0.0,34,0.00,,,0.00,VWS V13.01,2013-01-23 01:53:00,
2013-01-22 19:54:00,15.3,-8.1,29.71,NW,315,0.0,0.0,34,0.00,,,0.00,VWS V13.01,2013-01-23 01:54:00,
2013-01-22 19:55:00,15.3,-8.1,29.71,NW,315,0.0,0.0,34,0.00,,,0.00,VWS V13.01,2013-01-23 01:55:00,
2013-01-22 19:56:00,15.3,-8.1,29.71,NW,315,0.0,0.0,34,0.00,,,0.00,VWS V13.01,2013-01-23 01:56:00,
2013-01-22 19:57:00,15.3,-8.1,29.71,NW,315,0.0,0.0,34,0.00,,,0.00,VWS V13.01,2013-01-23 01:57:00,
2013-01-22 19:58:00,15.3,-8.1,29.71,NW,315,0.0,0.0,34,0.00,,,0.00,VWS V13.01,2013-01-23 01:58:00,
2013-01-22 19:59:00,15.3,-8.1,29.71,NW,315,0.0,0.0,34,0.00,,,0.00,VWS V13.01,2013-01-23 01:59:00,
2013-01-22 20:00:00,15.3,-8.1,29.71,NW,315,0.0,0.0,34,0.00,,,0.00,VWS V13.01,2013-01-23 02:00:00,
2013-01-22 20:01:00,15.3,-8.1,29.71,NW,315,0.0,0.0,34,0.00,,,0.00,VWS V13.01,2013-01-23 02:01:00,
2013-01-22 20:02:00,15.1,-8.2,29.71,NW,315,0.0,0.0,34,0.00,,,0.00,VWS V13.01,2013-01-23 02:02:00,
2013-01-22 20:03:00,15.1,-8.2,29.71,NW,315,0.0,0.0,34,0.00,,,0.00,VWS V13.01,2013-01-23 02:03:00,
2013-01-22 20:04:00,15.1,-8.2,29.71,NW,315,0.0,0.0,34,0.00,,,0.00,VWS V13.01,2013-01-23 02:04:00,
2013-01-22 20:05:00,15.1,-8.2,29.71,NW,315,0.0,0.0,34,0.00,,,0.00,VWS V13.01,2013-01-23 02:05:00,
2013-01-22 20:06:00,15.1,-8.2,29.71,NW,315,0.0,0.0,34,0.00,,,0.00,VWS V13.01,2013-01-23 02:06:00,
2013-01-22 20:07:00,15.1,-8.2,29.71,NW,315,0.0,0.0,34,0.00,,,0.00,VWS V13.01,2013-01-23 02:07:00,
2013-01-22 20:08:00,15.1,-8.2,29.71,NW,315,0.0,0.0,34,0.00,,,0.00,VWS V13.01,2013-01-23 02:08:00,
2013-01-22 20:09:00,15.1,-8.2,29.71,NW,315,0.0,0.0,34,0.00,,,0.00,VWS V13.01,2013-01-23 02:09:00,
2013-01-22 20:10:00,15.1,-8.2,29.71,NW,315,0.0,0.0,34,0.00,,,0.00,VWS V13.01,2013-01-23 02:10:00,
2013-01-22 20:11:00,15.1,-8.2,29.71,NW,315,0.0,0.0,34,0.00,,,0.00,VWS V13.01,2013-01-23 02:11:00,
2013-01-22 20:12:00,15.1,-8.2,29.71,NW,315,3.6,3.6,34,0.00,,,0.00,VWS V13.01,2013-01-23 02:12:00,
2013-01-22 20:13:00,15.1,-8.2,29.71,NW,315,3.1,3.6,34,0.00,,,0.00,VWS V13.01,2013-01-23 02:13:00,
2013-01-22 20:14:00,15.1,-8.2,29.71,NW,315,0.0,3.1,34,0.00,,,0.00,VWS V13.01,2013-01-23 02:14:00,
2013-01-22 20:15:00,15.1,-8.2,29.71,NW,315,0.0,0.0,34,0.00,,,0.00,VWS V13.01,2013-01-23 02:15:00,
2013-01-22 20:16:00,15.1,-8.2,29.71,NW,315,2.2,4.0,34,0.00,,,0.00,VWS V13.01,2013-01-23 02:16:00,
2013-01-22 20:17:00,15.1,-8.2,29.71,NW,315,0.0,2.2,34,0.00,,,0.00,VWS V13.01,2013-01-23 02:17:00,
2013-01-22 20:18:00,15.1,-8.2,29.71,NW,315,0.0,0.0,34,0.00,,,0.00,VWS V13.01,2013-01-23 02:18:00,
2013-01-22 20:19:00,15.1,-8.2,29.71,NW,315,0.0,0.0,34,0.00,,,0.00,VWS V13.01,2013-01-23 02:19:00,
2013-01-22 20:20:00,14.9,-8.4,29.71,NW,315,0.0,0.0,34,0.00,,,0.00,VWS V13.01,2013-01-23 02:20:00,
2013-01-22 20:21:00,14.9,-8.4,29.71,NW,315,0.0,0.0,34,0.00,,,0.00,VWS V13.01,2013-01-23 02:21:00,
2013-01-22 20:22:00,14.9,-8.4,29.71,NW,315,0.0,0.0,34,0.00,,,0.00,VWS V13.01,2013-01-23 02:22:00,
2013-01-22 20:23:00,14.9,-8.4,29.71,NW,315,0.0,0.0,34,0.00,,,0.00,VWS V13.01,2013-01-23 02:23:00,
2013-01-22 20:24:00,14.9,-8.4,29.71,NW,315,0.0,0.0,34,0.00,,,0.00,VWS V13.01,2013-01-23 02:24:00,
2013-01-22 20:25:00,14.7,-8.6,29.71,NW,315,0.0,0.0,34,0.00,,,0.00,VWS V13.01,2013-01-23 02:25:00,
2013-01-22 20:26:00,14.7,-8.6,29.71,NW,315,0.0,0.0,34,0.00,,,0.00,VWS V13.01,2013-01-23 02:26:00,
2013-01-22 20:27:00,14.7,-8.0,29.71,NW,315,0.0,0.0,35,0.00,,,0.00,VWS V13.01,2013-01-23 02:27:00,
2013-01-22 20:28:00,14.7,-8.0,29.71,NW,315,0.0,0.0,35,0.00,,,0.00,VWS V13.01,2013-01-23 02:28:00,
2013-01-22 20:29:00,14.7,-8.0,29.71,NW,315,2.2,2.7,35,0.00,,,0.00,VWS V13.01,2013-01-23 02:29:00,
2013-01-22 20:30:00,14.5,-8.1,29.71,NW,315,2.2,2.2,35,0.00,,,0.00,VWS V13.01,2013-01-23 02:30:00,
2013-01-22 20:31:00,14.5,-8.1,29.71,NW,315,0.0,2.2,35,0.00,,,0.00,VWS V13.01,2013-01-23 02:31:00,
2013-01-22 20:32:00,14.5,-8.1,29.71,NW,315,2.2,3.1,35,0.00,,,0.00,VWS V13.01,2013-01-23 02:32:00,
2013-01-22 20:33:00,14.5,-8.1,29.71,NW,315,0.0,2.7,35,0.00,,,0.00,VWS V13.01,2013-01-23 02:33:00,
2013-01-22 20:34:00,14.5,-8.1,29.71,NW,315,3.1,3.6,35,0.00,,,0.00,VWS V13.01,2013-01-23 02:34:00,
2013-01-22 20:35:00,14.5,-8.1,29.71,NW,315,0.0,3.1,35,0.00,,,0.00,VWS V13.01,2013-01-23 02:35:00,
2013-01-22 20:36:00,14.5,-8.1,29.71,NW,315,0.0,2.2,35,0.00,,,0.00,VWS V13.01,2013-01-23 02:36:00,
2013-01-22 20:37:00,14.5,-8.1,29.71,NW,315,0.0,0.0,35,0.00,,,0.00,VWS V13.01,2013-01-23 02:37:00,
2013-01-22 20:38:00,14.5,-8.1,29.71,NW,315,0.0,0.0,35,0.00,,,0.00,VWS V13.01,2013-01-23 02:38:00,
2013-01-22 20:39:00,14.5,-8.1,29.71,NW,315,0.0,0.0,35,0.00,,,0.00,VWS V13.01,2013-01-23 02:39:00,
2013-01-22 20:40:00,14.5,-8.1,29.71,NW,315,0.0,0.0,35,0.00,,,0.00,VWS V13.01,2013-01-23 02:40:00,
2013-01-22 20:41:00,14.4,-8.3,29.71,NW,315,0.0,0.0,35,0.00,,,0.00,VWS V13.01,2013-01-23 02:41:00,
2013-01-22 20:42:00,14.5,-8.1,29.71,NW,315,2.7,4.0,35,0.00,,,0.00,VWS V13.01,2013-01-23 02:42:00,
2013-01-22 20:43:00,14.5,-8.1,29.71,NW,315,0.0,0.0,35,0.00,,,0.00,VWS V13.01,2013-01-23 02:43:00,
2013-01-22 20:44:00,14.5,-8.1,29.71,NW,315,0.0,2.2,35,0.00,,,0.00,VWS V13.01,2013-01-23 02:44:00,
2013-01-22 20:45:00,14.5,-8.1,29.71,NW,315,0.0,0.0,35,0.00,,,0.00,VWS V13.01,2013-01-23 02:45:00,
2013-01-22 20:46:00,14.5,-8.1,29.71,NW,315,0.0,0.0,35,0.00,,,0.00,VWS V13.01,2013-01-23 02:46:00,
2013-01-22 20:47:00,14.4,-8.3,29.71,NW,315,4.0,4.0,35,0.00,,,0.00,VWS V13.01,2013-01-23 02:47:00,
2013-01-22 20:48:00,14.4,-8.3,29.71,NW,315,3.1,3.1,35,0.00,,,0.00,VWS V13.01,2013-01-23 02:48:00,
2013-01-22 20:49:00,14.4,-8.3,29.71,NW,315,3.1,3.1,35,0.00,,,0.00,VWS V13.01,2013-01-23 02:49:00,
2013-01-22 20:50:00,14.4,-8.3,29.71,NW,315,0.0,4.0,35,0.00,,,0.00,VWS V13.01,2013-01-23 02:50:00,
2013-01-22 20:51:00,14.4,-8.3,29.71,NW,315,0.0,0.0,35,0.00,,,0.00,VWS V13.01,2013-01-23 02:51:00,
2013-01-22 20:52:00,14.4,-8.3,29.71,NW,315,0.0,0.0,35,0.00,,,0.00,VWS V13.01,2013-01-23 02:52:00,
2013-01-22 20:53:00,14.4,-8.3,29.71,NW,315,2.2,2.7,35,0.00,,,0.00,VWS V13.01,2013-01-23 02:53:00,
2013-01-22 20:54:00,14.4,-8.3,29.71,NW,315,3.1,3.1,35,0.00,,,0.00,VWS V13.01,2013-01-23 02:54:00,
2013-01-22 20:55:00,14.4,-8.3,29.71,NW,315,0.0,3.1,35,0.00,,,0.00,VWS V13.01,2013-01-23 02:55:00,
2013-01-22 20:56:00,14.4,-8.3,29.71,NW,315,2.2,2.2,35,0.00,,,0.00,VWS V13.01,2013-01-23 02:56:00,
2013-01-22 20:57:00,14.4,-8.3,29.71,NW,315,2.7,3.6,35,0.00,,,0.00,VWS V13.01,2013-01-23 02:57:00,
2013-01-22 20:58:00,14.4,-8.3,29.71,NW,315,2.2,2.2,35,0.00,,,0.00,VWS V13.01,2013-01-23 02:58:00,
2013-01-22 20:59:00,14.4,-8.3,29.71,NW,315,0.0,2.2,35,0.00,,,0.00,VWS V13.01,2013-01-23 02:59:00,
2013-01-22 21:00:00,14.4,-7.7,29.71,NW,315,2.2,2.2,36,0.00,,,0.00,VWS V13.01,2013-01-23 03:00:00,
2013-01-22 21:01:00,14.4,-7.7,29.71,NW,315,0.0,2.2,36,0.00,,,0.00,VWS V13.01,2013-01-23 03:01:00,
2013-01-22 21:02:00,14.4,-7.7,29.71,NW,315,0.0,2.2,36,0.00,,,0.00,VWS V13.01,2013-01-23 03:02:00,
2013-01-22 21:03:00,14.4,-7.7,29.71,NW,315,0.0,0.0,36,0.00,,,0.00,VWS V13.01,2013-01-23 03:03:00,
2013-01-22 21:04:00,14.4,-7.7,29.71,NW,315,0.0,0.0,36,0.00,,,0.00,VWS V13.01,2013-01-23 03:04:00,
2013-01-22 21:05:00,14.2,-7.9,29.71,NW,315,0.0,0.0,36,0.00,,,0.00,VWS V13.01,2013-01-23 03:05:00,
2013-01-22 21:06:00,14.2,-7.9,29.71,NW,315,0.0,0.0,36,0.00,,,0.00,VWS V13.01,2013-01-23 03:06:00,
2013-01-22 21:07:00,14.2,-7.9,29.71,NW,315,0.0,0.0,36,0.00,,,0.00,VWS V13.01,2013-01-23 03:07:00,
2013-01-22 21:08:00,14.0,-8.0,29.71,NW,315,0.0,0.0,36,0.00,,,0.00,VWS V13.01,2013-01-23 03:08:00,
2013-01-22 21:09:00,14.0,-8.0,29.71,NW,315,0.0,0.0,36,0.00,,,0.00,VWS V13.01,2013-01-23 03:09:00,
2013-01-22 21:10:00,14.0,-8.0,29.71,NW,315,0.0,0.0,36,0.00,,,0.00,VWS V13.01,2013-01-23 03:10:00,
2013-01-22 21:11:00,13.8,-8.2,29.71,NW,315,0.0,0.0,36,0.00,,,0.00,VWS V13.01,2013-01-23 03:11:00,
2013-01-22 21:12:00,13.8,-8.2,29.71,NW,315,2.7,2.7,36,0.00,,,0.00,VWS V13.01,2013-01-23 03:12:00,
2013-01-22 21:13:00,14.0,-7.5,29.71,NW,315,0.0,2.7,37,0.00,,,0.00,VWS V13.01,2013-01-23 03:13:00,
2013-01-22 21:14:00,14.0,-7.5,29.71,NW,315,2.2,2.7,37,0.00,,,0.00,VWS V13.01,2013-01-23 03:14:00,
2013-01-22 21:15:00,14.0,-7.5,29.71,NW,315,2.7,2.7,37,0.00,,,0.00,VWS V13.01,2013-01-23 03:15:00,
2013-01-22 21:16:00,14.0,-7.5,29.71,NW,315,2.2,2.7,37,0.00,,,0.00,VWS V13.01,2013-01-23 03:16:00,
2013-01-22 21:17:00,14.0,-7.5,29.71,NW,315,2.7,2.7,37,0.00,,,0.00,VWS V13.01,2013-01-23 03:17:00,
2013-01-22 21:18:00,13.8,-7.6,29.71,NW,315,0.0,2.2,37,0.00,,,0.00,VWS V13.01,2013-01-23 03:18:00,
2013-01-22 21:19:00,13.8,-7.6,29.71,NW,315,0.0,2.2,37,0.00,,,0.00,VWS V13.01,2013-01-23 03:19:00,
2013-01-22 21:20:00,13.8,-7.6,29.71,NW,315,0.0,0.0,37,0.00,,,0.00,VWS V13.01,2013-01-23 03:20:00,
2013-01-22 21:21:00,13.8,-7.6,29.71,NW,315,0.0,0.0,37,0.00,,,0.00,VWS V13.01,2013-01-23 03:21:00,
2013-01-22 21:22:00,13.8,-7.6,29.71,NW,315,0.0,0.0,37,0.00,,,0.00,VWS V13.01,2013-01-23 03:22:00,
2013-01-22 21:23:00,13.8,-7.6,29.71,NW,315,2.2,2.2,37,0.00,,,0.00,VWS V13.01,2013-01-23 03:23:00,
2013-01-22 21:24:00,13.8,-7.6,29.71,NW,315,3.1,3.1,37,0.00,,,0.00,VWS V13.01,2013-01-23 03:24:00,
2013-01-22 21:25:00,13.8,-7.6,29.71,NW,315,0.0,3.1,37,0.00,,,0.00,VWS V13.01,2013-01-23 03:25:00,
2013-01-22 21:26:00,13.8,-7.6,29.71,NW,315,2.7,2.7,37,0.00,,,0.00,VWS V13.01,2013-01-23 03:26:00,
2013-01-22 21:27:00,13.8,-7.6,29.71,NW,315,2.2,2.7,37,0.00,,,0.00,VWS V13.01,2013-01-23 03:27:00,
2013-01-22 21:28:00,13.8,-7.6,29.71,NW,315,0.0,2.2,37,0.00,,,0.00,VWS V13.01,2013-01-23 03:28:00,
2013-01-22 21:29:00,13.8,-7.6,29.71,NW,315,0.0,2.2,37,0.00,,,0.00,VWS V13.01,2013-01-23 03:29:00,
2013-01-22 21:30:00,13.8,-7.6,29.71,NW,315,2.2,2.2,37,0.00,,,0.00,VWS V13.01,2013-01-23 03:30:00,
2013-01-22 21:31:00,13.8,-7.6,29.71,NW,315,3.1,3.1,37,0.00,,,0.00,VWS V13.01,2013-01-23 03:31:00,
2013-01-22 21:32:00,13.8,-7.6,29.68,NW,315,2.2,3.1,37,0.00,,,0.00,VWS V13.01,2013-01-23 03:32:00,
2013-01-22 21:33:00,13.8,-7.6,29.68,NW,315,0.0,2.2,37,0.00,,,0.00,VWS V13.01,2013-01-23 03:33:00,
2013-01-22 21:34:00,13.8,-7.6,29.68,NW,315,0.0,2.2,37,0.00,,,0.00,VWS V13.01,2013-01-23 03:34:00,
2013-01-22 21:35:00,13.8,-7.6,29.68,NW,315,2.2,2.7,37,0.00,,,0.00,VWS V13.01,2013-01-23 03:35:00,
2013-01-22 21:36:00,13.8,-7.6,29.68,NW,315,2.2,2.7,37,0.00,,,0.00,VWS V13.01,2013-01-23 03:36:00,
2013-01-22 21:37:00,13.8,-7.6,29.68,NW,315,0.0,2.2,37,0.00,,,0.00,VWS V13.01,2013-01-23 03:37:00,
2013-01-22 21:38:00,13.8,-7.6,29.68,NW,315,2.7,2.7,37,0.00,,,0.00,VWS V13.01,2013-01-23 03:38:00,
2013-01-22 21:39:00,13.8,-7.6,29.68,NW,315,0.0,2.7,37,0.00,,,0.00,VWS V13.01,2013-01-23 03:39:00,
2013-01-22 21:40:00,13.8,-7.6,29.68,NW,315,0.0,0.0,37,0.00,,,0.00,VWS V13.01,2013-01-23 03:40:00,
2013-01-22 21:41:00,13.8,-7.6,29.68,NW,315,0.0,0.0,37,0.00,,,0.00,VWS V13.01,2013-01-23 03:41:00,
2013-01-22 21:42:00,13.8,-7.6,29.68,NW,315,0.0,2.2,37,0.00,,,0.00,VWS V13.01,2013-01-23 03:42:00,
2013-01-22 21:43:00,13.8,-7.6,29.68,NW,315,2.7,3.1,37,0.00,,,0.00,VWS V13.01,2013-01-23 03:43:00,
2013-01-22 21:44:00,13.8,-7.6,29.68,NW,315,2.7,3.1,37,0.00,,,0.00,VWS V13.01,2013-01-23 03:44:00,
2013-01-22 21:45:00,13.6,-7.8,29.68,NW,315,2.2,3.1,37,0.00,,,0.00,VWS V13.01,2013-01-23 03:45:00,
2013-01-22 21:46:00,13.6,-7.8,29.68,NW,315,2.7,2.7,37,0.00,,,0.00,VWS V13.01,2013-01-23 03:46:00,
2013-01-22 21:47:00,13.6,-7.8,29.68,NW,315,0.0,2.7,37,0.00,,,0.00,VWS V13.01,2013-01-23 03:47:00,
2013-01-22 21:48:00,13.6,-7.8,29.68,NW,315,2.7,2.7,37,0.00,,,0.00,VWS V13.01,2013-01-23 03:48:00,
2013-01-22 21:49:00,13.6,-7.8,29.68,NW,315,2.2,2.7,37,0.00,,,0.00,VWS V13.01,2013-01-23 03:49:00,
2013-01-22 21:50:00,13.6,-7.8,29.68,NW,315,2.7,3.1,37,0.00,,,0.00,VWS V13.01,2013-01-23 03:50:00,
2013-01-22 21:51:00,13.6,-7.8,29.68,NW,315,2.7,3.1,37,0.00,,,0.00,VWS V13.01,2013-01-23 03:51:00,
2013-01-22 21:52:00,13.6,-7.8,29.68,NW,315,2.7,2.7,37,0.00,,,0.00,VWS V13.01,2013-01-23 03:52:00,
2013-01-22 21:53:00,13.6,-7.8,29.68,NW,315,2.7,2.7,37,0.00,,,0.00,VWS V13.01,2013-01-23 03:53:00,
2013-01-22 21:54:00,13.6,-7.8,29.68,NW,315,2.2,2.7,37,0.00,,,0.00,VWS V13.01,2013-01-23 03:54:00,
2013-01-22 21:55:00,13.6,-7.8,29.68,NW,315,2.2,2.2,37,0.00,,,0.00,VWS V13.01,2013-01-23 03:55:00,
2013-01-22 21:56:00,13.6,-7.8,29.68,NW,315,0.0,2.2,37,0.00,,,0.00,VWS V13.01,2013-01-23 03:56:00,
2013-01-22 21:57:00,13.6,-7.8,29.68,NW,315,2.2,2.2,37,0.00,,,0.00,VWS V13.01,2013-01-23 03:57:00,
2013-01-22 21:58:00,13.6,-7.8,29.68,NW,315,0.0,0.0,37,0.00,,,0.00,VWS V13.01,2013-01-23 03:58:00,
2013-01-22 21:59:00,13.6,-7.8,29.68,NW,315,2.7,2.7,37,0.00,,,0.00,VWS V13.01,2013-01-23 03:59:00,
2013-01-22 22:00:00,13.6,-7.8,29.68,NW,315,2.7,3.1,37,0.00,,,0.00,VWS V13.01,2013-01-23 04:00:00,
2013-01-22 22:01:00,13.6,-7.8,29.68,NW,315,2.7,2.7,37,0.00,,,0.00,VWS V13.01,2013-01-23 04:01:00,
2013-01-22 22:02:00,13.6,-7.8,29.71,NW,315,2.2,2.7,37,0.00,,,0.00,VWS V13.01,2013-01-23 04:02:00,
2013-01-22 22:03:00,13.5,-7.9,29.71,NW,315,0.0,2.2,37,0.00,,,0.00,VWS V13.01,2013-01-23 04:03:00,
2013-01-22 22:04:00,13.5,-7.9,29.71,NW,315,2.2,2.2,37,0.00,,,0.00,VWS V13.01,2013-01-23 04:04:00,
2013-01-22 22:05:00,13.5,-7.9,29.71,NW,315,0.0,2.7,37,0.00,,,0.00,VWS V13.01,2013-01-23 04:05:00,
2013-01-22 22:06:00,13.5,-7.9,29.71,NW,315,2.7,2.7,37,0.00,,,0.00,VWS V13.01,2013-01-23 04:06:00,
2013-01-22 22:07:00,13.5,-7.9,29.71,NW,315,2.2,2.7,37,0.00,,,0.00,VWS V13.01,2013-01-23 04:07:00,
2013-01-22 22:08:00,13.5,-7.9,29.71,NW,315,2.7,3.1,37,0.00,,,0.00,VWS V13.01,2013-01-23 04:08:00,
2013-01-22 22:09:00,13.5,-7.9,29.71,NW,315,2.7,3.1,37,0.00,,,0.00,VWS V13.01,2013-01-23 04:09:00,
2013-01-22 22:10:00,13.6,-7.8,29.71,NW,315,2.2,3.6,37,0.00,,,0.00,VWS V13.01,2013-01-23 04:10:00,
2013-01-22 22:11:00,13.5,-7.9,29.71,NW,315,2.7,2.7,37,0.00,,,0.00,VWS V13.01,2013-01-23 04:11:00,
2013-01-22 22:12:00,13.6,-7.8,29.71,NW,315,0.0,2.7,37,0.00,,,0.00,VWS V13.01,2013-01-23 04:12:00,
2013-01-22 22:13:00,13.5,-7.9,29.71,NW,315,2.7,2.7,37,0.00,,,0.00,VWS V13.01,2013-01-23 04:13:00,
2013-01-22 22:14:00,13.5,-7.9,29.71,NW,315,2.2,2.7,37,0.00,,,0.00,VWS V13.01,2013-01-23 04:14:00,
2013-01-22 22:15:00,13.5,-7.9,29.71,NW,315,0.0,2.2,37,0.00,,,0.00,VWS V13.01,2013-01-23 04:15:00,
2013-01-22 22:16:00,13.5,-7.9,29.71,NW,315,0.0,0.0,37,0.00,,,0.00,VWS V13.01,2013-01-23 04:16:00,
2013-01-22 22:17:00,13.5,-7.9,29.68,NW,315,0.0,0.0,37,0.00,,,0.00,VWS V13.01,2013-01-23 04:17:00,
2013-01-22 22:18:00,13.5,-7.9,29.68,NW,315,2.7,2.7,37,0.00,,,0.00,VWS V13.01,2013-01-23 04:18:00,
2013-01-22 22:19:00,13.5,-7.9,29.68,NW,315,2.2,2.7,37,0.00,,,0.00,VWS V13.01,2013-01-23 04:19:00,
2013-01-22 22:20:00,13.5,-7.9,29.68,NW,315,2.7,3.1,37,0.00,,,0.00,VWS V13.01,2013-01-23 04:20:00,
2013-01-22 22:21:00,13.6,-7.8,29.68,NW,315,2.7,3.6,37,0.00,,,0.00,VWS V13.01,2013-01-23 04:21:00,
2013-01-22 22:22:00,13.6,-7.8,29.68,NW,315,2.7,2.7,37,0.00,,,0.00,VWS V13.01,2013-01-23 04:22:00,
2013-01-22 22:23:00,13.6,-7.8,29.68,NW,315,3.1,3.1,37,0.00,,,0.00,VWS V13.01,2013-01-23 04:23:00,
2013-01-22 22:24:00,13.6,-7.8,29.68,NW,315,0.0,3.1,37,0.00,,,0.00,VWS V13.01,2013-01-23 04:24:00,
2013-01-22 22:25:00,13.6,-7.8,29.68,NW,315,2.7,2.7,37,0.00,,,0.00,VWS V13.01,2013-01-23 04:25:00,
2013-01-22 22:26:00,13.6,-7.8,29.68,NW,315,2.7,2.7,37,0.00,,,0.00,VWS V13.01,2013-01-23 04:26:00,
2013-01-22 22:27:00,13.6,-7.8,29.68,NW,315,2.7,2.7,37,0.00,,,0.00,VWS V13.01,2013-01-23 04:27:00,
2013-01-22 22:28:00,13.6,-7.8,29.68,NW,315,2.2,2.2,37,0.00,,,0.00,VWS V13.01,2013-01-23 04:28:00,
2013-01-22 22:29:00,13.6,-7.8,29.68,NW,315,0.0,2.2,37,0.00,,,0.00,VWS V13.01,2013-01-23 04:29:00,
2013-01-22 22:30:00,13.6,-7.8,29.68,NW,315,0.0,0.0,37,0.00,,,0.00,VWS V13.01,2013-01-23 04:30:00,
2013-01-22 22:31:00,13.5,-7.9,29.68,NW,315,0.0,0.0,37,0.00,,,0.00,VWS V13.01,2013-01-23 04:31:00,
2013-01-22 22:32:00,13.6,-7.8,29.71,NW,315,0.0,0.0,37,0.00,,,0.00,VWS V13.01,2013-01-23 04:32:00,
2013-01-22 22:33:00,13.5,-7.9,29.71,NW,315,0.0,0.0,37,0.00,,,0.00,VWS V13.01,2013-01-23 04:33:00,
2013-01-22 22:34:00,13.5,-7.9,29.71,NW,315,0.0,0.0,37,0.00,,,0.00,VWS V13.01,2013-01-23 04:34:00,
2013-01-22 22:35:00,13.5,-7.9,29.71,NW,315,0.0,0.0,37,0.00,,,0.00,VWS V13.01,2013-01-23 04:35:00,
2013-01-22 22:36:00,13.5,-7.9,29.71,NW,315,0.0,0.0,37,0.00,,,0.00,VWS V13.01,2013-01-23 04:36:00,
2013-01-22 22:37:00,13.5,-7.9,29.71,NW,315,0.0,0.0,37,0.00,,,0.00,VWS V13.01,2013-01-23 04:37:00,
2013-01-22 22:38:00,13.5,-7.9,29.71,NW,315,0.0,0.0,37,0.00,,,0.00,VWS V13.01,2013-01-23 04:38:00,
2013-01-22 22:39:00,13.5,-7.9,29.71,NW,315,0.0,0.0,37,0.00,,,0.00,VWS V13.01,2013-01-23 04:39:00,
2013-01-22 22:40:00,13.3,-8.1,29.71,NW,315,0.0,0.0,37,0.00,,,0.00,VWS V13.01,2013-01-23 04:40:00,
2013-01-22 22:41:00,13.3,-8.1,29.71,NW,315,0.0,0.0,37,0.00,,,0.00,VWS V13.01,2013-01-23 04:41:00,
2013-01-22 22:42:00,13.3,-8.1,29.71,NW,315,0.0,0.0,37,0.00,,,0.00,VWS V13.01,2013-01-23 04:42:00,
2013-01-22 22:43:00,13.3,-8.1,29.71,NW,315,0.0,0.0,37,0.00,,,0.00,VWS V13.01,2013-01-23 04:43:00,
2013-01-22 22:44:00,13.5,-7.9,29.71,NW,315,0.0,0.0,37,0.00,,,0.00,VWS V13.01,2013-01-23 04:44:00,
2013-01-22 22:45:00,13.3,-8.1,29.71,NW,315,0.0,0.0,37,0.00,,,0.00,VWS V13.01,2013-01-23 04:45:00,
2013-01-22 22:46:00,13.3,-8.1,29.71,NW,315,0.0,0.0,37,0.00,,,0.00,VWS V13.01,2013-01-23 04:46:00,
2013-01-22 22:47:00,13.3,-8.1,29.68,NW,315,0.0,0.0,37,0.00,,,0.00,VWS V13.01,2013-01-23 04:47:00,
2013-01-22 22:48:00,13.5,-7.9,29.68,NW,315,0.0,0.0,37,0.00,,,0.00,VWS V13.01,2013-01-23 04:48:00,
2013-01-22 22:49:00,13.5,-7.9,29.68,NW,315,0.0,0.0,37,0.00,,,0.00,VWS V13.01,2013-01-23 04:49:00,
2013-01-22 22:50:00,13.5,-7.9,29.68,NW,315,2.2,2.2,37,0.00,,,0.00,VWS V13.01,2013-01-23 04:50:00,
2013-01-22 22:51:00,13.5,-7.9,29.68,NW,315,2.2,2.2,37,0.00,,,0.00,VWS V13.01,2013-01-23 04:51:00,
2013-01-22 22:52:00,13.5,-7.9,29.68,NW,315,0.0,2.7,37,0.00,,,0.00,VWS V13.01,2013-01-23 04:52:00,
2013-01-22 22:53:00,13.5,-7.9,29.68,NW,315,2.2,2.2,37,0.00,,,0.00,VWS V13.01,2013-01-23 04:53:00,
2013-01-22 22:54:00,13.5,-7.9,29.68,NW,315,0.0,2.2,37,0.00,,,0.00,VWS V13.01,2013-01-23 04:54:00,
2013-01-22 22:55:00,13.5,-7.9,29.68,NW,315,2.7,2.7,37,0.00,,,0.00,VWS V13.01,2013-01-23 04:55:00,
2013-01-22 22:56:00,13.6,-7.8,29.68,NW,315,2.7,3.1,37,0.00,,,0.00,VWS V13.01,2013-01-23 04:56:00,
2013-01-22 22:57:00,13.6,-7.8,29.68,NW,315,2.7,3.6,37,0.00,,,0.00,VWS V13.01,2013-01-23 04:57:00,
2013-01-22 22:58:00,13.6,-7.8,29.68,NW,315,0.0,2.2,37,0.00,,,0.00,VWS V13.01,2013-01-23 04:58:00,
2013-01-22 22:59:00,13.6,-7.8,29.68,NW,315,2.2,2.2,37,0.00,,,0.00,VWS V13.01,2013-01-23 04:59:00,
2013-01-22 23:00:00,13.6,-7.8,29.68,NW,315,2.7,2.7,37,0.00,,,0.00,VWS V13.01,2013-01-23 05:00:00,
2013-01-22 23:01:00,13.6,-7.8,29.68,NW,315,0.0,2.7,37,0.00,,,0.00,VWS V13.01,2013-01-23 05:01:00,
2013-01-22 23:02:00,13.6,-7.8,29.68,NW,315,0.0,0.0,37,0.00,,,0.00,VWS V13.01,2013-01-23 05:02:00,
2013-01-22 23:03:00,13.6,-7.8,29.68,NW,315,0.0,0.0,37,0.00,,,0.00,VWS V13.01,2013-01-23 05:03:00,
2013-01-22 23:04:00,13.8,-7.6,29.68,NW,315,0.0,0.0,37,0.00,,,0.00,VWS V13.01,2013-01-23 05:04:00,
2013-01-22 23:05:00,13.8,-7.6,29.68,NW,315,0.0,0.0,37,0.00,,,0.00,VWS V13.01,2013-01-23 05:05:00,
2013-01-22 23:06:00,13.8,-7.6,29.68,NW,315,0.0,0.0,37,0.00,,,0.00,VWS V13.01,2013-01-23 05:06:00,
2013-01-22 23:07:00,13.8,-7.6,29.68,NW,315,2.2,2.7,37,0.00,,,0.00,VWS V13.01,2013-01-23 05:07:00,
2013-01-22 23:08:00,13.8,-7.6,29.68,NW,315,2.2,2.2,37,0.00,,,0.00,VWS V13.01,2013-01-23 05:08:00,
2013-01-22 23:09:00,13.8,-7.6,29.68,NW,315,0.0,2.7,37,0.00,,,0.00,VWS V13.01,2013-01-23 05:09:00,
2013-01-22 23:10:00,13.8,-7.6,29.68,NW,315,0.0,2.7,37,0.00,,,0.00,VWS V13.01,2013-01-23 05:10:00,
2013-01-22 23:11:00,13.8,-7.6,29.68,NW,315,0.0,0.0,37,0.00,,,0.00,VWS V13.01,2013-01-23 05:11:00,
2013-01-22 23:12:00,13.8,-7.6,29.68,NW,315,0.0,0.0,37,0.00,,,0.00,VWS V13.01,2013-01-23 05:12:00,
2013-01-22 23:13:00,13.8,-7.6,29.68,NW,315,0.0,0.0,37,0.00,,,0.00,VWS V13.01,2013-01-23 05:13:00,
2013-01-22 23:14:00,13.8,-7.6,29.68,NW,315,0.0,0.0,37,0.00,,,0.00,VWS V13.01,2013-01-23 05:14:00,
2013-01-22 23:15:00,14.0,-3.9,29.68,NW,315,0.0,0.0,44,0.00,,,0.00,VWS V13.01,2013-01-23 05:15:00,
2013-01-22 23:16:00,14.0,-3.9,29.68,NW,315,0.0,0.0,44,0.00,,,0.00,VWS V13.01,2013-01-23 05:16:00,
2013-01-22 23:17:00,14.0,-3.9,29.68,NW,315,0.0,0.0,44,0.00,,,0.00,VWS V13.01,2013-01-23 05:17:00,
2013-01-22 23:18:00,14.0,-3.9,29.68,NW,315,0.0,0.0,44,0.00,,,0.00,VWS V13.01,2013-01-23 05:18:00,
2013-01-22 23:19:00,14.0,-3.9,29.68,NW,315,0.0,0.0,44,0.00,,,0.00,VWS V13.01,2013-01-23 05:19:00,
2013-01-22 23:20:00,14.0,-3.9,29.68,NW,315,0.0,0.0,44,0.00,,,0.00,VWS V13.01,2013-01-23 05:20:00,
2013-01-22 23:21:00,14.0,-3.9,29.68,NW,315,0.0,0.0,44,0.00,,,0.00,VWS V13.01,2013-01-23 05:21:00,
2013-01-22 23:22:00,14.0,-3.9,29.68,NW,315,0.0,0.0,44,0.00,,,0.00,VWS V13.01,2013-01-23 05:22:00,
2013-01-22 23:23:00,14.2,-3.7,29.68,NW,315,0.0,0.0,44,0.00,,,0.00,VWS V13.01,2013-01-23 05:23:00,
2013-01-22 23:24:00,14.0,-3.9,29.68,NW,315,0.0,0.0,44,0.00,,,0.00,VWS V13.01,2013-01-23 05:24:00,
2013-01-22 23:25:00,14.2,-3.7,29.68,NW,315,0.0,0.0,44,0.00,,,0.00,VWS V13.01,2013-01-23 05:25:00,
2013-01-22 23:26:00,14.2,-3.7,29.68,NW,315,0.0,0.0,44,0.00,,,0.00,VWS V13.01,2013-01-23 05:26:00,
2013-01-22 23:27:00,14.2,-3.7,29.68,NW,315,3.1,3.1,44,0.00,,,0.00,VWS V13.01,2013-01-23 05:27:00,
2013-01-22 23:28:00,14.2,-3.7,29.68,NW,315,2.2,2.7,44,0.00,,,0.00,VWS V13.01,2013-01-23 05:28:00,
2013-01-22 23:29:00,14.2,-3.7,29.68,NW,315,3.1,3.1,44,0.00,,,0.00,VWS V13.01,2013-01-23 05:29:00,
2013-01-22 23:30:00,14.2,-3.7,29.68,NW,315,2.7,3.1,44,0.00,,,0.00,VWS V13.01,2013-01-23 05:30:00,
2013-01-22 23:31:00,14.2,-3.7,29.68,NW,315,2.7,2.7,44,0.00,,,0.00,VWS V13.01,2013-01-23 05:31:00,
2013-01-22 23:32:00,14.2,-3.7,29.68,NW,315,0.0,3.1,44,0.00,,,0.00,VWS V13.01,2013-01-23 05:32:00,
2013-01-22 23:33:00,14.2,-3.7,29.68,NW,315,2.7,2.7,44,0.00,,,0.00,VWS V13.01,2013-01-23 05:33:00,
2013-01-22 23:34:00,14.2,-3.7,29.68,NW,315,2.7,3.1,44,0.00,,,0.00,VWS V13.01,2013-01-23 05:34:00,
2013-01-22 23:35:00,14.2,-3.7,29.68,NW,315,2.7,2.7,44,0.00,,,0.00,VWS V13.01,2013-01-23 05:35:00,
2013-01-22 23:36:00,14.2,-3.7,29.68,NW,315,3.1,3.1,44,0.00,,,0.00,VWS V13.01,2013-01-23 05:36:00,
2013-01-22 23:37:00,14.2,-3.7,29.68,NW,315,2.7,3.1,44,0.00,,,0.00,VWS V13.01,2013-01-23 05:37:00,
2013-01-22 23:38:00,14.2,-3.7,29.68,NW,315,3.6,3.6,44,0.00,,,0.00,VWS V13.01,2013-01-23 05:38:00,
2013-01-22 23:39:00,14.2,-3.7,29.68,NW,315,3.6,3.6,44,0.00,,,0.00,VWS V13.01,2013-01-23 05:39:00,
2013-01-22 23:40:00,14.2,-3.7,29.68,NW,315,3.6,3.6,44,0.00,,,0.00,VWS V13.01,2013-01-23 05:40:00,
2013-01-22 23:41:00,14.2,-3.7,29.68,NW,315,2.7,3.6,44,0.00,,,0.00,VWS V13.01,2013-01-23 05:41:00,
2013-01-22 23:42:00,14.2,-3.7,29.68,NW,315,0.0,3.1,44,0.00,,,0.00,VWS V13.01,2013-01-23 05:42:00,
2013-01-22 23:43:00,14.2,-3.7,29.68,NW,315,2.2,2.7,44,0.00,,,0.00,VWS V13.01,2013-01-23 05:43:00,
2013-01-22 23:44:00,14.2,-3.7,29.68,NW,315,2.7,2.7,44,0.00,,,0.00,VWS V13.01,2013-01-23 05:44:00,
2013-01-22 23:45:00,14.2,-3.7,29.68,NW,315,2.7,2.7,44,0.00,,,0.00,VWS V13.01,2013-01-23 05:45:00,
2013-01-22 23:46:00,14.2,-3.7,29.68,NW,315,2.7,2.7,44,0.00,,,0.00,VWS V13.01,2013-01-23 05:46:00,
2013-01-22 23:47:00,14.2,-3.7,29.71,NW,315,2.2,2.7,44,0.00,,,0.00,VWS V13.01,2013-01-23 05:47:00,
2013-01-22 23:48:00,14.2,-3.7,29.71,NW,315,2.2,2.2,44,0.00,,,0.00,VWS V13.01,2013-01-23 05:48:00,
2013-01-22 23:49:00,14.2,-3.7,29.71,NW,315,2.7,2.7,44,0.00,,,0.00,VWS V13.01,2013-01-23 05:49:00,
2013-01-22 23:50:00,14.2,-3.7,29.71,NW,315,2.2,2.7,44,0.00,,,0.00,VWS V13.01,2013-01-23 05:50:00,
2013-01-22 23:51:00,14.2,-3.7,29.71,NW,315,2.7,2.7,44,0.00,,,0.00,VWS V13.01,2013-01-23 05:51:00,
2013-01-22 23:52:00,14.2,-3.7,29.71,NW,315,3.1,3.1,44,0.00,,,0.00,VWS V13.01,2013-01-23 05:52:00,
2013-01-22 23:53:00,14.2,-3.7,29.71,NW,315,2.7,2.7,44,0.00,,,0.00,VWS V13.01,2013-01-23 05:53:00,
2013-01-22 23:54:00,14.2,-3.7,29.71,NW,315,2.7,2.7,44,0.00,,,0.00,VWS V13.01,2013-01-23 05:54:00,
2013-01-22 23:55:00,14.2,-3.7,29.71,NW,315,3.1,3.1,44,0.00,,,0.00,VWS V13.01,2013-01-23 05:55:00,
2013-01-22 23:56:00,14.2,-3.7,29.71,NW,315,2.2,3.1,44,0.00,,,0.00,VWS V13.01,2013-01-23 05:56:00,
2013-01-22 23:57:00,14.2,-3.7,29.71,NW,315,2.7,3.1,44,0.00,,,0.00,VWS V13.01,2013-01-23 05:57:00,
2013-01-22 23:58:00,14.2,-3.7,29.71,NW,315,3.6,3.6,44,0.00,,,0.00,VWS V13.01,2013-01-23 05:58:00,
2013-01-22 23:59:00,14.2,-3.7,29.71,NW,315,3.1,3.6,44,0.00,,,0.00,VWS V13.01,2013-01-23 05:59:00,